Provisional Data: Moose Creek near Plymptonville, PA


Please select a monitoring station.
Please select start date.
Please select start date.

Toggle Unit: C/F Toggle Unit: C/F
Sample Time Temperature (C) Temperature (F) Specific Conductivity (mS/cm) pH   Turbidity (NTU+) DO (mg/L)
12/4/2020 12:00:00 AM 3.15 37.67 0.186 7.28 7.66 12.86
12/4/2020 12:15:00 AM 3.12 37.616 0.186 7.28 7.62 12.87
12/4/2020 12:30:00 AM 3.11 37.598 0.186 7.28 7.64 12.88
12/4/2020 12:45:00 AM 3.1 37.58 0.186 7.28 7.72 12.88
12/4/2020 1:00:00 AM 3.1 37.58 0.185 7.28 7.8 12.88
12/4/2020 1:15:00 AM 3.1 37.58 0.185 7.28 8.12 12.87
12/4/2020 1:30:00 AM 3.09 37.562 0.185 7.28 7.78 12.88
12/4/2020 1:45:00 AM 3.08 37.544 0.185 7.27 7.78 12.88
12/4/2020 2:00:00 AM 3.07 37.526 0.184 7.28 7.7 12.88
12/4/2020 2:15:00 AM 3.07 37.526 0.184 7.27 7.71 12.88
12/4/2020 2:30:00 AM 3.07 37.526 0.184 7.27 7.76 12.88
12/4/2020 2:45:00 AM 3.08 37.544 0.184 7.27 7.73 12.87
12/4/2020 3:00:00 AM 3.09 37.562 0.184 7.27 7.73 12.87
12/4/2020 3:15:00 AM 3.1 37.58 0.183 7.27 7.71 12.87
12/4/2020 3:30:00 AM 3.1 37.58 0.183 7.27 7.73 12.87
12/4/2020 3:45:00 AM 3.1 37.58 0.183 7.27 7.66 12.86
12/4/2020 4:00:00 AM 3.11 37.598 0.183 7.27 7.7 12.85
12/4/2020 4:15:00 AM 3.13 37.634 0.183 7.27 7.72 12.85
12/4/2020 4:30:00 AM 3.15 37.67 0.182 7.26 7.69 12.84
12/4/2020 4:45:00 AM 3.17 37.706 0.182 7.27 7.75 12.84
12/4/2020 5:00:00 AM 3.19 37.742 0.182 7.26 7.72 12.83
12/4/2020 5:15:00 AM 3.21 37.778 0.182 7.26 7.73 12.83
12/4/2020 5:30:00 AM 3.21 37.778 0.182 7.25 7.72 12.82
12/4/2020 5:45:00 AM 3.21 37.778 0.181 7.26 7.7 12.82
12/4/2020 6:00:00 AM 3.19 37.742 0.181 7.26 7.73 12.82
12/4/2020 6:15:00 AM 3.17 37.706 0.181 7.26 7.67 12.83
12/4/2020 6:30:00 AM 3.15 37.67 0.181 7.25 7.66 12.84
12/4/2020 6:45:00 AM 3.12 37.616 0.181 7.25 7.69 12.85
12/4/2020 7:00:00 AM 3.11 37.598 0.181 7.25 7.69 12.86
12/4/2020 7:15:00 AM 3.09 37.562 0.181 7.25 7.73 12.86
12/4/2020 7:30:00 AM 3.07 37.526 0.18 7.25 7.75 12.88
12/4/2020 7:45:00 AM 3.05 37.49 0.18 7.25 7.7 12.89
12/4/2020 8:00:00 AM 3.03 37.454 0.18 7.25 7.74 12.88
12/4/2020 8:15:00 AM 3.02 37.436 0.18 7.25 7.74 12.89
12/4/2020 8:30:00 AM 3.02 37.436 0.18 7.25 7.69 12.9
12/4/2020 8:45:00 AM 3.05 37.49 0.18 7.26 7.68 12.9
12/4/2020 9:00:00 AM 3.08 37.544 0.179 7.26 7.66 12.89
12/4/2020 9:15:00 AM 3.12 37.616 0.179 7.26 7.69 12.88
12/4/2020 9:30:00 AM 3.15 37.67 0.179 7.26 7.65 12.86
12/4/2020 9:45:00 AM 3.21 37.778 0.179 7.26 7.67 12.85
12/4/2020 10:00:00 AM 3.27 37.886 0.179 7.26 7.67 12.82
12/4/2020 10:15:00 AM 3.33 37.994 0.178 7.26 7.62 12.81
12/4/2020 10:30:00 AM 3.39 38.102 0.178 7.27 7.62 12.79
12/4/2020 10:45:00 AM 3.45 38.21 0.178 7.27 7.64 12.76
12/4/2020 11:00:00 AM 3.52 38.336 0.178 7.27 7.65 12.74
12/4/2020 11:15:00 AM 3.59 38.462 0.178 7.27 7.61 12.72
12/4/2020 11:30:00 AM 3.68 38.624 0.177 7.27 7.58 12.69
12/4/2020 11:45:00 AM 3.77 38.786 0.177 7.27 7.57 12.66
12/4/2020 12:00:00 PM 3.87 38.966 0.177 7.28 7.58 12.62
12/4/2020 12:15:00 PM 3.96 39.128 0.177 7.28 7.58 12.59
12/4/2020 12:30:00 PM 4.05 39.29 0.177 7.28 7.56 12.56
12/4/2020 12:45:00 PM 4.13 39.434 0.177 7.28 7.57 12.52
12/4/2020 1:00:00 PM 4.19 39.542 0.176 7.28 7.59 12.5
12/4/2020 1:15:00 PM 4.25 39.65 0.176 7.28 7.59 12.49
12/4/2020 1:30:00 PM 4.29 39.722 0.176 7.28 7.65 12.47
12/4/2020 1:45:00 PM 4.29 39.722 0.176 7.28 7.68 12.46
12/4/2020 2:00:00 PM 4.29 39.722 0.176 7.28 7.64 12.45
12/4/2020 2:15:00 PM 4.29 39.722 0.176 7.27 7.67 12.45
12/4/2020 2:30:00 PM 4.28 39.704 0.176 7.27 7.65 12.45
12/4/2020 2:45:00 PM 4.26 39.668 0.177 7.27 7.67 12.46
12/4/2020 3:00:00 PM 4.25 39.65 0.177 7.27 7.6 12.46
12/4/2020 3:15:00 PM 4.23 39.614 0.177 7.27 7.62 12.46
12/4/2020 3:30:00 PM 4.22 39.596 0.177 7.27 7.69 12.46
12/4/2020 3:45:00 PM 4.21 39.578 0.178 7.26 7.65 12.46
12/4/2020 4:00:00 PM 4.2 39.56 0.178 7.26 7.72 12.47
12/4/2020 4:15:00 PM 4.19 39.542 0.179 7.26 7.74 12.47
12/4/2020 4:30:00 PM 4.17 39.506 0.18 7.26 7.71 12.46
12/4/2020 4:45:00 PM 4.16 39.488 0.182 7.26 7.76 12.47
12/4/2020 5:00:00 PM 4.14 39.452 0.183 7.26 7.75 12.47
12/4/2020 5:15:00 PM 4.13 39.434 0.184 7.26 7.76 12.47
12/4/2020 5:30:00 PM 4.12 39.416 0.185 7.26 7.73 12.47
12/4/2020 5:45:00 PM 4.1 39.38 0.186 7.26 7.74 12.48
12/4/2020 6:00:00 PM 4.09 39.362 0.187 7.26 7.79 12.49
12/4/2020 6:15:00 PM 4.08 39.344 0.188 7.26 7.76 12.49
12/4/2020 6:30:00 PM 4.08 39.344 0.189 7.26 7.73 12.49
12/4/2020 6:45:00 PM 4.07 39.326 0.19 7.26 7.79 12.49
12/4/2020 7:00:00 PM 4.07 39.326 0.19 7.26 7.75 12.49
12/4/2020 7:15:00 PM 4.07 39.326 0.191 7.26 7.78 12.49
12/4/2020 7:30:00 PM 4.08 39.344 0.191 7.26 7.75 12.48
12/4/2020 7:45:00 PM 4.09 39.362 0.192 7.26 7.74 12.48
12/4/2020 8:00:00 PM 4.1 39.38 0.192 7.26 7.74 12.48
12/4/2020 8:15:00 PM 4.11 39.398 0.192 7.26 7.78 12.48
12/4/2020 8:30:00 PM 4.12 39.416 0.192 7.26 7.7 12.48
12/4/2020 8:45:00 PM 4.12 39.416 0.192 7.27 7.74 12.48
12/4/2020 9:00:00 PM 4.13 39.434 0.192 7.27 7.82 12.47
12/4/2020 9:15:00 PM 4.15 39.47 0.192 7.28 7.74 12.47
12/4/2020 9:30:00 PM 4.15 39.47 0.192 7.28 7.74 12.46
12/4/2020 9:45:00 PM 4.16 39.488 0.192 7.28 7.79 12.46
12/4/2020 10:00:00 PM 4.17 39.506 0.192 7.28 7.87 12.46
12/4/2020 10:15:00 PM 4.17 39.506 0.192 7.28 7.78 12.46
12/4/2020 10:30:00 PM 4.16 39.488 0.192 7.28 7.82 12.46
12/4/2020 10:45:00 PM 4.16 39.488 0.191 7.28 7.85 12.45
12/4/2020 11:00:00 PM 4.16 39.488 0.191 7.28 7.82 12.45
12/4/2020 11:15:00 PM 4.16 39.488 0.191 7.28 7.86 12.45
12/4/2020 11:30:00 PM 4.17 39.506 0.191 7.28 7.82 12.45
12/4/2020 11:45:00 PM 4.17 39.506 0.191 7.28 7.82 12.45
12/5/2020 12:00:00 AM 4.17 39.506 0.191 7.28 7.79 12.44
12/5/2020 12:15:00 AM 4.16 39.488 0.191 7.28 7.83 12.45
12/5/2020 12:30:00 AM 4.14 39.452 0.191 7.29 7.77 12.45
12/5/2020 12:45:00 AM 4.13 39.434 0.191 7.29 7.83 12.45
12/5/2020 1:00:00 AM 4.13 39.434 0.191 7.3 7.83 12.45
12/5/2020 1:15:00 AM 4.13 39.434 0.19 7.3 7.79 12.45
12/5/2020 1:30:00 AM 4.14 39.452 0.19 7.29 7.82 12.45
12/5/2020 1:45:00 AM 4.14 39.452 0.19 7.29 7.86 12.44
12/5/2020 2:00:00 AM 4.13 39.434 0.19 7.29 7.88 12.44
12/5/2020 2:15:00 AM 4.13 39.434 0.19 7.29 7.95 12.44
12/5/2020 2:30:00 AM 4.13 39.434 0.19 7.3 7.84 12.44
12/5/2020 2:45:00 AM 4.13 39.434 0.19 7.3 7.91 12.44
12/5/2020 3:00:00 AM 4.12 39.416 0.19 7.3 7.94 12.44
12/5/2020 3:15:00 AM 4.12 39.416 0.19 7.3 7.95 12.44
12/5/2020 3:30:00 AM 4.12 39.416 0.19 7.3 7.89 12.45
12/5/2020 3:45:00 AM 4.12 39.416 0.19 7.3 7.91 12.45
12/5/2020 4:00:00 AM 4.12 39.416 0.19 7.3 7.89 12.44
12/5/2020 4:15:00 AM 4.13 39.434 0.19 7.3 7.95 12.45
12/5/2020 4:30:00 AM 4.13 39.434 0.19 7.3 7.91 12.44
12/5/2020 4:45:00 AM 4.14 39.452 0.19 7.3 7.93 12.44
12/5/2020 5:00:00 AM 4.14 39.452 0.19 7.3 8.17 12.44
12/5/2020 5:15:00 AM 4.15 39.47 0.189 7.3 8.3 12.44
12/5/2020 5:30:00 AM 4.15 39.47 0.189 7.3 7.86 12.44
12/5/2020 5:45:00 AM 4.16 39.488 0.189 7.3 7.97 12.44
12/5/2020 6:00:00 AM 4.16 39.488 0.189 7.31 7.87 12.44
12/5/2020 6:15:00 AM 4.17 39.506 0.189 7.31 7.8 12.44
12/5/2020 6:30:00 AM 4.18 39.524 0.189 7.3 7.94 12.44
12/5/2020 6:45:00 AM 4.18 39.524 0.189 7.3 7.84 12.44
12/5/2020 7:00:00 AM 4.18 39.524 0.189 7.3 7.75 12.44
12/5/2020 7:15:00 AM 4.18 39.524 0.189 7.3 7.81 12.44
12/5/2020 7:30:00 AM 4.18 39.524 0.189 7.3 7.89 12.44
12/5/2020 7:45:00 AM 4.17 39.506 0.189 7.3 7.96 12.45
12/5/2020 8:00:00 AM 4.17 39.506 0.189 7.31 7.98 12.46
12/5/2020 8:15:00 AM 4.16 39.488 0.189 7.31 7.98 12.47
12/5/2020 8:30:00 AM 4.15 39.47 0.188 7.32 7.95 12.48
12/5/2020 8:45:00 AM 4.15 39.47 0.188 7.32 7.9 12.48
12/5/2020 9:00:00 AM 4.16 39.488 0.188 7.32 7.96 12.48
12/5/2020 9:15:00 AM 4.18 39.524 0.188 7.33 7.95 12.48
12/5/2020 9:30:00 AM 4.18 39.524 0.188 7.33 7.93 12.48
12/5/2020 9:45:00 AM 4.18 39.524 0.188 7.33 7.95 12.48
12/5/2020 10:00:00 AM 4.19 39.542 0.188 7.32 7.89 12.48
12/5/2020 10:15:00 AM 4.2 39.56 0.188 7.32 7.91 12.48
12/5/2020 10:30:00 AM 4.21 39.578 0.188 7.33 8.15 12.48
12/5/2020 10:45:00 AM 4.22 39.596 0.188 7.33 7.88 12.48
12/5/2020 11:00:00 AM 4.23 39.614 0.187 7.33 7.88 12.47
12/5/2020 11:15:00 AM 4.24 39.632 0.187 7.33 7.97 12.47
12/5/2020 11:30:00 AM 4.24 39.632 0.187 7.32 7.93 12.47
12/5/2020 11:45:00 AM 4.25 39.65 0.187 7.33 8.03 12.46
12/5/2020 12:00:00 PM 4.27 39.686 0.187 7.33 8.03 12.46
12/5/2020 12:15:00 PM 4.28 39.704 0.187 7.33 8.01 12.46
12/5/2020 12:30:00 PM 4.28 39.704 0.187 7.32 8.08 12.46
12/5/2020 12:45:00 PM 4.28 39.704 0.187 7.33 8 12.45
12/5/2020 1:00:00 PM 4.28 39.704 0.187 7.32 8.1 12.45
12/5/2020 1:15:00 PM 4.26 39.668 0.187 7.32 8.13 12.45
12/5/2020 1:30:00 PM 4.25 39.65 0.186 7.32 8.1 12.45
12/5/2020 1:45:00 PM 4.24 39.632 0.186 7.32 8.15 12.46
12/5/2020 2:00:00 PM 4.23 39.614 0.186 7.32 8.05 12.47
12/5/2020 2:15:00 PM 4.22 39.596 0.186 7.32 8.06 12.47
12/5/2020 2:30:00 PM 4.21 39.578 0.186 7.32 7.92 12.47
12/5/2020 2:45:00 PM 4.2 39.56 0.186 7.32 8.03 12.47
12/5/2020 3:00:00 PM 4.18 39.524 0.186 7.32 8.03 12.48
12/5/2020 3:15:00 PM 4.16 39.488 0.186 7.31 8.19 12.48
12/5/2020 3:30:00 PM 4.13 39.434 0.186 7.31 8.13 12.49
12/5/2020 3:45:00 PM 4.11 39.398 0.186 7.31 8.16 12.5
12/5/2020 4:00:00 PM 4.1 39.38 0.186 7.31 8.19 12.5
12/5/2020 4:15:00 PM 4.08 39.344 0.185 7.31 8.15 12.51
12/5/2020 4:30:00 PM 4.05 39.29 0.185 7.3 8.22 12.52
12/5/2020 4:45:00 PM 4.03 39.254 0.185 7.3 8.19 12.52
12/5/2020 5:00:00 PM 4.01 39.218 0.185 7.3 8.17 12.53
12/5/2020 5:15:00 PM 3.99 39.182 0.185 7.3 8.17 12.54
12/5/2020 5:30:00 PM 3.96 39.128 0.185 7.3 8.18 12.54
12/5/2020 5:45:00 PM 3.94 39.092 0.185 7.3 8.17 12.55
12/5/2020 6:00:00 PM 3.93 39.074 0.185 7.3 8.18 12.55
12/5/2020 6:15:00 PM 3.92 39.056 0.185 7.3 8.2 12.56
12/5/2020 6:30:00 PM 3.91 39.038 0.184 7.3 8.18 12.57
12/5/2020 6:45:00 PM 3.9 39.02 0.184 7.3 8.21 12.57
12/5/2020 7:00:00 PM 3.89 39.002 0.184 7.29 8.24 12.57
12/5/2020 7:15:00 PM 3.88 38.984 0.184 7.29 8.2 12.58
12/5/2020 7:30:00 PM 3.87 38.966 0.184 7.29 8.11 12.58
12/5/2020 7:45:00 PM 3.87 38.966 0.184 7.29 8.19 12.58
12/5/2020 8:00:00 PM 3.85 38.93 0.184 7.29 8.2 12.59
12/5/2020 8:15:00 PM 3.84 38.912 0.183 7.29 8.23 12.59
12/5/2020 8:30:00 PM 3.83 38.894 0.183 7.29 8.21 12.59
12/5/2020 8:45:00 PM 3.82 38.876 0.183 7.29 8.24 12.6
12/5/2020 9:00:00 PM 3.8 38.84 0.183 7.29 8.27 12.6
12/5/2020 9:15:00 PM 3.78 38.804 0.183 7.29 8.25 12.61
12/5/2020 9:30:00 PM 3.76 38.768 0.183 7.29 8.28 12.61
12/5/2020 9:45:00 PM 3.73 38.714 0.182 7.28 8.25 12.62
12/5/2020 10:00:00 PM 3.71 38.678 0.182 7.28 8.21 12.63
12/5/2020 10:15:00 PM 3.69 38.642 0.182 7.28 8.27 12.64
12/5/2020 10:30:00 PM 3.67 38.606 0.182 7.28 8.18 12.64
12/5/2020 10:45:00 PM 3.66 38.588 0.182 7.28 8.26 12.64
12/5/2020 11:00:00 PM 3.64 38.552 0.182 7.28 8.28 12.65
12/5/2020 11:15:00 PM 3.62 38.516 0.182 7.28 8.24 12.66
12/5/2020 11:30:00 PM 3.61 38.498 0.181 7.28 8.3 12.66
12/5/2020 11:45:00 PM 3.6 38.48 0.181 7.28 8.29 12.67
12/6/2020 12:00:00 AM 3.58 38.444 0.181 7.28 8.19 12.68
12/6/2020 12:15:00 AM 3.57 38.426 0.181 7.28 8.21 12.68
12/6/2020 12:30:00 AM 3.55 38.39 0.181 7.27 8.26 12.69
12/6/2020 12:45:00 AM 3.53 38.354 0.181 7.27 8.3 12.69
12/6/2020 1:00:00 AM 3.52 38.336 0.181 7.27 8.22 12.69
12/6/2020 1:15:00 AM 3.5 38.3 0.181 7.27 8.19 12.7
12/6/2020 1:30:00 AM 3.49 38.282 0.18 7.27 8.16 12.71
12/6/2020 1:45:00 AM 3.48 38.264 0.18 7.27 8.14 12.71
12/6/2020 2:00:00 AM 3.47 38.246 0.18 7.27 8.17 12.71
12/6/2020 2:15:00 AM 3.45 38.21 0.18 7.27 8.14 12.72
12/6/2020 2:30:00 AM 3.44 38.192 0.18 7.26 8.07 12.72
12/6/2020 2:45:00 AM 3.43 38.174 0.18 7.26 8.06 12.73
12/6/2020 3:00:00 AM 3.42 38.156 0.18 7.26 8.14 12.73
12/6/2020 3:15:00 AM 3.41 38.138 0.179 7.26 8.08 12.73
12/6/2020 3:30:00 AM 3.39 38.102 0.179 7.26 8.11 12.74
12/6/2020 3:45:00 AM 3.37 38.066 0.179 7.26 8.1 12.75
12/6/2020 4:00:00 AM 3.36 38.048 0.179 7.26 8.1 12.75
12/6/2020 4:15:00 AM 3.34 38.012 0.179 7.25 8.13 12.76
12/6/2020 4:30:00 AM 3.33 37.994 0.179 7.26 8.13 12.76
12/6/2020 4:45:00 AM 3.31 37.958 0.179 7.25 8.12 12.77
12/6/2020 5:00:00 AM 3.3 37.94 0.179 7.25 8.12 12.77
12/6/2020 5:15:00 AM 3.28 37.904 0.179 7.25 8.13 12.77
12/6/2020 5:30:00 AM 3.26 37.868 0.178 7.25 8.12 12.78
12/6/2020 5:45:00 AM 3.25 37.85 0.178 7.25 8.13 12.79
12/6/2020 6:00:00 AM 3.24 37.832 0.178 7.25 8.15 12.79
12/6/2020 6:15:00 AM 3.21 37.778 0.178 7.25 8.12 12.8
12/6/2020 6:30:00 AM 3.19 37.742 0.178 7.25 8.16 12.81
12/6/2020 6:45:00 AM 3.17 37.706 0.178 7.25 8.12 12.82
12/6/2020 7:00:00 AM 3.15 37.67 0.178 7.25 8.1 12.82
12/6/2020 7:15:00 AM 3.14 37.652 0.178 7.24 8.09 12.83
12/6/2020 7:30:00 AM 3.13 37.634 0.177 7.24 8.08 12.83
12/6/2020 7:45:00 AM 3.11 37.598 0.177 7.24 8.1 12.85
12/6/2020 8:00:00 AM 3.09 37.562 0.177 7.24 8.11 12.84
12/6/2020 8:15:00 AM 3.09 37.562 0.177 7.24 8.1 12.85
12/6/2020 8:30:00 AM 3.08 37.544 0.177 7.25 8.17 12.86
12/6/2020 8:45:00 AM 3.08 37.544 0.177 7.25 8.07 12.87
12/6/2020 9:00:00 AM 3.08 37.544 0.177 7.25 8.04 12.87
12/6/2020 9:15:00 AM 3.08 37.544 0.177 7.25 8.08 12.88
12/6/2020 9:30:00 AM 3.09 37.562 0.176 7.25 8.05 12.87
12/6/2020 9:45:00 AM 3.09 37.562 0.176 7.25 8.07 12.87
12/6/2020 10:00:00 AM 3.1 37.58 0.176 7.25 8.09 12.87
12/6/2020 10:15:00 AM 3.12 37.616 0.176 7.25 8.09 12.87
12/6/2020 10:30:00 AM 3.13 37.634 0.176 7.25 8.11 12.87
12/6/2020 10:45:00 AM 3.14 37.652 0.176 7.25 8.05 12.86
12/6/2020 11:00:00 AM 3.16 37.688 0.176 7.25 8.07 12.87
12/6/2020 11:15:00 AM 3.19 37.742 0.176 7.25 8.05 12.86
12/6/2020 11:30:00 AM 3.22 37.796 0.175 7.25 8.08 12.84
12/6/2020 11:45:00 AM 3.22 37.796 0.175 7.25 8.04 12.83
12/6/2020 12:00:00 PM 3.21 37.778 0.175 7.25 8.08 12.83
12/6/2020 12:15:00 PM 3.21 37.778 0.175 7.25 8.05 12.83
12/6/2020 12:30:00 PM 3.21 37.778 0.175 7.25 8.08 12.83
12/6/2020 12:45:00 PM 3.21 37.778 0.175 7.25 8.05 12.83
12/6/2020 1:00:00 PM 3.2 37.76 0.175 7.25 8.03 12.83
12/6/2020 1:15:00 PM 3.2 37.76 0.175 7.24 8.03 12.83
12/6/2020 1:30:00 PM 3.19 37.742 0.174 7.25 8.12 12.83
12/6/2020 1:45:00 PM 3.19 37.742 0.174 7.24 8.09 12.83
12/6/2020 2:00:00 PM 3.19 37.742 0.174 7.24 8.04 12.83
12/6/2020 2:15:00 PM 3.18 37.724 0.174 7.24 8.11 12.83
12/6/2020 2:30:00 PM 3.16 37.688 0.174 7.24 8.03 12.84
12/6/2020 2:45:00 PM 3.17 37.706 0.174 7.24 8.13 12.84
12/6/2020 3:00:00 PM 3.16 37.688 0.174 7.24 8.14 12.83
12/6/2020 3:15:00 PM 3.16 37.688 0.174 7.24 8.09 12.84
12/6/2020 3:30:00 PM 3.15 37.67 0.174 7.24 8.11 12.85
12/6/2020 3:45:00 PM 3.12 37.616 0.174 7.24 8.12 12.85
12/6/2020 4:00:00 PM 3.11 37.598 0.173 7.23 8.15 12.84
12/6/2020 4:15:00 PM 3.09 37.562 0.173 7.23 8.06 12.85
12/6/2020 4:30:00 PM 3.08 37.544 0.173 7.23 8.07 12.85
12/6/2020 4:45:00 PM 3.06 37.508 0.173 7.22 8.07 12.85
12/6/2020 5:00:00 PM 3.05 37.49 0.173 7.22 8.12 12.85
12/6/2020 5:15:00 PM 3.02 37.436 0.173 7.22 8.04 12.86
12/6/2020 5:30:00 PM 3.01 37.418 0.173 7.22 8.05 12.87
12/6/2020 5:45:00 PM 3 37.4 0.173 7.22 8.04 12.87
12/6/2020 6:00:00 PM 2.98 37.364 0.173 7.22 8.15 12.88
12/6/2020 6:15:00 PM 2.97 37.346 0.173 7.22 8.16 12.89
12/6/2020 6:30:00 PM 2.96 37.328 0.172 7.22 8.15 12.89
12/6/2020 6:45:00 PM 2.94 37.292 0.172 7.21 8.13 12.9
12/6/2020 7:00:00 PM 2.91 37.238 0.172 7.22 8.14 12.9
12/6/2020 7:15:00 PM 2.9 37.22 0.172 7.21 8.11 12.9
12/6/2020 7:30:00 PM 2.87 37.166 0.172 7.21 8.15 12.91
12/6/2020 7:45:00 PM 2.84 37.112 0.172 7.21 8.14 12.92
12/6/2020 8:00:00 PM 2.8 37.04 0.172 7.21 8.12 12.94
12/6/2020 8:15:00 PM 2.76 36.968 0.172 7.21 8.14 12.95
12/6/2020 8:30:00 PM 2.72 36.896 0.172 7.21 8.14 12.97
12/6/2020 8:45:00 PM 2.68 36.824 0.172 7.2 8.11 12.98
12/6/2020 9:00:00 PM 2.66 36.788 0.172 7.2 8.14 12.99
12/6/2020 9:15:00 PM 2.65 36.77 0.172 7.2 8.09 12.99
12/6/2020 9:30:00 PM 2.64 36.752 0.171 7.22 8.08 12.99
12/6/2020 9:45:00 PM 2.63 36.734 0.171 7.24 8.15 12.99
12/6/2020 10:00:00 PM 2.63 36.734 0.171 7.24 8.24 12.99
12/6/2020 10:15:00 PM 2.63 36.734 0.171 7.25 8.17 12.99
12/6/2020 10:30:00 PM 2.62 36.716 0.171 7.25 8.24 13
12/6/2020 10:45:00 PM 2.6 36.68 0.171 7.25 8.18 13
12/6/2020 11:00:00 PM 2.58 36.644 0.171 7.25 8.16 13
12/6/2020 11:15:00 PM 2.56 36.608 0.171 7.25 8.21 13.02
12/6/2020 11:30:00 PM 2.56 36.608 0.171 7.25 8.17 13.01
12/6/2020 11:45:00 PM 2.55 36.59 0.17 7.25 8.2 13.02
12/7/2020 12:00:00 AM 2.55 36.59 0.17 7.25 8.14 13.01
12/7/2020 12:15:00 AM 2.55 36.59 0.17 7.25 8.14 13.01
12/7/2020 12:30:00 AM 2.56 36.608 0.17 7.25 8.19 13.01
12/7/2020 12:45:00 AM 2.56 36.608 0.17 7.25 8.13 13.01
12/7/2020 1:00:00 AM 2.56 36.608 0.17 7.25 8.2 13
12/7/2020 1:15:00 AM 2.56 36.608 0.17 7.24 8.17 13
12/7/2020 1:30:00 AM 2.56 36.608 0.17 7.24 8.17 13
12/7/2020 1:45:00 AM 2.55 36.59 0.169 7.24 8.23 12.99
12/7/2020 2:00:00 AM 2.54 36.572 0.169 7.24 8.14 13
12/7/2020 2:15:00 AM 2.53 36.554 0.169 7.24 8.17 13
12/7/2020 2:30:00 AM 2.52 36.536 0.169 7.24 8.19 13
12/7/2020 2:45:00 AM 2.51 36.518 0.169 7.23 8.19 13.01
12/7/2020 3:00:00 AM 2.5 36.5 0.169 7.23 8.16 13.02
12/7/2020 3:15:00 AM 2.5 36.5 0.169 7.23 8.29 13.02
12/7/2020 3:30:00 AM 2.5 36.5 0.169 7.23 8.27 13.02
12/7/2020 3:45:00 AM 2.5 36.5 0.168 7.23 8.26 13.02
12/7/2020 4:00:00 AM 2.5 36.5 0.168 7.23 8.22 13.02
12/7/2020 4:15:00 AM 2.5 36.5 0.168 7.22 8.19 13.01
12/7/2020 4:30:00 AM 2.49 36.482 0.168 7.22 8.2 13.01
12/7/2020 4:45:00 AM 2.49 36.482 0.168 7.22 8.18 13.02
12/7/2020 5:00:00 AM 2.47 36.446 0.168 7.22 8.13 13.02
12/7/2020 5:15:00 AM 2.46 36.428 0.168 7.22 8.19 13.03
12/7/2020 5:30:00 AM 2.45 36.41 0.168 7.22 8.21 13.03
12/7/2020 5:45:00 AM 2.43 36.374 0.168 7.22 8.22 13.03
12/7/2020 6:00:00 AM 2.42 36.356 0.167 7.22 8.21 13.04
12/7/2020 6:15:00 AM 2.42 36.356 0.167 7.21 8.19 13.04
12/7/2020 6:30:00 AM 2.41 36.338 0.167 7.21 8.14 13.04
12/7/2020 6:45:00 AM 2.41 36.338 0.167 7.21 8.19 13.04
12/7/2020 7:00:00 AM 2.41 36.338 0.167 7.21 8.16 13.04
12/7/2020 7:15:00 AM 2.4 36.32 0.167 7.21 8.21 13.04
12/7/2020 7:30:00 AM 2.4 36.32 0.167 7.21 8.25 13.04
12/7/2020 7:45:00 AM 2.4 36.32 0.167 7.21 8.36 13.04
12/7/2020 8:00:00 AM 2.4 36.32 0.167 7.2 8.33 13.05
12/7/2020 8:15:00 AM 2.41 36.338 0.167 7.2 8.33 13.05
12/7/2020 8:30:00 AM 2.41 36.338 0.166 7.2 8.37 13.05
12/7/2020 8:45:00 AM 2.42 36.356 0.166 7.21 8.36 13.05
12/7/2020 9:00:00 AM 2.37 36.266 0.162 14.53 1.53 13.08
12/7/2020 9:15:00 AM 2.37 36.266 0.162 14.47 1.56 13.09
12/7/2020 9:30:00 AM 2.37 36.266 0.162 8.18 1.57 13.1
12/7/2020 9:45:00 AM 2.38 36.284 0.161 8.45 1.59 13.1
12/7/2020 10:00:00 AM 2.39 36.302 0.161 8.64 1.58 13.09
12/7/2020 10:15:00 AM 2.4 36.32 0.161 10.89 1.57 13.08
12/7/2020 10:30:00 AM 2.41 36.338 0.161 12.38 1.58 13.08
12/7/2020 10:45:00 AM 2.43 36.374 0.161 12.12 1.59 13.07
12/7/2020 11:00:00 AM 2.47 36.446 0.161 12 1.52 13.06
12/7/2020 11:15:00 AM 2.52 36.536 0.161 11.74 1.58 13.04
12/7/2020 11:30:00 AM 2.56 36.608 0.161 12.32 1.54 13.02
12/7/2020 11:45:00 AM 2.59 36.662 0.16 12.26 1.56 13.01
12/7/2020 12:00:00 PM 2.62 36.716 0.16 12.63 1.52 12.99
12/7/2020 12:15:00 PM 2.64 36.752 0.16 13.03 1.55 12.98
12/7/2020 12:30:00 PM 2.66 36.788 0.16 12.86 1.55 12.97
12/7/2020 12:45:00 PM 2.68 36.824 0.16 12.97 1.55 12.96
12/7/2020 1:00:00 PM 2.69 36.842 0.16 13.09 1.55 12.95
12/7/2020 1:15:00 PM 2.69 36.842 0.16 13.03 1.55 12.95
12/7/2020 1:30:00 PM 2.68 36.824 0.16 13.17 1.53 12.94
12/7/2020 1:45:00 PM 2.68 36.824 0.159 13.7 1.52 12.94
12/7/2020 2:00:00 PM 2.68 36.824 0.159 14.61 1.52 12.93
12/7/2020 2:15:00 PM 2.67 36.806 0.159 14.65 1.57 12.93
12/7/2020 2:30:00 PM 2.67 36.806 0.159 14.18 1.61 12.93
12/7/2020 2:45:00 PM 2.67 36.806 0.159 13.73 1.6 12.93
12/7/2020 3:00:00 PM 2.66 36.788 0.159 13.55 1.58 12.93
12/7/2020 3:15:00 PM 2.64 36.752 0.159 13.29 1.57 12.93
12/7/2020 3:30:00 PM 2.6 36.68 0.159 13.39 1.6 12.95
12/7/2020 3:45:00 PM 2.57 36.626 0.159 13.86 1.52 12.96
12/7/2020 4:00:00 PM 2.54 36.572 0.159 13.61 1.53 12.97
12/7/2020 4:15:00 PM 2.49 36.482 0.159 13.23 1.56 13
12/7/2020 4:30:00 PM 2.47 36.446 0.159 13.07 1.54 13
12/7/2020 4:45:00 PM 2.44 36.392 0.158 13.02 1.54 13.01
12/7/2020 5:00:00 PM 2.41 36.338 0.158 12.98 1.55 13.02
12/7/2020 5:15:00 PM 2.38 36.284 0.158 12.98 1.55 13.03
12/7/2020 5:30:00 PM 2.35 36.23 0.158 13 1.55 13.04
12/7/2020 5:45:00 PM 2.33 36.194 0.158 13.12 1.56 13.04
12/7/2020 6:00:00 PM 2.3 36.14 0.158 13.31 1.58 13.05
12/7/2020 6:15:00 PM 2.27 36.086 0.158 13.31 1.55 13.06
12/7/2020 6:30:00 PM 2.24 36.032 0.158 13.34 1.53 13.07
12/7/2020 6:45:00 PM 2.21 35.978 0.158 13.37 1.56 13.07
12/7/2020 7:00:00 PM 2.18 35.924 0.158 13.35 1.56 13.08
12/7/2020 7:15:00 PM 2.15 35.87 0.158 13.3 1.56 13.09
12/7/2020 7:30:00 PM 2.12 35.816 0.158 13.28 1.51 13.11
12/7/2020 7:45:00 PM 2.08 35.744 0.158 13.24 1.54 13.13
12/7/2020 8:00:00 PM 2.06 35.708 0.158 13.23 1.53 13.14
12/7/2020 8:15:00 PM 2.04 35.672 0.157 13.21 1.57 13.15
12/7/2020 8:30:00 PM 2.03 35.654 0.157 13.14 1.54 13.16
12/7/2020 8:45:00 PM 2.02 35.636 0.157 13.11 1.57 13.16
12/7/2020 9:00:00 PM 2.02 35.636 0.157 13.14 1.54 13.16
12/7/2020 9:15:00 PM 2.01 35.618 0.157 13.16 1.51 13.17
12/7/2020 9:30:00 PM 2.01 35.618 0.157 13.2 1.55 13.17
12/7/2020 9:45:00 PM 2.01 35.618 0.157 13.27 1.56 13.17
12/7/2020 10:00:00 PM 2 35.6 0.157 13.15 1.54 13.17
12/7/2020 10:15:00 PM 2 35.6 0.157 13.08 1.53 13.18
12/7/2020 10:30:00 PM 2 35.6 0.157 12.92 1.54 13.17
12/7/2020 10:45:00 PM 1.99 35.582 0.157 12.86 1.59 13.18
12/7/2020 11:00:00 PM 1.99 35.582 0.157 12.87 1.52 13.18
12/7/2020 11:15:00 PM 1.98 35.564 0.156 12.86 1.51 13.19
12/7/2020 11:30:00 PM 1.96 35.528 0.156 12.81 1.49 13.19
12/7/2020 11:45:00 PM 1.95 35.51 0.156 12.82 1.52 13.19
12/8/2020 12:00:00 AM 1.95 35.51 0.156 12.76 1.53 13.2
12/8/2020 12:15:00 AM 1.95 35.51 0.156 12.72 1.53 13.2
12/8/2020 12:30:00 AM 1.96 35.528 0.156 12.67 1.52 13.19
12/8/2020 12:45:00 AM 1.97 35.546 0.156 12.67 1.53 13.19
12/8/2020 1:00:00 AM 1.98 35.564 0.156 12.72 1.49 13.18
12/8/2020 1:15:00 AM 1.99 35.582 0.156 12.71 1.51 13.18
12/8/2020 1:30:00 AM 1.99 35.582 0.156 12.67 1.5 13.18
12/8/2020 1:45:00 AM 2 35.6 0.155 12.92 1.54 13.18
12/8/2020 2:00:00 AM 2 35.6 0.155 13.33 1.5 13.17
12/8/2020 2:15:00 AM 1.99 35.582 0.155 13.45 1.52 13.17
12/8/2020 2:30:00 AM 1.98 35.564 0.155 13.3 1.54 13.17
12/8/2020 2:45:00 AM 1.97 35.546 0.155 13.22 1.54 13.18
12/8/2020 3:00:00 AM 1.94 35.492 0.155 13.12 1.49 13.18
12/8/2020 3:15:00 AM 1.92 35.456 0.155 13.06 1.53 13.19
12/8/2020 3:30:00 AM 1.89 35.402 0.155 12.98 1.52 13.2
12/8/2020 3:45:00 AM 1.86 35.348 0.155 13.17 1.54 13.21
12/8/2020 4:00:00 AM 1.83 35.294 0.155 13.23 1.52 13.22
12/8/2020 4:15:00 AM 1.81 35.258 0.155 13.15 1.52 13.23
12/8/2020 4:30:00 AM 1.79 35.222 0.154 13.11 1.5 13.23
12/8/2020 4:45:00 AM 1.78 35.204 0.154 13.07 1.53 13.23
12/8/2020 5:00:00 AM 1.76 35.168 0.154 13.06 1.5 13.24
12/8/2020 5:15:00 AM 1.73 35.114 0.154 13.18 1.5 13.25
12/8/2020 5:30:00 AM 1.68 35.024 0.154 13.01 1.52 13.27
12/8/2020 5:45:00 AM 1.65 34.97 0.154 12.95 1.49 13.28
12/8/2020 6:00:00 AM 1.63 34.934 0.154 12.96 1.53 13.29
12/8/2020 6:15:00 AM 1.59 34.862 0.154 12.91 1.49 13.31
12/8/2020 6:30:00 AM 1.55 34.79 0.154 12.87 1.52 13.34
12/8/2020 6:45:00 AM 1.51 34.718 0.154 12.93 1.51 13.35
12/8/2020 7:00:00 AM 1.47 34.646 0.154 12.97 1.49 13.38
12/8/2020 7:15:00 AM 1.44 34.592 0.154 13.04 1.51 13.4
12/8/2020 7:30:00 AM 1.42 34.556 0.154 13 1.48 13.41
12/8/2020 7:45:00 AM 1.4 34.52 0.154 13 1.5 13.42
12/8/2020 8:00:00 AM 1.39 34.502 0.154 13.03 1.53 13.43
12/8/2020 8:15:00 AM 1.38 34.484 0.153 12.99 1.47 13.44
12/8/2020 8:30:00 AM 1.37 34.466 0.153 13.12 1.5 13.45
12/8/2020 8:45:00 AM 1.37 34.466 0.153 13.18 1.51 13.46
12/8/2020 9:00:00 AM 1.38 34.484 0.153 13.16 1.49 13.46
12/8/2020 9:15:00 AM 1.39 34.502 0.153 13.11 1.51 13.45
12/8/2020 9:30:00 AM 1.4 34.52 0.153 13.14 1.48 13.45
12/8/2020 9:45:00 AM 1.42 34.556 0.153 13.08 1.48 13.45
12/8/2020 10:00:00 AM 1.46 34.628 0.153 13.06 1.45 13.44
12/8/2020 10:15:00 AM 1.49 34.682 0.153 12.98 1.48 13.43
12/8/2020 10:30:00 AM 1.52 34.736 0.152 12.99 1.51 13.42
12/8/2020 10:45:00 AM 1.56 34.808 0.152 12.96 1.51 13.4
12/8/2020 11:00:00 AM 1.62 34.916 0.152 13 1.5 13.38
12/8/2020 11:15:00 AM 1.68 35.024 0.152 12.95 1.49 13.35
12/8/2020 11:30:00 AM 1.75 35.15 0.152 12.97 1.51 13.31
12/8/2020 11:45:00 AM 1.83 35.294 0.152 12.96 1.49 13.28
12/8/2020 12:00:00 PM 1.91 35.438 0.152 12.9 1.5 13.24
12/8/2020 12:15:00 PM 1.99 35.582 0.152 12.9 1.5 13.22
12/8/2020 12:30:00 PM 2.06 35.708 0.152 12.87 1.49 13.19
12/8/2020 12:45:00 PM 2.12 35.816 0.151 12.9 1.51 13.18
12/8/2020 1:00:00 PM 2.19 35.942 0.151 12.82 1.49 13.16
12/8/2020 1:15:00 PM 2.26 36.068 0.151 12.79 1.5 13.13
12/8/2020 1:30:00 PM 2.31 36.158 0.151 12.75 1.52 13.11
12/8/2020 1:45:00 PM 2.35 36.23 0.151 12.75 1.45 13.09
12/8/2020 2:00:00 PM 2.37 36.266 0.151 12.81 1.48 13.08
12/8/2020 2:15:00 PM 2.38 36.284 0.151 12.84 1.49 13.07
12/8/2020 2:30:00 PM 2.39 36.302 0.151 12.75 1.52 13.07
12/8/2020 2:45:00 PM 2.38 36.284 0.151 12.8 1.5 13.07
12/8/2020 3:00:00 PM 2.36 36.248 0.151 12.76 1.49 13.07
12/8/2020 3:15:00 PM 2.35 36.23 0.151 12.77 1.49 13.08
12/8/2020 3:30:00 PM 2.34 36.212 0.151 12.82 1.52 13.09
12/8/2020 3:45:00 PM 2.34 36.212 0.151 12.83 1.51 13.09
12/8/2020 4:00:00 PM 2.34 36.212 0.151 12.81 1.49 13.09
12/8/2020 4:15:00 PM 2.33 36.194 0.15 12.72 1.5 13.09
12/8/2020 4:30:00 PM 2.33 36.194 0.15 12.67 1.52 13.09
12/8/2020 4:45:00 PM 2.33 36.194 0.15 12.61 1.51 13.09
12/8/2020 5:00:00 PM 2.32 36.176 0.15 12.6 1.5 13.09
12/8/2020 5:15:00 PM 2.32 36.176 0.15 12.69 1.5 13.09
12/8/2020 5:30:00 PM 2.32 36.176 0.15 12.6 1.47 13.08
12/8/2020 5:45:00 PM 2.32 36.176 0.15 12.68 1.49 13.08
12/8/2020 6:00:00 PM 2.32 36.176 0.15 12.58 1.48 13.08
12/8/2020 6:15:00 PM 2.31 36.158 0.15 12.56 1.51 13.09
12/8/2020 6:30:00 PM 2.3 36.14 0.15 12.67 1.48 13.09
12/8/2020 6:45:00 PM 2.29 36.122 0.15 12.48 1.54 13.09
12/8/2020 7:00:00 PM 2.28 36.104 0.15 12.68 1.48 13.1
12/8/2020 7:15:00 PM 2.28 36.104 0.15 12.48 1.49 13.1
12/8/2020 7:30:00 PM 2.27 36.086 0.15 12.54 1.51 13.11
12/8/2020 7:45:00 PM 2.26 36.068 0.15 12.5 1.45 13.1
12/8/2020 8:00:00 PM 2.25 36.05 0.15 12.45 1.48 13.11
12/8/2020 8:15:00 PM 2.23 36.014 0.15 12.36 1.46 13.12
12/8/2020 8:30:00 PM 2.22 35.996 0.15 12.23 1.5 13.13
12/8/2020 8:45:00 PM 2.22 35.996 0.15 12.27 1.52 13.13
12/8/2020 9:00:00 PM 2.22 35.996 0.15 12.41 1.49 13.13
12/8/2020 9:15:00 PM 2.2 35.96 0.15 12.23 1.5 13.13
12/8/2020 9:30:00 PM 2.2 35.96 0.15 12.24 1.45 13.14
12/8/2020 9:45:00 PM 2.19 35.942 0.149 12.22 1.49 13.14
12/8/2020 10:00:00 PM 2.18 35.924 0.149 12.32 1.46 13.14
12/8/2020 10:15:00 PM 2.17 35.906 0.149 12.51 1.47 13.15
12/8/2020 10:30:00 PM 2.16 35.888 0.149 12.54 1.48 13.15
12/8/2020 10:45:00 PM 2.15 35.87 0.149 12.6 1.45 13.15
12/8/2020 11:00:00 PM 2.14 35.852 0.149 12.55 1.46 13.16
12/8/2020 11:15:00 PM 2.14 35.852 0.149 12.64 1.46 13.16
12/8/2020 11:30:00 PM 2.13 35.834 0.149 12.61 1.45 13.16
12/8/2020 11:45:00 PM 2.13 35.834 0.149 12.57 1.46 13.16
12/9/2020 12:00:00 AM 2.12 35.816 0.149 12.47 1.47 13.15
12/9/2020 12:15:00 AM 2.12 35.816 0.149 12.61 1.46 13.16
12/9/2020 12:30:00 AM 2.11 35.798 0.149 12.65 1.51 13.15
12/9/2020 12:45:00 AM 2.11 35.798 0.149 12.74 1.5 13.14
12/9/2020 1:00:00 AM 2.1 35.78 0.149 12.57 1.5 13.15
12/9/2020 1:15:00 AM 2.08 35.744 0.149 12.43 1.47 13.15
12/9/2020 1:30:00 AM 2.06 35.708 0.149 12.37 1.49 13.15
12/9/2020 1:45:00 AM 2.06 35.708 0.149 12.21 1.43 13.15
12/9/2020 2:00:00 AM 2.06 35.708 0.149 12.13 1.49 13.14
12/9/2020 2:15:00 AM 2.05 35.69 0.148 12.17 1.46 13.15
12/9/2020 2:30:00 AM 2.04 35.672 0.148 12.25 1.46 13.15
12/9/2020 2:45:00 AM 2.02 35.636 0.148 12.14 1.45 13.15
12/9/2020 3:00:00 AM 2 35.6 0.148 12.14 1.55 13.15
12/9/2020 3:15:00 AM 1.97 35.546 0.148 12 1.49 13.16
12/9/2020 3:30:00 AM 1.95 35.51 0.148 12.07 1.45 13.16
12/9/2020 3:45:00 AM 1.95 35.51 0.148 11.99 1.46 13.16
12/9/2020 4:00:00 AM 1.94 35.492 0.148 11.89 1.49 13.16
12/9/2020 4:15:00 AM 1.93 35.474 0.148 12.09 1.45 13.17
12/9/2020 4:30:00 AM 1.93 35.474 0.148 12.09 1.48 13.17
12/9/2020 4:45:00 AM 1.93 35.474 0.148 12.19 1.46 13.17
12/9/2020 5:00:00 AM 1.93 35.474 0.148 12.24 1.49 13.16
12/9/2020 5:15:00 AM 1.92 35.456 0.148 12.21 1.46 13.16
12/9/2020 5:30:00 AM 1.92 35.456 0.148 12.43 1.46 13.17
12/9/2020 5:45:00 AM 1.92 35.456 0.148 12.17 1.48 13.16
12/9/2020 6:00:00 AM 1.92 35.456 0.148 12.3 1.46 13.16
12/9/2020 6:15:00 AM 1.91 35.438 0.148 12.3 1.47 13.15
12/9/2020 6:30:00 AM 1.9 35.42 0.148 12.25 1.48 13.16
12/9/2020 6:45:00 AM 1.9 35.42 0.148 12.13 1.46 13.16
12/9/2020 7:00:00 AM 1.89 35.402 0.148 12.19 1.47 13.16
12/9/2020 7:15:00 AM 1.88 35.384 0.147 12.21 1.47 13.16
12/9/2020 7:30:00 AM 1.88 35.384 0.147 12.19 1.46 13.17
12/9/2020 7:45:00 AM 1.88 35.384 0.147 12.19 1.47 13.17
12/9/2020 8:00:00 AM 1.89 35.402 0.147 12.1 1.46 13.17
12/9/2020 8:15:00 AM 1.88 35.384 0.147 11.98 1.46 13.17
12/9/2020 8:30:00 AM 1.88 35.384 0.147 11.86 1.44 13.17
12/9/2020 8:45:00 AM 1.89 35.402 0.147 12.13 1.47 13.17
12/9/2020 9:00:00 AM 1.89 35.402 0.147 12.17 1.44 13.17
12/9/2020 9:15:00 AM 1.89 35.402 0.147 11.96 1.48 13.17
12/9/2020 9:30:00 AM 1.9 35.42 0.147 11.96 1.45 13.18
12/9/2020 9:45:00 AM 1.92 35.456 0.147 12.4 1.49 13.17
12/9/2020 10:00:00 AM 1.94 35.492 0.147 12.33 1.47 13.17
12/9/2020 10:15:00 AM 1.96 35.528 0.147 11.99 1.46 13.17
12/9/2020 10:30:00 AM 1.98 35.564 0.146 12.02 1.46 13.16
12/9/2020 10:45:00 AM 2.01 35.618 0.146 11.87 1.44 13.15
12/9/2020 11:00:00 AM 2.03 35.654 0.146 11.85 1.45 13.15
12/9/2020 11:15:00 AM 2.05 35.69 0.146 11.91 1.45 13.14
12/9/2020 11:30:00 AM 2.08 35.744 0.146 11.6 1.46 13.13
12/9/2020 11:45:00 AM 2.11 35.798 0.146 11.53 1.4 13.12
12/9/2020 12:00:00 PM 2.12 35.816 0.146 11.8 1.48 13.11
12/9/2020 12:15:00 PM 2.15 35.87 0.146 11.56 1.47 13.11
12/9/2020 12:30:00 PM 2.17 35.906 0.146 11.58 1.49 13.09
12/9/2020 12:45:00 PM 2.2 35.96 0.146 11.6 1.47 13.08
12/9/2020 1:00:00 PM 2.23 36.014 0.146 11.69 1.48 13.07
12/9/2020 1:15:00 PM 2.25 36.05 0.146 11.83 1.46 13.06
12/9/2020 1:30:00 PM 2.27 36.086 0.146 11.4 1.47 13.05
12/9/2020 1:45:00 PM 2.29 36.122 0.146 11.64 1.48 13.05
12/9/2020 2:00:00 PM 2.32 36.176 0.146 11.74 1.6 13.04
12/9/2020 2:15:00 PM 2.34 36.212 0.145 11.6 1.47 13.03
12/9/2020 2:30:00 PM 2.35 36.23 0.145 11.71 1.45 13.02
12/9/2020 2:45:00 PM 2.37 36.266 0.145 11.71 1.46 13.01
12/9/2020 3:00:00 PM 2.38 36.284 0.145 11.84 1.44 13.01
12/9/2020 3:15:00 PM 2.38 36.284 0.145 12.15 1.46 13.01
12/9/2020 3:30:00 PM 2.4 36.32 0.145 11.77 1.44 13
12/9/2020 3:45:00 PM 2.41 36.338 0.145 11.4 1.44 12.99
12/9/2020 4:00:00 PM 2.42 36.356 0.145 11.33 1.52 12.98
12/9/2020 4:15:00 PM 2.42 36.356 0.145 11.3 1.46 12.98
12/9/2020 4:30:00 PM 2.43 36.374 0.145 11.33 1.46 12.98
12/9/2020 4:45:00 PM 2.42 36.356 0.145 11.4 1.46 12.98
12/9/2020 5:00:00 PM 2.43 36.374 0.145 11.31 1.46 12.98
12/9/2020 5:15:00 PM 2.44 36.392 0.145 10.59 1.44 12.97
12/9/2020 5:30:00 PM 2.45 36.41 0.145 10.46 1.46 12.97
12/9/2020 5:45:00 PM 2.45 36.41 0.145 10.39 1.44 12.98
12/9/2020 6:00:00 PM 2.46 36.428 0.145 10.49 1.47 12.97
12/9/2020 6:15:00 PM 2.46 36.428 0.145 10.63 1.48 12.98
12/9/2020 6:30:00 PM 2.47 36.446 0.145 10.63 1.45 12.97
12/9/2020 6:45:00 PM 2.48 36.464 0.145 10.52 1.49 12.97
12/9/2020 7:00:00 PM 2.49 36.482 0.145 10.38 1.45 12.97
12/9/2020 7:15:00 PM 2.5 36.5 0.145 10.56 1.52 12.96
12/9/2020 7:30:00 PM 2.51 36.518 0.145 10.11 1.45 12.96
12/9/2020 7:45:00 PM 2.52 36.536 0.145 10.03 1.49 12.96
12/9/2020 8:00:00 PM 2.53 36.554 0.145 10.34 1.48 12.96
12/9/2020 8:15:00 PM 2.54 36.572 0.144 10.25 1.44 12.96
12/9/2020 8:30:00 PM 2.55 36.59 0.144 10.11 1.45 12.96
12/9/2020 8:45:00 PM 2.56 36.608 0.144 10.19 1.45 12.96
12/9/2020 9:00:00 PM 2.57 36.626 0.144 9.88 1.45 12.95
12/9/2020 9:15:00 PM 2.58 36.644 0.144 10.14 1.45 12.95
12/9/2020 9:30:00 PM 2.58 36.644 0.144 9.91 1.45 12.95
12/9/2020 9:45:00 PM 2.59 36.662 0.144 9.97 1.48 12.95
12/9/2020 10:00:00 PM 2.61 36.698 0.144 9.85 1.46 12.94
12/9/2020 10:15:00 PM 2.62 36.716 0.144 10.27 1.44 12.94
12/9/2020 10:30:00 PM 2.63 36.734 0.144 10.32 1.45 12.94
12/9/2020 10:45:00 PM 2.65 36.77 0.144 10.49 1.47 12.94
12/9/2020 11:00:00 PM 2.66 36.788 0.144 9.98 1.43 12.94
12/9/2020 11:15:00 PM 2.67 36.806 0.144 10.16 1.41 12.93
12/9/2020 11:30:00 PM 2.68 36.824 0.144 10.4 1.45 12.93
12/9/2020 11:45:00 PM 2.69 36.842 0.144 10 1.45 12.93
12/10/2020 12:00:00 AM 2.7 36.86 0.144 9.83 1.45 12.93
12/10/2020 12:15:00 AM 2.71 36.878 0.144 9.84 1.45 12.93
12/10/2020 12:30:00 AM 2.72 36.896 0.144 9.85 1.45 12.93
12/10/2020 12:45:00 AM 2.73 36.914 0.144 9.66 1.45 12.92
12/10/2020 1:00:00 AM 2.74 36.932 0.144 9.36 1.45 12.93
12/10/2020 1:15:00 AM 2.75 36.95 0.144 9.43 1.45 12.92
12/10/2020 1:30:00 AM 2.75 36.95 0.144 9.39 1.44 12.92
12/10/2020 1:45:00 AM 2.76 36.968 0.144 9.39 1.47 12.92
12/10/2020 2:00:00 AM 2.77 36.986 0.144 9.26 1.45 12.93
12/10/2020 2:15:00 AM 2.78 37.004 0.144 9.33 1.48 12.92
12/10/2020 2:30:00 AM 2.79 37.022 0.144 9.26 1.44 12.92
12/10/2020 2:45:00 AM 2.8 37.04 0.144 9.12 1.46 12.93
12/10/2020 3:00:00 AM 2.81 37.058 0.144 9.3 1.41 12.92
12/10/2020 3:15:00 AM 2.81 37.058 0.144 9.2 1.46 12.93
12/10/2020 3:30:00 AM 2.82 37.076 0.144 9.14 1.43 12.93
12/10/2020 3:45:00 AM 2.83 37.094 0.144 9.07 1.45 12.93
12/10/2020 4:00:00 AM 2.84 37.112 0.143 9.13 1.45 12.93
12/10/2020 4:15:00 AM 2.84 37.112 0.143 9.23 1.43 12.92
12/10/2020 4:30:00 AM 2.85 37.13 0.143 9.06 1.44 12.92
12/10/2020 4:45:00 AM 2.86 37.148 0.143 9.01 1.44 12.92
12/10/2020 5:00:00 AM 2.87 37.166 0.143 9.07 1.46 12.92
12/10/2020 5:15:00 AM 2.88 37.184 0.143 8.99 1.43 12.92
12/10/2020 5:30:00 AM 2.89 37.202 0.143 9.06 1.46 12.92
12/10/2020 5:45:00 AM 2.9 37.22 0.143 9 1.43 12.92
12/10/2020 6:00:00 AM 2.91 37.238 0.143 9 1.44 12.91
12/10/2020 6:15:00 AM 2.92 37.256 0.143 8.94 1.43 12.92
12/10/2020 6:30:00 AM 2.94 37.292 0.143 8.98 1.45 12.92
12/10/2020 6:45:00 AM 2.94 37.292 0.143 8.96 1.44 12.91
12/10/2020 7:00:00 AM 2.95 37.31 0.143 8.97 1.48 12.92
12/10/2020 7:15:00 AM 2.96 37.328 0.143 8.93 1.44 12.91
12/10/2020 7:30:00 AM 2.97 37.346 0.143 8.89 1.44 12.91
12/10/2020 7:45:00 AM 2.97 37.346 0.143 8.84 1.43 12.91
12/10/2020 8:00:00 AM 2.98 37.364 0.143 8.8 1.46 12.92
12/10/2020 8:15:00 AM 2.99 37.382 0.143 8.82 1.42 12.92
12/10/2020 8:30:00 AM 3.01 37.418 0.143 8.88 1.43 12.92
12/10/2020 8:45:00 AM 3.03 37.454 0.143 8.9 1.45 12.93
12/10/2020 9:00:00 AM 3.05 37.49 0.143 8.83 1.43 12.92
12/10/2020 9:15:00 AM 3.06 37.508 0.143 8.79 1.45 12.92
12/10/2020 9:30:00 AM 3.09 37.562 0.143 8.85 1.47 12.92
12/10/2020 9:45:00 AM 3.11 37.598 0.142 8.88 1.43 12.92
12/10/2020 10:00:00 AM 3.14 37.652 0.142 8.87 1.46 12.91
12/10/2020 10:15:00 AM 3.17 37.706 0.142 8.82 1.43 12.9
12/10/2020 10:30:00 AM 3.21 37.778 0.142 8.85 1.47 12.89
12/10/2020 10:45:00 AM 3.25 37.85 0.142 8.85 1.4 12.88
12/10/2020 11:00:00 AM 3.29 37.922 0.142 8.8 1.45 12.86
12/10/2020 11:15:00 AM 3.33 37.994 0.142 8.85 1.43 12.85
12/10/2020 11:30:00 AM 3.38 38.084 0.142 8.88 1.46 12.83
12/10/2020 11:45:00 AM 3.42 38.156 0.142 8.86 1.42 12.82
12/10/2020 12:00:00 PM 3.46 38.228 0.142 8.86 1.42 12.8
12/10/2020 12:15:00 PM 3.5 38.3 0.142 8.87 1.46 12.79
12/10/2020 12:30:00 PM 3.54 38.372 0.142 8.96 1.45 12.78
12/10/2020 12:45:00 PM 3.58 38.444 0.142 8.9 1.45 12.77
12/10/2020 1:00:00 PM 3.62 38.516 0.142 8.97 1.46 12.76
12/10/2020 1:15:00 PM 3.66 38.588 0.142 8.92 1.42 12.75
12/10/2020 1:30:00 PM 3.69 38.642 0.142 8.94 1.45 12.73
12/10/2020 1:45:00 PM 3.71 38.678 0.142 8.86 1.45 12.72
12/10/2020 2:00:00 PM 3.71 38.678 0.142 8.99 1.45 12.71
12/10/2020 2:15:00 PM 3.69 38.642 0.142 9.12 1.47 12.71
12/10/2020 2:30:00 PM 3.68 38.624 0.142 9.17 1.45 12.72
12/10/2020 2:45:00 PM 3.66 38.588 0.142 9.23 1.44 12.72
12/10/2020 3:00:00 PM 3.64 38.552 0.142 9.2 1.45 12.72
12/10/2020 3:15:00 PM 3.61 38.498 0.142 9.17 1.45 12.73
12/10/2020 3:30:00 PM 3.59 38.462 0.142 9.2 1.47 12.73
12/10/2020 3:45:00 PM 3.56 38.408 0.142 9.17 1.42 12.74
12/10/2020 4:00:00 PM 3.54 38.372 0.142 9.17 1.47 12.75
12/10/2020 4:15:00 PM 3.5 38.3 0.142 9.22 1.46 12.75
12/10/2020 4:30:00 PM 3.46 38.228 0.142 9.25 1.45 12.77
12/10/2020 4:45:00 PM 3.42 38.156 0.142 9.23 1.5 12.77
12/10/2020 5:00:00 PM 3.37 38.066 0.142 9.18 1.44 12.78
12/10/2020 5:15:00 PM 3.32 37.976 0.142 9.18 1.46 12.79
12/10/2020 5:30:00 PM 3.27 37.886 0.142 9.36 1.46 12.81
12/10/2020 5:45:00 PM 3.24 37.832 0.142 9.34 1.45 12.82
12/10/2020 6:00:00 PM 3.2 37.76 0.142 9.3 1.48 12.84
12/10/2020 6:15:00 PM 3.17 37.706 0.142 9.29 1.44 12.85
12/10/2020 6:30:00 PM 3.13 37.634 0.142 9.35 1.47 12.86
12/10/2020 6:45:00 PM 3.1 37.58 0.142 9.27 1.43 12.87
12/10/2020 7:00:00 PM 3.06 37.508 0.142 9.35 1.44 12.89
12/10/2020 7:15:00 PM 3.03 37.454 0.142 9.37 1.45 12.91
12/10/2020 7:30:00 PM 3 37.4 0.142 9.3 1.45 12.92
12/10/2020 7:45:00 PM 2.97 37.346 0.142 9.32 1.44 12.94
12/10/2020 8:00:00 PM 2.94 37.292 0.142 9.33 1.44 12.95
12/10/2020 8:15:00 PM 2.91 37.238 0.142 9.32 1.44 12.96
12/10/2020 8:30:00 PM 2.88 37.184 0.142 9.34 1.44 12.97
12/10/2020 8:45:00 PM 2.85 37.13 0.142 9.31 1.44 12.98
12/10/2020 9:00:00 PM 2.82 37.076 0.142 9.42 1.43 12.99
12/10/2020 9:15:00 PM 2.8 37.04 0.142 9.45 1.42 13
12/10/2020 9:30:00 PM 2.77 36.986 0.142 9.38 1.44 13
12/10/2020 9:45:00 PM 2.75 36.95 0.142 9.31 1.42 13.01
12/10/2020 10:00:00 PM 2.72 36.896 0.142 9.33 1.45 13.02
12/10/2020 10:15:00 PM 2.7 36.86 0.142 9.33 1.43 13.02
12/10/2020 10:30:00 PM 2.68 36.824 0.142 9.51 1.46 13.02
12/10/2020 10:45:00 PM 2.66 36.788 0.142 9.34 1.44 13.02
12/10/2020 11:00:00 PM 2.64 36.752 0.142 9.28 1.42 13.03
12/10/2020 11:15:00 PM 2.62 36.716 0.142 9.22 1.42 13.04
12/10/2020 11:30:00 PM 2.6 36.68 0.142 9.21 1.43 13.04
12/10/2020 11:45:00 PM 2.58 36.644 0.142 9.17 1.43 13.05
12/11/2020 12:00:00 AM 2.56 36.608 0.142 9.21 1.42 13.05
12/11/2020 12:15:00 AM 2.54 36.572 0.142 9.17 1.45 13.06
12/11/2020 12:30:00 AM 2.52 36.536 0.142 9.11 1.45 13.06
12/11/2020 12:45:00 AM 2.51 36.518 0.142 9.19 1.45 13.06
12/11/2020 1:00:00 AM 2.49 36.482 0.142 9.19 1.44 13.07
12/11/2020 1:15:00 AM 2.48 36.464 0.142 9.2 1.46 13.07
12/11/2020 1:30:00 AM 2.47 36.446 0.142 9.21 1.46 13.08
12/11/2020 1:45:00 AM 2.45 36.41 0.142 9.17 1.46 13.09
12/11/2020 2:00:00 AM 2.44 36.392 0.142 9.13 1.44 13.09
12/11/2020 2:15:00 AM 2.43 36.374 0.142 9.1 1.47 13.1
12/11/2020 2:30:00 AM 2.42 36.356 0.142 9.17 1.44 13.1
12/11/2020 2:45:00 AM 2.42 36.356 0.142 9.14 1.47 13.1
12/11/2020 3:00:00 AM 2.41 36.338 0.142 9.18 1.41 13.1
12/11/2020 3:15:00 AM 2.41 36.338 0.142 9.11 1.44 13.11
12/11/2020 3:30:00 AM 2.4 36.32 0.141 9.11 1.43 13.11
12/11/2020 3:45:00 AM 2.39 36.302 0.141 9.12 1.44 13.11
12/11/2020 4:00:00 AM 2.39 36.302 0.141 9.13 1.44 13.11
12/11/2020 4:15:00 AM 2.38 36.284 0.141 9.07 1.44 13.12
12/11/2020 4:30:00 AM 2.37 36.266 0.141 9.04 1.43 13.12
12/11/2020 4:45:00 AM 2.36 36.248 0.141 9.11 1.45 13.12
12/11/2020 5:00:00 AM 2.35 36.23 0.141 9.05 1.43 13.13
12/11/2020 5:15:00 AM 2.34 36.212 0.141 9.09 1.43 13.13
12/11/2020 5:30:00 AM 2.33 36.194 0.141 9.05 1.43 13.14
12/11/2020 5:45:00 AM 2.32 36.176 0.141 9.02 1.44 13.14
12/11/2020 6:00:00 AM 2.31 36.158 0.141 9.13 1.44 13.15
12/11/2020 6:15:00 AM 2.31 36.158 0.141 9.05 1.44 13.15
12/11/2020 6:30:00 AM 2.3 36.14 0.141 9 1.47 13.16
12/11/2020 6:45:00 AM 2.29 36.122 0.141 9.03 1.42 13.16
12/11/2020 7:00:00 AM 2.28 36.104 0.141 9.02 1.42 13.17
12/11/2020 7:15:00 AM 2.27 36.086 0.141 8.99 1.42 13.17
12/11/2020 7:30:00 AM 2.26 36.068 0.141 9.03 1.46 13.18
12/11/2020 7:45:00 AM 2.25 36.05 0.141 9.01 1.42 13.18
12/11/2020 8:00:00 AM 2.25 36.05 0.141 8.99 1.44 13.19
12/11/2020 8:15:00 AM 2.27 36.086 0.141 9.01 1.41 13.19
12/11/2020 8:30:00 AM 2.28 36.104 0.141 9.03 1.44 13.2
12/11/2020 8:45:00 AM 2.32 36.176 0.141 8.95 1.43 13.19
12/11/2020 9:00:00 AM 2.36 36.248 0.141 9.01 1.44 13.18
12/11/2020 9:15:00 AM 2.41 36.338 0.141 8.93 1.44 13.16
12/11/2020 9:30:00 AM 2.47 36.446 0.141 8.91 1.42 13.14
12/11/2020 9:45:00 AM 2.55 36.59 0.141 8.95 1.4 13.11
12/11/2020 10:00:00 AM 2.63 36.734 0.141 8.95 1.43 13.08
12/11/2020 10:15:00 AM 2.71 36.878 0.14 9 1.41 13.04
12/11/2020 10:30:00 AM 2.79 37.022 0.14 8.92 1.46 13.02
12/11/2020 10:45:00 AM 2.86 37.148 0.14 9 1.41 13
12/11/2020 11:00:00 AM 2.92 37.256 0.14 8.97 1.47 12.98
12/11/2020 11:15:00 AM 3 37.4 0.14 9.08 1.42 12.95
12/11/2020 11:30:00 AM 3.09 37.562 0.14 9.03 1.39 12.92
12/11/2020 11:45:00 AM 3.22 37.796 0.14 9.1 1.41 12.86
12/11/2020 12:00:00 PM 3.33 37.994 0.14 9.08 1.41 12.81
12/11/2020 12:15:00 PM 3.44 38.192 0.14 9.08 1.43 12.77
12/11/2020 12:30:00 PM 3.54 38.372 0.14 9.03 1.42 12.74
12/11/2020 12:45:00 PM 3.65 38.57 0.14 9.04 1.42 12.71
12/11/2020 1:00:00 PM 3.76 38.768 0.14 9.02 1.46 12.68
12/11/2020 1:15:00 PM 3.87 38.966 0.14 8.97 1.45 12.63
12/11/2020 1:30:00 PM 3.98 39.164 0.14 9.02 1.44 12.59
12/11/2020 1:45:00 PM 4.08 39.344 0.14 9.01 1.41 12.54
12/11/2020 2:00:00 PM 4.15 39.47 0.14 8.99 1.43 12.52
12/11/2020 2:15:00 PM 4.2 39.56 0.14 9.09 1.46 12.5
12/11/2020 2:30:00 PM 4.23 39.614 0.14 9.1 1.41 12.48
12/11/2020 2:45:00 PM 4.24 39.632 0.14 9.16 1.43 12.47
12/11/2020 3:00:00 PM 4.24 39.632 0.14 9.26 1.44 12.47
12/11/2020 3:15:00 PM 4.23 39.614 0.14 9.22 1.45 12.47
12/11/2020 3:30:00 PM 4.23 39.614 0.14 9.09 1.46 12.47
12/11/2020 3:45:00 PM 4.23 39.614 0.14 9.28 1.45 12.48
12/11/2020 4:00:00 PM 4.23 39.614 0.14 9.27 1.42 12.48
12/11/2020 4:15:00 PM 4.2 39.56 0.14 9.34 1.45 12.48
12/11/2020 4:30:00 PM 4.16 39.488 0.14 9.21 1.46 12.49
12/11/2020 4:45:00 PM 4.12 39.416 0.14 9.19 1.42 12.5
12/11/2020 5:00:00 PM 4.07 39.326 0.14 9.26 1.45 12.51
12/11/2020 5:15:00 PM 4.01 39.218 0.14 9.28 1.45 12.52
12/11/2020 5:30:00 PM 3.96 39.128 0.14 9.32 1.46 12.54
12/11/2020 5:45:00 PM 3.9 39.02 0.14 9.2 1.5 12.55
12/11/2020 6:00:00 PM 3.85 38.93 0.141 9.3 1.46 12.57
12/11/2020 6:15:00 PM 3.8 38.84 0.141 9.43 1.49 12.6
12/11/2020 6:30:00 PM 3.75 38.75 0.141 9.34 1.48 12.61
12/11/2020 6:45:00 PM 3.71 38.678 0.141 9.31 1.48 12.63
12/11/2020 7:00:00 PM 3.68 38.624 0.141 9.57 1.49 12.65
12/11/2020 7:15:00 PM 3.66 38.588 0.141 9.41 1.49 12.66
12/11/2020 7:30:00 PM 3.64 38.552 0.141 9.32 1.44 12.67
12/11/2020 7:45:00 PM 3.62 38.516 0.141 9.2 1.46 12.68
12/11/2020 8:00:00 PM 3.59 38.462 0.141 9.31 1.46 12.69
12/11/2020 8:15:00 PM 3.56 38.408 0.141 9.24 1.46 12.69
12/11/2020 8:30:00 PM 3.53 38.354 0.141 9.38 1.48 12.71
12/11/2020 8:45:00 PM 3.5 38.3 0.141 9.26 1.47 12.72
12/11/2020 9:00:00 PM 3.48 38.264 0.14 9.44 1.48 12.73
12/11/2020 9:15:00 PM 3.45 38.21 0.14 9.3 1.48 12.74
12/11/2020 9:30:00 PM 3.42 38.156 0.14 9.38 1.45 12.75
12/11/2020 9:45:00 PM 3.38 38.084 0.14 9.22 1.48 12.76
12/11/2020 10:00:00 PM 3.36 38.048 0.14 9.35 1.46 12.77
12/11/2020 10:15:00 PM 3.33 37.994 0.14 9.45 1.43 12.77
12/11/2020 10:30:00 PM 3.3 37.94 0.14 9.44 1.49 12.77
12/11/2020 10:45:00 PM 3.28 37.904 0.14 9.38 1.43 12.78
12/11/2020 11:00:00 PM 3.26 37.868 0.14 9.39 1.44 12.79
12/11/2020 11:15:00 PM 3.25 37.85 0.14 9.4 1.42 12.79
12/11/2020 11:30:00 PM 3.24 37.832 0.14 9.27 1.44 12.79
12/11/2020 11:45:00 PM 3.23 37.814 0.14 9.13 1.46 12.79
12/12/2020 12:00:00 AM 3.21 37.778 0.14 9.32 1.42 12.8
12/12/2020 12:15:00 AM 3.21 37.778 0.14 9.21 1.46 12.81
12/12/2020 12:30:00 AM 3.2 37.76 0.14 9.26 1.45 12.81
12/12/2020 12:45:00 AM 3.19 37.742 0.14 9.27 1.47 12.81
12/12/2020 1:00:00 AM 3.2 37.76 0.14 9.18 1.45 12.81
12/12/2020 1:15:00 AM 3.2 37.76 0.14 9.16 1.45 12.81
12/12/2020 1:30:00 AM 3.2 37.76 0.139 9.3 1.43 12.8
12/12/2020 1:45:00 AM 3.2 37.76 0.139 9.32 1.46 12.8
12/12/2020 2:00:00 AM 3.2 37.76 0.139 9.33 1.43 12.8
12/12/2020 2:15:00 AM 3.2 37.76 0.139 9.42 1.43 12.81
12/12/2020 2:30:00 AM 3.2 37.76 0.139 9.37 1.45 12.8
12/12/2020 2:45:00 AM 3.2 37.76 0.139 9.36 1.48 12.8
12/12/2020 3:00:00 AM 3.19 37.742 0.139 9.46 1.47 12.8
12/12/2020 3:15:00 AM 3.17 37.706 0.139 9.55 1.45 12.81
12/12/2020 3:30:00 AM 3.16 37.688 0.139 9.63 1.45 12.81
12/12/2020 3:45:00 AM 3.15 37.67 0.139 9.44 1.46 12.82
12/12/2020 4:00:00 AM 3.15 37.67 0.139 9.57 1.44 12.82
12/12/2020 4:15:00 AM 3.16 37.688 0.139 9.61 1.47 12.81
12/12/2020 4:30:00 AM 3.17 37.706 0.139 9.45 1.44 12.81
12/12/2020 4:45:00 AM 3.18 37.724 0.139 9.77 1.4 12.8
12/12/2020 5:00:00 AM 3.19 37.742 0.139 9.36 1.48 12.8
12/12/2020 5:15:00 AM 3.2 37.76 0.139 9.61 1.45 12.8
12/12/2020 5:30:00 AM 3.22 37.796 0.139 9.52 1.44 12.79
12/12/2020 5:45:00 AM 3.24 37.832 0.139 9.63 1.44 12.78
12/12/2020 6:00:00 AM 3.26 37.868 0.139 9.6 1.43 12.77
12/12/2020 6:15:00 AM 3.27 37.886 0.139 9.54 1.46 12.76
12/12/2020 6:30:00 AM 3.29 37.922 0.139 9.67 1.44 12.76
12/12/2020 6:45:00 AM 3.3 37.94 0.139 9.63 1.45 12.76
12/12/2020 7:00:00 AM 3.32 37.976 0.139 9.75 1.46 12.75
12/12/2020 7:15:00 AM 3.33 37.994 0.139 9.78 1.46 12.75
12/12/2020 7:30:00 AM 3.33 37.994 0.139 10.01 1.44 12.74
12/12/2020 7:45:00 AM 3.34 38.012 0.139 9.68 1.46 12.74
12/12/2020 8:00:00 AM 3.35 38.03 0.139 9.54 1.45 12.74
12/12/2020 8:15:00 AM 3.37 38.066 0.139 9.49 1.46 12.74
12/12/2020 8:30:00 AM 3.39 38.102 0.139 9.6 1.43 12.74
12/12/2020 8:45:00 AM 3.41 38.138 0.139 9.83 1.47 12.74
12/12/2020 9:00:00 AM 3.45 38.21 0.139 9.55 1.42 12.74
12/12/2020 9:15:00 AM 3.49 38.282 0.139 9.48 1.44 12.74
12/12/2020 9:30:00 AM 3.52 38.336 0.139 9.36 1.42 12.72
12/12/2020 9:45:00 AM 3.56 38.408 0.139 9.29 1.5 12.71
12/12/2020 10:00:00 AM 3.62 38.516 0.138 9.69 1.44 12.7
12/12/2020 10:15:00 AM 3.7 38.66 0.138 9.52 1.46 12.67
12/12/2020 10:30:00 AM 3.78 38.804 0.138 9.4 1.44 12.64
12/12/2020 10:45:00 AM 3.86 38.948 0.138 9.45 1.43 12.61
12/12/2020 11:00:00 AM 3.95 39.11 0.138 9.41 1.43 12.57
12/12/2020 11:15:00 AM 4.04 39.272 0.138 9.58 1.4 12.54
12/12/2020 11:30:00 AM 4.14 39.452 0.138 9.59 1.42 12.51
12/12/2020 11:45:00 AM 4.23 39.614 0.138 9.71 1.43 12.47
12/12/2020 12:00:00 PM 4.33 39.794 0.138 9.58 1.43 12.43
12/12/2020 12:15:00 PM 4.41 39.938 0.138 9.64 1.45 12.38
12/12/2020 12:30:00 PM 4.49 40.082 0.138 9.59 1.45 12.35
12/12/2020 12:45:00 PM 4.55 40.19 0.138 9.62 1.45 12.33
12/12/2020 1:00:00 PM 4.63 40.334 0.138 9.58 1.46 12.3
12/12/2020 1:15:00 PM 4.7 40.46 0.137 9.59 1.48 12.27
12/12/2020 1:30:00 PM 4.77 40.586 0.137 9.73 1.47 12.25
12/12/2020 1:45:00 PM 4.83 40.694 0.137 9.68 1.46 12.23
12/12/2020 2:00:00 PM 4.89 40.802 0.137 9.68 1.52 12.2
12/12/2020 2:15:00 PM 4.93 40.874 0.137 9.61 1.42 12.18
12/12/2020 2:30:00 PM 4.96 40.928 0.137 9.82 1.44 12.17
12/12/2020 2:45:00 PM 4.98 40.964 0.137 9.84 1.45 12.16
12/12/2020 3:00:00 PM 5 41 0.137 9.91 1.46 12.14
12/12/2020 3:15:00 PM 5.01 41.018 0.137 9.91 1.48 12.14
12/12/2020 3:30:00 PM 5.02 41.036 0.137 9.76 1.47 12.14
12/12/2020 3:45:00 PM 5.02 41.036 0.137 9.73 1.46 12.14
12/12/2020 4:00:00 PM 5 41 0.137 9.69 1.47 12.14
12/12/2020 4:15:00 PM 4.99 40.982 0.137 9.85 1.51 12.14
12/12/2020 4:30:00 PM 4.98 40.964 0.137 9.77 1.49 12.13
12/12/2020 4:45:00 PM 4.97 40.946 0.137 9.55 1.51 12.14
12/12/2020 5:00:00 PM 4.96 40.928 0.137 9.44 1.52 12.14
12/12/2020 5:15:00 PM 4.95 40.91 0.137 9.49 1.55 12.15
12/12/2020 5:30:00 PM 4.94 40.892 0.137 9.49 1.56 12.14
12/12/2020 5:45:00 PM 4.93 40.874 0.137 9.66 1.53 12.15
12/12/2020 6:00:00 PM 4.92 40.856 0.137 9.59 1.54 12.15
12/12/2020 6:15:00 PM 4.91 40.838 0.137 9.44 1.56 12.16
12/12/2020 6:30:00 PM 4.9 40.82 0.137 9.55 1.54 12.15
12/12/2020 6:45:00 PM 4.9 40.82 0.137 9.67 1.51 12.16
12/12/2020 7:00:00 PM 4.89 40.802 0.137 9.47 1.51 12.17
12/12/2020 7:15:00 PM 4.89 40.802 0.137 9.67 1.56 12.17
12/12/2020 7:30:00 PM 4.89 40.802 0.137 9.86 1.56 12.16
12/12/2020 7:45:00 PM 4.9 40.82 0.137 9.54 1.54 12.17
12/12/2020 8:00:00 PM 4.9 40.82 0.136 9.63 1.55 12.16
12/12/2020 8:15:00 PM 4.91 40.838 0.136 9.64 1.58 12.16
12/12/2020 8:30:00 PM 4.92 40.856 0.136 9.49 1.62 12.16
12/12/2020 8:45:00 PM 4.92 40.856 0.136 9.5 1.68 12.15
12/12/2020 9:00:00 PM 4.93 40.874 0.136 9.54 1.78 12.16
12/12/2020 9:15:00 PM 4.94 40.892 0.136 9.58 1.7 12.14
12/12/2020 9:30:00 PM 4.95 40.91 0.136 9.53 1.65 12.15
12/12/2020 9:45:00 PM 4.96 40.928 0.136 9.39 1.61 12.14
12/12/2020 10:00:00 PM 4.97 40.946 0.136 9.37 1.59 12.14
12/12/2020 10:15:00 PM 4.99 40.982 0.136 9.38 1.56 12.12
12/12/2020 10:30:00 PM 5.02 41.036 0.135 9.53 1.57 12.12
12/12/2020 10:45:00 PM 5.03 41.054 0.135 9.93 1.58 12.12
12/12/2020 11:00:00 PM 5.05 41.09 0.135 9.7 1.6 12.11
12/12/2020 11:15:00 PM 5.06 41.108 0.135 9.7 1.57 12.12
12/12/2020 11:30:00 PM 5.08 41.144 0.135 9.57 1.56 12.11
12/12/2020 11:45:00 PM 5.1 41.18 0.135 9.99 1.54 12.1
12/13/2020 12:00:00 AM 5.13 41.234 0.135 10.07 1.56 12.09
12/13/2020 12:15:00 AM 5.18 41.324 0.135 10.31 1.6 12.09
12/13/2020 12:30:00 AM 5.24 41.432 0.134 10.5 1.55 12.07
12/13/2020 12:45:00 AM 5.3 41.54 0.134 10.2 1.53 12.04
12/13/2020 1:00:00 AM 5.36 41.648 0.134 10.48 1.54 12.02
12/13/2020 1:15:00 AM 5.4 41.72 0.134 10.35 1.54 12.01
12/13/2020 1:30:00 AM 5.44 41.792 0.134 10.56 1.57 12
12/13/2020 1:45:00 AM 5.48 41.864 0.134 10.35 1.6 11.99
12/13/2020 2:00:00 AM 5.51 41.918 0.134 10.57 1.56 11.97
12/13/2020 2:15:00 AM 5.54 41.972 0.133 10.47 1.55 11.97
12/13/2020 2:30:00 AM 5.57 42.026 0.133 10.49 1.59 11.96
12/13/2020 2:45:00 AM 5.6 42.08 0.133 10.76 1.6 11.95
12/13/2020 3:00:00 AM 5.61 42.098 0.133 10.3 1.61 11.95
12/13/2020 3:15:00 AM 5.6 42.08 0.133 10.38 1.55 11.95
12/13/2020 3:30:00 AM 5.6 42.08 0.133 10.39 1.59 11.96
12/13/2020 3:45:00 AM 5.59 42.062 0.133 10.47 1.57 11.96
12/13/2020 4:00:00 AM 5.55 41.99 0.133 10.46 1.59 11.97
12/13/2020 4:15:00 AM 5.51 41.918 0.133 10.75 1.57 11.98
12/13/2020 4:30:00 AM 5.45 41.81 0.133 10.57 1.57 12
12/13/2020 4:45:00 AM 5.4 41.72 0.133 11.15 1.58 12.01
12/13/2020 5:00:00 AM 5.34 41.612 0.133 10.79 1.58 12.04
12/13/2020 5:15:00 AM 5.3 41.54 0.133 10.79 1.6 12.06
12/13/2020 5:30:00 AM 5.26 41.468 0.133 10.49 1.59 12.08
12/13/2020 5:45:00 AM 5.21 41.378 0.132 10.64 1.55 12.1
12/13/2020 6:00:00 AM 5.17 41.306 0.132 10.92 1.6 12.12
12/13/2020 6:15:00 AM 5.14 41.252 0.132 10.49 1.6 12.13
12/13/2020 6:30:00 AM 5.11 41.198 0.132 10.37 1.58 12.15
12/13/2020 6:45:00 AM 5.09 41.162 0.132 10.49 1.56 12.16
12/13/2020 7:00:00 AM 5.06 41.108 0.132 10.73 1.57 12.17
12/13/2020 7:15:00 AM 5.03 41.054 0.132 10.56 1.55 12.18
12/13/2020 7:30:00 AM 5.01 41.018 0.132 10.63 1.57 12.18
12/13/2020 7:45:00 AM 5 41 0.132 10.44 1.57 12.19
12/13/2020 8:00:00 AM 4.99 40.982 0.132 10.78 1.57 12.2
12/13/2020 8:15:00 AM 4.98 40.964 0.132 10.6 1.55 12.21
12/13/2020 8:30:00 AM 4.97 40.946 0.132 10.45 1.55 12.21
12/13/2020 8:45:00 AM 4.96 40.928 0.132 10.69 1.59 12.22
12/13/2020 9:00:00 AM 4.96 40.928 0.132 10.57 1.55 12.23
12/13/2020 9:15:00 AM 4.95 40.91 0.132 10.43 1.56 12.22
12/13/2020 9:30:00 AM 4.95 40.91 0.131 10.73 1.57 12.24
12/13/2020 9:45:00 AM 4.96 40.928 0.131 10.67 1.57 12.24
12/13/2020 10:00:00 AM 4.96 40.928 0.131 10.78 1.58 12.23
12/13/2020 10:15:00 AM 4.96 40.928 0.131 10.81 1.54 12.23
12/13/2020 10:30:00 AM 4.97 40.946 0.131 10.83 1.59 12.24
12/13/2020 10:45:00 AM 4.98 40.964 0.131 10.84 1.56 12.24
12/13/2020 11:00:00 AM 4.98 40.964 0.131 10.87 1.55 12.24
12/13/2020 11:15:00 AM 4.98 40.964 0.131 10.52 1.55 12.24
12/13/2020 11:30:00 AM 5 41 0.131 11.13 1.57 12.25
12/13/2020 11:45:00 AM 5.01 41.018 0.131 10.79 1.53 12.25
12/13/2020 12:00:00 PM 5.03 41.054 0.131 10.9 1.55 12.24
12/13/2020 12:15:00 PM 5.04 41.072 0.13 10.99 1.54 12.23
12/13/2020 12:30:00 PM 5.04 41.072 0.13 11.23 1.54 12.23
12/13/2020 12:45:00 PM 5.04 41.072 0.13 10.91 1.54 12.24
12/13/2020 1:00:00 PM 5.05 41.09 0.13 11.31 1.58 12.23
12/13/2020 1:15:00 PM 5.04 41.072 0.13 11.31 1.57 12.24
12/13/2020 1:30:00 PM 5.05 41.09 0.13 11.05 1.58 12.24
12/13/2020 1:45:00 PM 5.04 41.072 0.13 11.36 1.55 12.23
12/13/2020 2:00:00 PM 5.03 41.054 0.13 11.17 1.57 12.24
12/13/2020 2:15:00 PM 5.02 41.036 0.13 11.17 1.56 12.23
12/13/2020 2:30:00 PM 5 41 0.13 11.19 1.57 12.24
12/13/2020 2:45:00 PM 4.98 40.964 0.13 11.11 1.59 12.25
12/13/2020 3:00:00 PM 4.97 40.946 0.13 11.24 1.55 12.25
12/13/2020 3:15:00 PM 4.95 40.91 0.13 11.66 1.54 12.25
12/13/2020 3:30:00 PM 4.92 40.856 0.13 11.49 1.56 12.26
12/13/2020 3:45:00 PM 4.9 40.82 0.13 11.82 1.54 12.26
12/13/2020 4:00:00 PM 4.88 40.784 0.13 11.6 1.57 12.27
12/13/2020 4:15:00 PM 4.86 40.748 0.13 11.91 1.57 12.27
12/13/2020 4:30:00 PM 4.84 40.712 0.13 11.57 1.55 12.28
12/13/2020 4:45:00 PM 4.83 40.694 0.129 11.36 1.59 12.28
12/13/2020 5:00:00 PM 4.81 40.658 0.129 11.45 1.59 12.29
12/13/2020 5:15:00 PM 4.8 40.64 0.129 11.47 1.59 12.3
12/13/2020 5:30:00 PM 4.78 40.604 0.129 11.81 1.6 12.3
12/13/2020 5:45:00 PM 4.76 40.568 0.129 11.87 1.6 12.31
12/13/2020 6:00:00 PM 4.75 40.55 0.129 12.36 1.57 12.31
12/13/2020 6:15:00 PM 4.74 40.532 0.129 12.52 1.61 12.31
12/13/2020 6:30:00 PM 4.72 40.496 0.129 11.76 1.56 12.32
12/13/2020 6:45:00 PM 4.71 40.478 0.129 11.48 1.62 12.33
12/13/2020 7:00:00 PM 4.69 40.442 0.129 11.94 1.54 12.33
12/13/2020 7:15:00 PM 4.67 40.406 0.129 12.61 1.58 12.34
12/13/2020 7:30:00 PM 4.65 40.37 0.129 12.07 1.57 12.35
12/13/2020 7:45:00 PM 4.64 40.352 0.129 12.41 1.51 12.35
12/13/2020 8:00:00 PM 4.62 40.316 0.129 12.35 1.57 12.36
12/13/2020 8:15:00 PM 4.61 40.298 0.129 12.2 1.56 12.36
12/13/2020 8:30:00 PM 4.59 40.262 0.129 12.71 1.56 12.37
12/13/2020 8:45:00 PM 4.57 40.226 0.129 12.51 1.54 12.37
12/13/2020 9:00:00 PM 4.56 40.208 0.129 12.76 1.53 12.37
12/13/2020 9:15:00 PM 4.54 40.172 0.129 11.67 1.57 12.37
12/13/2020 9:30:00 PM 4.53 40.154 0.129 11.97 1.54 12.37
12/13/2020 9:45:00 PM 4.52 40.136 0.129 11.94 1.53 12.37
12/13/2020 10:00:00 PM 4.51 40.118 0.129 13.66 1.51 12.38
12/13/2020 10:15:00 PM 4.5 40.1 0.129 12.72 1.53 12.38
12/13/2020 10:30:00 PM 4.5 40.1 0.129 12.33 1.54 12.39
12/13/2020 10:45:00 PM 4.49 40.082 0.129 11.86 1.54 12.38
12/13/2020 11:00:00 PM 4.48 40.064 0.129 12.03 1.53 12.38
12/13/2020 11:15:00 PM 4.47 40.046 0.129 13.38 1.52 12.39
12/13/2020 11:30:00 PM 4.45 40.01 0.129 13.4 1.5 12.39
12/13/2020 11:45:00 PM 4.44 39.992 0.129 13.06 1.52 12.39
12/14/2020 12:00:00 AM 4.42 39.956 0.129 11.07 1.51 12.39
12/14/2020 12:15:00 AM 4.41 39.938 0.129 12.75 1.52 12.4
12/14/2020 12:30:00 AM 4.39 39.902 0.129 12.24 1.52 12.4
12/14/2020 12:45:00 AM 4.38 39.884 0.129 11.92 1.52 12.4
12/14/2020 1:00:00 AM 4.37 39.866 0.129 11.16 1.48 12.41
12/14/2020 1:15:00 AM 4.36 39.848 0.129 11.44 1.51 12.41
12/14/2020 1:30:00 AM 4.34 39.812 0.128 10.54 1.55 12.4
12/14/2020 1:45:00 AM 4.33 39.794 0.128 12.27 1.51 12.4
12/14/2020 2:00:00 AM 4.32 39.776 0.128 12.3 1.52 12.4
12/14/2020 2:15:00 AM 4.31 39.758 0.128 12.35 1.52 12.4
12/14/2020 2:30:00 AM 4.3 39.74 0.128 12.06 1.51 12.4
12/14/2020 2:45:00 AM 4.29 39.722 0.128 11.95 1.5 12.41
12/14/2020 3:00:00 AM 4.28 39.704 0.128 11.98 1.55 12.41
12/14/2020 3:15:00 AM 4.27 39.686 0.128 12.26 1.52 12.42
12/14/2020 3:30:00 AM 4.27 39.686 0.128 13.03 1.53 12.42
12/14/2020 3:45:00 AM 4.26 39.668 0.128 12.74 1.48 12.42
12/14/2020 4:00:00 AM 4.24 39.632 0.128 12.38 1.53 12.43
12/14/2020 4:15:00 AM 4.21 39.578 0.128 12.2 1.48 12.43
12/14/2020 4:30:00 AM 4.18 39.524 0.128 12.16 1.49 12.43
12/14/2020 4:45:00 AM 4.15 39.47 0.128 12.22 1.5 12.44
12/14/2020 5:00:00 AM 4.1 39.38 0.128 12.49 1.53 12.46
12/14/2020 5:15:00 AM 4.05 39.29 0.128 12.2 1.55 12.47
12/14/2020 5:30:00 AM 4 39.2 0.128 12.56 1.51 12.49
12/14/2020 5:45:00 AM 3.96 39.128 0.128 12.14 1.52 12.51
12/14/2020 6:00:00 AM 3.94 39.092 0.128 12.06 1.51 12.52
12/14/2020 6:15:00 AM 3.91 39.038 0.128 12.2 1.55 12.53
12/14/2020 6:30:00 AM 3.86 38.948 0.127 11.58 1.5 12.54
12/14/2020 6:45:00 AM 3.82 38.876 0.127 11.44 1.49 12.55
12/14/2020 7:00:00 AM 3.81 38.858 0.127 11.62 1.52 12.55
12/14/2020 7:15:00 AM 3.83 38.894 0.127 11.5 1.56 12.56
12/14/2020 7:30:00 AM 3.84 38.912 0.127 12.13 1.5 12.55
12/14/2020 7:45:00 AM 3.84 38.912 0.127 12.36 1.53 12.54
12/14/2020 8:00:00 AM 3.82 38.876 0.127 11.87 1.53 12.54
12/14/2020 8:15:00 AM 3.82 38.876 0.127 11.93 1.51 12.55
12/14/2020 8:30:00 AM 3.82 38.876 0.127 12.08 1.5 12.55
12/14/2020 8:45:00 AM 3.84 38.912 0.127 11.29 1.51 12.56
12/14/2020 9:00:00 AM 3.85 38.93 0.127 12.08 1.53 12.56
12/14/2020 9:15:00 AM 3.87 38.966 0.127 11.54 1.54 12.56
12/14/2020 9:30:00 AM 3.89 39.002 0.127 12.58 1.55 12.55
12/14/2020 9:45:00 AM 3.9 39.02 0.127 12.45 1.54 12.55
12/14/2020 10:00:00 AM 3.91 39.038 0.127 12.1 1.54 12.55
12/14/2020 10:15:00 AM 3.91 39.038 0.127 12.69 1.53 12.55
12/14/2020 10:30:00 AM 3.91 39.038 0.127 12.67 1.51 12.55
12/14/2020 10:45:00 AM 3.91 39.038 0.127 12.72 1.53 12.55
12/14/2020 11:00:00 AM 3.92 39.056 0.127 11.57 1.49 12.56
12/14/2020 11:15:00 AM 3.92 39.056 0.127 11.56 1.51 12.56
12/14/2020 11:30:00 AM 3.9 39.02 0.127 11.96 1.5 12.56
12/14/2020 11:45:00 AM 3.93 39.074 0.127 11.47 1.54 12.57
12/14/2020 12:00:00 PM 3.94 39.092 0.127 11.79 1.5 12.56
12/14/2020 12:15:00 PM 3.96 39.128 0.127 12.06 1.54 12.56
12/14/2020 12:30:00 PM 3.97 39.146 0.127 11.68 1.51 12.55
12/14/2020 12:45:00 PM 3.99 39.182 0.127 11.96 1.51 12.55
12/14/2020 1:00:00 PM 4 39.2 0.127 11.98 1.51 12.54
12/14/2020 1:15:00 PM 4 39.2 0.128 12.01 1.5 12.54
12/14/2020 1:30:00 PM 3.99 39.182 0.128 11.99 1.53 12.54
12/14/2020 1:45:00 PM 4 39.2 0.128 11.71 1.51 12.54
12/14/2020 2:00:00 PM 3.99 39.182 0.128 12.42 1.53 12.54
12/14/2020 2:15:00 PM 3.98 39.164 0.129 12.03 1.49 12.55
12/14/2020 2:30:00 PM 4 39.2 0.129 11.82 1.48 12.54
12/14/2020 2:45:00 PM 4 39.2 0.13 12.09 1.51 12.53
12/14/2020 3:00:00 PM 3.99 39.182 0.13 12.62 1.49 12.53
12/14/2020 3:15:00 PM 3.97 39.146 0.131 12.42 1.53 12.53
12/14/2020 3:30:00 PM 3.94 39.092 0.131 12.25 1.53 12.54
12/14/2020 3:45:00 PM 3.93 39.074 0.132 12.82 1.51 12.54
12/14/2020 4:00:00 PM 3.89 39.002 0.132 12.81 1.52 12.55
12/14/2020 4:15:00 PM 3.85 38.93 0.132 12.93 1.75 12.55
12/14/2020 4:30:00 PM 3.8 38.84 0.133 12.79 1.52 12.57
12/14/2020 4:45:00 PM 3.76 38.768 0.133 13.2 1.52 12.58
12/14/2020 5:00:00 PM 3.7 38.66 0.133 11.69 1.53 12.6
12/14/2020 5:15:00 PM 3.66 38.588 0.133 12.24 1.51 12.62
12/14/2020 5:30:00 PM 3.62 38.516 0.133 12.11 1.5 12.64
12/14/2020 5:45:00 PM 3.57 38.426 0.133 11.6 1.51 12.67
12/14/2020 6:00:00 PM 3.5 38.3 0.133 12.08 1.5 12.7
12/14/2020 6:15:00 PM 3.44 38.192 0.133 12.44 1.51 12.73
12/14/2020 6:30:00 PM 3.4 38.12 0.133 12.33 1.52 12.75
12/14/2020 6:45:00 PM 3.36 38.048 0.133 12.33 1.51 12.77
12/14/2020 7:00:00 PM 3.3 37.94 0.133 13.02 1.54 12.79
12/14/2020 7:15:00 PM 3.25 37.85 0.133 12.17 1.52 12.8
12/14/2020 7:30:00 PM 3.22 37.796 0.133 12.07 1.5 12.81
12/14/2020 7:45:00 PM 3.19 37.742 0.133 12.31 1.53 12.82
12/14/2020 8:00:00 PM 3.16 37.688 0.132 13.18 1.49 12.84
12/14/2020 8:15:00 PM 3.12 37.616 0.132 12.48 1.49 12.85
12/14/2020 8:30:00 PM 3.09 37.562 0.132 12.32 1.49 12.86
12/14/2020 8:45:00 PM 3.05 37.49 0.132 12.31 1.49 12.88
12/14/2020 9:00:00 PM 3.02 37.436 0.132 12.17 1.48 12.9
12/14/2020 9:15:00 PM 2.98 37.364 0.132 13.3 1.49 12.91
12/14/2020 9:30:00 PM 2.93 37.274 0.132 12.08 1.51 12.93
12/14/2020 9:45:00 PM 2.9 37.22 0.132 12.29 1.49 12.95
12/14/2020 10:00:00 PM 2.87 37.166 0.132 12.5 1.52 12.97
12/14/2020 10:15:00 PM 2.84 37.112 0.132 12.34 1.48 12.98
12/14/2020 10:30:00 PM 2.81 37.058 0.132 11.87 1.48 12.99
12/14/2020 10:45:00 PM 2.78 37.004 0.132 12 1.51 13.01
12/14/2020 11:00:00 PM 2.76 36.968 0.132 12.16 1.47 13.02
12/14/2020 11:15:00 PM 2.73 36.914 0.132 12.43 1.5 13.03
12/14/2020 11:30:00 PM 2.7 36.86 0.131 12.43 1.48 13.04
12/14/2020 11:45:00 PM 2.68 36.824 0.131 12.02 1.47 13.05
12/15/2020 12:00:00 AM 2.65 36.77 0.131 12.19 1.47 13.06
12/15/2020 12:15:00 AM 2.62 36.716 0.131 13.37 1.48 13.06
12/15/2020 12:30:00 AM 2.6 36.68 0.131 13.44 1.47 13.07
12/15/2020 12:45:00 AM 2.58 36.644 0.131 12 1.49 13.08
12/15/2020 1:00:00 AM 2.56 36.608 0.131 12.33 1.46 13.08
12/15/2020 1:15:00 AM 2.54 36.572 0.131 11.75 1.46 13.09
12/15/2020 1:30:00 AM 2.51 36.518 0.131 12.07 1.48 13.1
12/15/2020 1:45:00 AM 2.5 36.5 0.131 11.93 1.45 13.11
12/15/2020 2:00:00 AM 2.48 36.464 0.131 11.92 1.5 13.12
12/15/2020 2:15:00 AM 2.47 36.446 0.131 11.73 1.45 13.12
12/15/2020 2:30:00 AM 2.47 36.446 0.131 11.74 1.5 13.12
12/15/2020 2:45:00 AM 2.46 36.428 0.131 11.32 1.48 13.13
12/15/2020 3:00:00 AM 2.46 36.428 0.131 11.64 1.46 13.13
12/15/2020 3:15:00 AM 2.45 36.41 0.131 11.56 1.45 13.13
12/15/2020 3:30:00 AM 2.45 36.41 0.131 11.62 1.52 13.14
12/15/2020 3:45:00 AM 2.44 36.392 0.131 11.43 1.49 13.14
12/15/2020 4:00:00 AM 2.44 36.392 0.131 11.96 1.46 13.14
12/15/2020 4:15:00 AM 2.43 36.374 0.131 15.27 1.46 13.15
12/15/2020 4:30:00 AM 2.43 36.374 0.131 15.42 1.49 13.15
12/15/2020 4:45:00 AM 2.43 36.374 0.131 15.43 1.49 13.15
12/15/2020 5:00:00 AM 2.43 36.374 0.131 14.83 1.44 13.15
12/15/2020 5:15:00 AM 2.42 36.356 0.131 14.96 1.49 13.16
12/15/2020 5:30:00 AM 2.41 36.338 0.131 14.89 1.46 13.17
12/15/2020 5:45:00 AM 2.38 36.284 0.131 15.32 1.44 13.18
12/15/2020 6:00:00 AM 2.35 36.23 0.13 14.66 1.47 13.2
12/15/2020 6:15:00 AM 2.31 36.158 0.131 15.03 1.45 13.22
12/15/2020 6:30:00 AM 2.27 36.086 0.13 15.15 1.47 13.24
12/15/2020 6:45:00 AM 2.24 36.032 0.13 15.05 1.57 13.26
12/15/2020 7:00:00 AM 2.2 35.96 0.13 15.37 1.47 13.28
12/15/2020 7:15:00 AM 2.17 35.906 0.13 15.01 1.47 13.29
12/15/2020 7:30:00 AM 2.14 35.852 0.13 15.43 1.43 13.3
12/15/2020 7:45:00 AM 2.12 35.816 0.13 14.43 1.46 13.31
12/15/2020 8:00:00 AM 2.1 35.78 0.13 15.34 1.44 13.32
12/15/2020 8:15:00 AM 2.09 35.762 0.13 15.27 1.42 13.34
12/15/2020 8:30:00 AM 2.09 35.762 0.13 15.05 1.47 13.35
12/15/2020 8:45:00 AM 2.1 35.78 0.13 15.09 1.44 13.36
12/15/2020 9:00:00 AM 2.11 35.798 0.13 15.37 1.45 13.36
12/15/2020 9:15:00 AM 2.14 35.852 0.13 15.09 1.44 13.36
12/15/2020 9:30:00 AM 2.16 35.888 0.13 15.13 1.47 13.36
12/15/2020 9:45:00 AM 2.18 35.924 0.13 15.25 1.48 13.35
12/15/2020 10:00:00 AM 2.21 35.978 0.13 15.3 1.46 13.35
12/15/2020 10:15:00 AM 2.23 36.014 0.13 15.23 1.5 13.34
12/15/2020 10:30:00 AM 2.25 36.05 0.13 15.3 1.43 13.34
12/15/2020 10:45:00 AM 2.28 36.104 0.13 14.98 1.45 13.33
12/15/2020 11:00:00 AM 2.31 36.158 0.13 15.09 1.5 13.32
12/15/2020 11:15:00 AM 2.34 36.212 0.13 15.17 1.44 13.31
12/15/2020 11:30:00 AM 2.39 36.302 0.13 14.98 1.45 13.28
12/15/2020 11:45:00 AM 2.44 36.392 0.13 15.02 1.45 13.26
12/15/2020 12:00:00 PM 2.48 36.464 0.13 14.97 1.55 13.24
12/15/2020 12:15:00 PM 2.52 36.536 0.13 14.94 1.5 13.22
12/15/2020 12:30:00 PM 2.57 36.626 0.13 14.81 1.46 13.2
12/15/2020 12:45:00 PM 2.61 36.698 0.13 14.86 1.47 13.18
12/15/2020 1:00:00 PM 2.64 36.752 0.13 14.92 1.45 13.16
12/15/2020 1:15:00 PM 2.66 36.788 0.13 14.8 1.44 13.15
12/15/2020 1:30:00 PM 2.67 36.806 0.13 12.38 1.58 13.15
12/15/2020 1:45:00 PM 2.67 36.806 0.13 13.21 1.51 13.14
12/15/2020 2:00:00 PM 2.67 36.806 0.13 13.28 1.49 13.14
12/15/2020 2:15:00 PM 2.66 36.788 0.13 13.56 1.45 13.15
12/15/2020 2:30:00 PM 2.65 36.77 0.13 13.65 1.44 13.15
12/15/2020 2:45:00 PM 2.63 36.734 0.13 13.89 1.46 13.15
12/15/2020 3:00:00 PM 2.62 36.716 0.13 13.77 1.61 13.16
12/15/2020 3:15:00 PM 2.6 36.68 0.13 13.31 1.49 13.16
12/15/2020 3:30:00 PM 2.58 36.644 0.13 12.99 1.47 13.17
12/15/2020 3:45:00 PM 2.56 36.608 0.13 13.22 1.48 13.18
12/15/2020 4:00:00 PM 2.54 36.572 0.13 13.27 1.45 13.18
12/15/2020 4:15:00 PM 2.51 36.518 0.13 13.74 1.48 13.18
12/15/2020 4:30:00 PM 2.49 36.482 0.13 13.92 1.43 13.19
12/15/2020 4:45:00 PM 2.45 36.41 0.13 13.21 1.47 13.2
12/15/2020 5:00:00 PM 2.42 36.356 0.13 13.78 1.46 13.21
12/15/2020 5:15:00 PM 2.38 36.284 0.13 13.65 1.48 13.23
12/15/2020 5:30:00 PM 2.34 36.212 0.13 12.46 1.46 13.24
12/15/2020 5:45:00 PM 2.29 36.122 0.13 13.77 1.49 13.26
12/15/2020 6:00:00 PM 2.25 36.05 0.13 13.94 1.44 13.27
12/15/2020 6:15:00 PM 2.21 35.978 0.13 13.91 1.49 13.29
12/15/2020 6:30:00 PM 2.18 35.924 0.13 13.71 1.46 13.3
12/15/2020 6:45:00 PM 2.14 35.852 0.13 13.68 1.46 13.31
12/15/2020 7:00:00 PM 2.11 35.798 0.13 13.5 1.47 13.32
12/15/2020 7:15:00 PM 2.07 35.726 0.13 13.45 1.47 13.33
12/15/2020 7:30:00 PM 2.03 35.654 0.13 13.95 1.44 13.34
12/15/2020 7:45:00 PM 2 35.6 0.131 14.04 1.45 13.34
12/15/2020 8:00:00 PM 1.97 35.546 0.131 13.76 1.44 13.35
12/15/2020 8:15:00 PM 1.94 35.492 0.131 13.24 1.43 13.36
12/15/2020 8:30:00 PM 1.91 35.438 0.131 12.98 1.44 13.37
12/15/2020 8:45:00 PM 1.88 35.384 0.131 14.08 1.45 13.38
12/15/2020 9:00:00 PM 1.85 35.33 0.131 13.87 1.48 13.39
12/15/2020 9:15:00 PM 1.82 35.276 0.131 14.42 1.44 13.4
12/15/2020 9:30:00 PM 1.8 35.24 0.131 13.57 1.48 13.41
12/15/2020 9:45:00 PM 1.78 35.204 0.131 14.01 1.45 13.41
12/15/2020 10:00:00 PM 1.77 35.186 0.131 14.16 1.44 13.42
12/15/2020 10:15:00 PM 1.76 35.168 0.131 14.5 1.43 13.43
12/15/2020 10:30:00 PM 1.74 35.132 0.131 14.32 1.46 13.44
12/15/2020 10:45:00 PM 1.73 35.114 0.131 14.59 1.43 13.44
12/15/2020 11:00:00 PM 1.71 35.078 0.131 14.58 1.45 13.45
12/15/2020 11:15:00 PM 1.69 35.042 0.131 14.17 1.43 13.46
12/15/2020 11:30:00 PM 1.67 35.006 0.131 14.13 1.45 13.47
12/15/2020 11:45:00 PM 1.65 34.97 0.131 14.23 1.44 13.48
12/16/2020 12:00:00 AM 1.62 34.916 0.131 14.15 1.43 13.49
12/16/2020 12:15:00 AM 1.59 34.862 0.131 14.19 1.43 13.51
12/16/2020 12:30:00 AM 1.56 34.808 0.131 14.25 1.48 13.52
12/16/2020 12:45:00 AM 1.53 34.754 0.131 14.35 1.45 13.53
12/16/2020 1:00:00 AM 1.5 34.7 0.131 14.54 1.44 13.54
12/16/2020 1:15:00 AM 1.47 34.646 0.131 14.49 1.42 13.54
12/16/2020 1:30:00 AM 1.44 34.592 0.131 14.63 1.44 13.56
12/16/2020 1:45:00 AM 1.41 34.538 0.131 14.52 1.45 13.57
12/16/2020 2:00:00 AM 1.39 34.502 0.131 14.45 1.46 13.58
12/16/2020 2:15:00 AM 1.37 34.466 0.131 14.47 1.42 13.58
12/16/2020 2:30:00 AM 1.34 34.412 0.131 14.52 1.43 13.59
12/16/2020 2:45:00 AM 1.32 34.376 0.131 14.46 1.47 13.6
12/16/2020 3:00:00 AM 1.29 34.322 0.131 14.34 1.44 13.61
12/16/2020 3:15:00 AM 1.27 34.286 0.131 14.27 1.43 13.61
12/16/2020 3:30:00 AM 1.25 34.25 0.131 14.2 1.43 13.62
12/16/2020 3:45:00 AM 1.23 34.214 0.131 14.51 1.44 13.62
12/16/2020 4:00:00 AM 1.21 34.178 0.131 14.6 1.42 13.63
12/16/2020 4:15:00 AM 1.19 34.142 0.131 14.49 1.46 13.62
12/16/2020 4:30:00 AM 1.17 34.106 0.131 14.51 1.42 13.64
12/16/2020 4:45:00 AM 1.15 34.07 0.131 14.64 1.48 13.64
12/16/2020 5:00:00 AM 1.13 34.034 0.131 14.51 1.43 13.65
12/16/2020 5:15:00 AM 1.11 33.998 0.131 14.46 1.41 13.66
12/16/2020 5:30:00 AM 1.09 33.962 0.131 14.51 1.49 13.66
12/16/2020 5:45:00 AM 1.07 33.926 0.131 14.43 1.46 13.68
12/16/2020 6:00:00 AM 1.04 33.872 0.131 14.62 1.42 13.68
12/16/2020 6:15:00 AM 1.02 33.836 0.131 14.56 1.45 13.7
12/16/2020 6:30:00 AM 1.01 33.818 0.131 14.73 1.46 13.71
12/16/2020 6:45:00 AM 0.99 33.782 0.131 14.68 1.45 13.71
12/16/2020 7:00:00 AM 0.98 33.764 0.131 14.65 1.44 13.72
12/16/2020 7:15:00 AM 0.96 33.728 0.131 14.68 1.43 13.72
12/16/2020 7:30:00 AM 0.93 33.674 0.131 14.64 1.45 13.74
12/16/2020 7:45:00 AM 0.91 33.638 0.131 12.97 1.45 13.75
12/16/2020 8:00:00 AM 0.89 33.602 0.131 14.75 1.44 13.75
12/16/2020 8:15:00 AM 0.87 33.566 0.131 13.54 1.43 13.77
12/16/2020 8:30:00 AM 0.86 33.548 0.131 14.39 1.46 13.78
12/16/2020 8:45:00 AM 0.85 33.53 0.131 15.02 1.45 13.79
12/16/2020 9:00:00 AM 0.85 33.53 0.131 14.2 1.5 13.8
12/16/2020 9:15:00 AM 0.84 33.512 0.131 13.49 1.41 13.8
12/16/2020 9:30:00 AM 0.85 33.53 0.131 13.97 1.41 13.8
12/16/2020 9:45:00 AM 0.86 33.548 0.131 14.07 1.44 13.8
12/16/2020 10:00:00 AM 0.86 33.548 0.131 14.2 1.43 13.8
12/16/2020 10:15:00 AM 0.85 33.53 0.131 13.63 1.45 13.8
12/16/2020 10:30:00 AM 0.85 33.53 0.131 13.58 1.45 13.8
12/16/2020 10:45:00 AM 0.85 33.53 0.131 13.61 1.48 13.8
12/16/2020 11:00:00 AM 0.81 33.458 0.131 13.9 1.45 13.79
12/16/2020 11:15:00 AM 0.71 33.278 0.13 13.96 1.44 13.81
12/16/2020 11:30:00 AM 0.54 32.972 0.13 14.47 1.46 13.84
12/16/2020 11:45:00 AM 0.38 32.684 0.13 14.08 1.48 13.9
12/16/2020 12:00:00 PM 0.36 32.648 0.13 14.2 1.43 13.93
12/16/2020 12:15:00 PM 0.37 32.666 0.13 14.55 1.45 13.93
12/16/2020 12:30:00 PM 0.32 32.576 0.13 14.34 1.46 13.94
12/16/2020 12:45:00 PM 0.21 32.378 0.129 14.44 1.49 13.98
12/16/2020 1:00:00 PM 0.1 32.18 0.129 14.3 1.47 14.02
12/16/2020 1:15:00 PM 0.04 32.072 0.129 14.38 1.48 14.04
12/16/2020 1:30:00 PM -0.01 31.982 0.129 14.62 1.48 14.06
12/16/2020 1:45:00 PM -0.06 31.892 0.129 14.65 1.49 14.07
12/16/2020 2:00:00 PM -0.12 31.784 0.129 14.58 1.67 14.1
12/16/2020 2:15:00 PM -0.13 31.766 0.128 14.74 1.71 14.11
12/16/2020 2:30:00 PM -0.13 31.766 0.128 14.51 1.79 14.13
12/16/2020 2:45:00 PM -0.13 31.766 0.128 14.74 1.83 14.12
12/16/2020 3:00:00 PM -0.13 31.766 0.128 14.76 1.79 14.12
12/16/2020 3:15:00 PM -0.13 31.766 0.127 14.89 1.68 14.13
12/16/2020 3:30:00 PM -0.13 31.766 0.126 14.76 1.71 14.12
12/16/2020 3:45:00 PM -0.13 31.766 0.127 14.72 1.83 14.12
12/16/2020 4:00:00 PM -0.13 31.766 0.126 14.62 1.98 14.11
12/16/2020 4:15:00 PM -0.13 31.766 0.126 14.63 1.88 14.1
12/16/2020 4:30:00 PM -0.13 31.766 0.126 14.56 1.74 14.11
12/16/2020 4:45:00 PM -0.13 31.766 0.125 14.2 1.74 14.1
12/16/2020 5:00:00 PM -0.13 31.766 0.125 14.8 1.88 14.09
12/16/2020 5:15:00 PM -0.13 31.766 0.125 14.91 1.83 14.09
12/16/2020 5:30:00 PM -0.13 31.766 0.126 14.67 2.01 14.09
12/16/2020 5:45:00 PM -0.13 31.766 0.126 14.63 1.77 14.09
12/16/2020 6:00:00 PM -0.13 31.766 0.125 14.52 1.98 14.09
12/16/2020 6:15:00 PM -0.13 31.766 0.125 14.61 1.96 14.07
12/16/2020 6:30:00 PM -0.13 31.766 0.125 14.7 2.03 14.06
12/16/2020 6:45:00 PM -0.13 31.766 0.125 14.52 2.06 14.05
12/16/2020 7:00:00 PM -0.13 31.766 0.124 14.56 2.44 14.05
12/16/2020 7:15:00 PM -0.13 31.766 0.123 14.94 2.7 14.04
12/16/2020 7:30:00 PM -0.13 31.766 0.122 14.61 2.01 14.03
12/16/2020 7:45:00 PM -0.13 31.766 0.122 14.38 2.38 14.03
12/16/2020 8:00:00 PM -0.13 31.766 0.122 14.5 2.56 14.01
12/16/2020 8:15:00 PM -0.13 31.766 0.121 14.66 2.71 14.02
12/16/2020 8:30:00 PM -0.13 31.766 0.121 14.53 2.88 14
12/16/2020 8:45:00 PM -0.13 31.766 0.121 14.91 2.41 13.99
12/16/2020 9:00:00 PM -0.13 31.766 0.121 14.32 2.69 13.98
12/16/2020 9:15:00 PM -0.13 31.766 0.121 14.56 2.43 13.97
12/16/2020 9:30:00 PM -0.13 31.766 0.121 14.85 2.42 13.96
12/16/2020 9:45:00 PM -0.13 31.766 0.121 14.91 2.46 13.96
12/16/2020 10:00:00 PM -0.13 31.766 0.12 14.47 2.49 13.95
12/16/2020 10:15:00 PM -0.13 31.766 0.12 14.83 2.54 13.93
12/16/2020 10:30:00 PM -0.13 31.766 0.119 14.52 2.75 13.93
12/16/2020 10:45:00 PM -0.13 31.766 0.119 14.65 2.4 13.93
12/16/2020 11:00:00 PM -0.13 31.766 0.119 14.86 2.51 13.93
12/16/2020 11:15:00 PM -0.13 31.766 0.119 14.44 2.53 13.91
12/16/2020 11:30:00 PM -0.13 31.766 0.119 14.71 2.38 13.89
12/16/2020 11:45:00 PM -0.13 31.766 0.119 14.58 2.34 13.87
12/17/2020 12:00:00 AM -0.13 31.766 0.119 14.67 2.11 13.86
12/17/2020 12:15:00 AM -0.13 31.766 0.119 14.74 2.52 13.85
12/17/2020 12:30:00 AM -0.13 31.766 0.119 14.4 2.47 13.84
12/17/2020 12:45:00 AM -0.13 31.766 0.119 14.39 2.33 13.84
12/17/2020 1:00:00 AM -0.12 31.784 0.119 14.68 2.77 13.84
12/17/2020 1:15:00 AM -0.12 31.784 0.119 14.81 3.36 13.85
12/17/2020 1:30:00 AM -0.13 31.766 0.119 14.65 2.78 13.83
12/17/2020 1:45:00 AM -0.13 31.766 0.119 14.47 3.33 13.84
12/17/2020 2:00:00 AM -0.13 31.766 0.119 14.68 3.29 13.85
12/17/2020 2:15:00 AM -0.12 31.784 0.118 14.48 2.83 13.85
12/17/2020 2:30:00 AM -0.12 31.784 0.118 14.42 2.9 13.86
12/17/2020 2:45:00 AM -0.12 31.784 0.118 14.43 3.74 13.86
12/17/2020 3:00:00 AM -0.12 31.784 0.119 14.8 3.21 13.88
12/17/2020 3:15:00 AM -0.12 31.784 0.121 14.67 3.1 13.88
12/17/2020 3:30:00 AM -0.12 31.784 0.123 14.4 3.83 13.89
12/17/2020 3:45:00 AM -0.12 31.784 0.126 14.19 3.8 13.9
12/17/2020 4:00:00 AM -0.12 31.784 0.127 14.85 2.95 13.9
12/17/2020 4:15:00 AM -0.12 31.784 0.128 14.76 2.75 13.9
12/17/2020 4:30:00 AM -0.12 31.784 0.128 14.65 2.76 13.92
12/17/2020 4:45:00 AM -0.12 31.784 0.128 14.05 2.81 13.92
12/17/2020 5:00:00 AM -0.12 31.784 0.127 14.52 2.8 13.92
12/17/2020 5:15:00 AM -0.12 31.784 0.127 14.32 2.65 13.92
12/17/2020 5:30:00 AM -0.12 31.784 0.126 14.53 2.59 13.91
12/17/2020 5:45:00 AM -0.12 31.784 0.126 14.5 2.6 13.93
12/17/2020 6:00:00 AM -0.12 31.784 0.126 14.49 2.6 13.93
12/17/2020 6:15:00 AM -0.12 31.784 0.126 14.57 2.54 13.93
12/17/2020 6:30:00 AM -0.12 31.784 0.127 14.93 2.51 13.93
12/17/2020 6:45:00 AM -0.12 31.784 0.126 14.52 3.18 13.94
12/17/2020 7:00:00 AM -0.12 31.784 0.126 14.12 2.38 13.95
12/17/2020 7:15:00 AM -0.12 31.784 0.126 14.44 2.38 13.95
12/17/2020 7:30:00 AM -0.12 31.784 0.125 14.54 2.34 13.96
12/17/2020 7:45:00 AM -0.13 31.766 0.125 14.86 2.32 13.97
12/17/2020 8:00:00 AM -0.12 31.784 0.125 14.76 2.33 13.96
12/17/2020 8:15:00 AM -0.13 31.766 0.125 14.86 2.42 13.97
12/17/2020 8:30:00 AM -0.12 31.784 0.125 14.87 2.31 13.98
12/17/2020 8:45:00 AM -0.12 31.784 0.125 14.32 2.38 13.98
12/17/2020 9:00:00 AM -0.12 31.784 0.125 14.12 2.46 13.98
12/17/2020 9:15:00 AM -0.12 31.784 0.125 14.41 2.64 14
12/17/2020 9:30:00 AM -0.12 31.784 0.125 14.67 3.05 14
12/17/2020 9:45:00 AM -0.12 31.784 0.125 14.16 2.56 13.99
12/17/2020 10:00:00 AM -0.12 31.784 0.125 14.1 2.36 14
12/17/2020 10:15:00 AM -0.12 31.784 0.125 13.88 2.57 14
12/17/2020 10:30:00 AM -0.12 31.784 0.126 14.01 2.61 14.01
12/17/2020 10:45:00 AM -0.12 31.784 0.126 14.15 2.51 14.01
12/17/2020 11:00:00 AM -0.12 31.784 0.126 14.3 2.37 14
12/17/2020 11:15:00 AM -0.12 31.784 0.127 14.23 2.57 14.01
12/17/2020 11:30:00 AM -0.12 31.784 0.127 14.71 2.41 14.01
12/17/2020 11:45:00 AM -0.12 31.784 0.128 15.03 2.71 14.01
12/17/2020 12:00:00 PM -0.12 31.784 0.128 14.78 2.74 14.01
12/17/2020 12:15:00 PM -0.12 31.784 0.129 14.71 2.99 14.02
12/17/2020 12:30:00 PM -0.12 31.784 0.129 14.71 2.73 14.02
12/17/2020 12:45:00 PM -0.12 31.784 0.129 14.33 2.44 14.01
12/17/2020 1:00:00 PM -0.12 31.784 0.129 14.71 2.66 14.02
12/17/2020 1:15:00 PM -0.12 31.784 0.129 14.56 2.34 14.01
12/17/2020 1:30:00 PM -0.12 31.784 0.128 14.47 2.33 14.01
12/17/2020 1:45:00 PM -0.12 31.784 0.128 14.7 2.3 14.01
12/17/2020 2:00:00 PM -0.12 31.784 0.128 14.7 2.38 14.01
12/17/2020 2:15:00 PM -0.12 31.784 0.128 14.4 2.14 14.01
12/17/2020 2:30:00 PM -0.12 31.784 0.128 14.48 2.24 14.02
12/17/2020 2:45:00 PM -0.12 31.784 0.128 14.07 2.21 14.01
12/17/2020 3:00:00 PM -0.12 31.784 0.128 14.71 2.12 14.02
12/17/2020 3:15:00 PM -0.12 31.784 0.128 14.53 2.18 14.02
12/17/2020 3:30:00 PM -0.12 31.784 0.128 14.64 2.12 14.03
12/17/2020 3:45:00 PM -0.12 31.784 0.128 15.06 2.08 14.02
12/17/2020 4:00:00 PM -0.12 31.784 0.128 14.95 2.06 14.03
12/17/2020 4:15:00 PM -0.12 31.784 0.128 14.59 2.05 14.02
12/17/2020 4:30:00 PM -0.12 31.784 0.129 14.65 2.07 14.03
12/17/2020 4:45:00 PM -0.12 31.784 0.129 14.51 2.06 14.03
12/17/2020 5:00:00 PM -0.12 31.784 0.128 14.82 2 14.02
12/17/2020 5:15:00 PM -0.12 31.784 0.128 14.85 2.03 14.02
12/17/2020 5:30:00 PM -0.12 31.784 0.128 14.65 2.03 14.02
12/17/2020 5:45:00 PM -0.12 31.784 0.128 14.57 2.02 14.02
12/17/2020 6:00:00 PM -0.12 31.784 0.127 14.55 2.03 14.03
12/17/2020 6:15:00 PM -0.12 31.784 0.127 14.29 1.96 14.04
12/17/2020 6:30:00 PM -0.12 31.784 0.126 14.77 1.91 14.04
12/17/2020 6:45:00 PM -0.12 31.784 0.126 14.54 1.92 14.04
12/17/2020 7:00:00 PM -0.12 31.784 0.126 13.73 1.9 14.05
12/17/2020 7:15:00 PM -0.12 31.784 0.126 14.13 1.91 14.04
12/17/2020 7:30:00 PM -0.12 31.784 0.126 14.12 1.92 14.05
12/17/2020 7:45:00 PM -0.12 31.784 0.126 14.51 1.98 14.05
12/17/2020 8:00:00 PM -0.12 31.784 0.125 14.24 1.95 14.06
12/17/2020 8:15:00 PM -0.12 31.784 0.125 14.66 1.88 14.06
12/17/2020 8:30:00 PM -0.12 31.784 0.125 14.49 1.97 14.06
12/17/2020 8:45:00 PM -0.12 31.784 0.125 14.66 1.94 14.05
12/17/2020 9:00:00 PM -0.12 31.784 0.125 14.58 1.89 14.06
12/17/2020 9:15:00 PM -0.12 31.784 0.125 14.69 2 14.06
12/17/2020 9:30:00 PM -0.12 31.784 0.125 14.39 1.92 14.06
12/17/2020 9:45:00 PM -0.12 31.784 0.125 14.46 1.93 14.07
12/17/2020 10:00:00 PM -0.12 31.784 0.125 14.62 1.89 14.07
12/17/2020 10:15:00 PM -0.12 31.784 0.125 14.48 1.97 14.06
12/17/2020 10:30:00 PM -0.12 31.784 0.125 14.35 1.95 14.06
12/17/2020 10:45:00 PM -0.12 31.784 0.125 14.35 2.05 14.07
12/17/2020 11:00:00 PM -0.12 31.784 0.125 14.19 1.98 14.07
12/17/2020 11:15:00 PM -0.12 31.784 0.125 14.6 1.99 14.08
12/17/2020 11:30:00 PM -0.12 31.784 0.125 14.36 1.89 14.07
12/17/2020 11:45:00 PM -0.12 31.784 0.124 14.38 1.98 14.07
12/18/2020 12:00:00 AM -0.12 31.784 0.124 14.4 1.98 14.08
12/18/2020 12:15:00 AM -0.12 31.784 0.124 14.47 1.99 14.07
12/18/2020 12:30:00 AM -0.12 31.784 0.124 13.01 2.05 14.07
12/18/2020 12:45:00 AM -0.12 31.784 0.124 14.43 2 14.08
12/18/2020 1:00:00 AM -0.12 31.784 0.124 14.7 2 14.08
12/18/2020 1:15:00 AM -0.12 31.784 0.124 14.59 2.07 14.07
12/18/2020 1:30:00 AM -0.12 31.784 0.124 14.62 2.14 14.07
12/18/2020 1:45:00 AM -0.12 31.784 0.124 14.58 2.06 14.07
12/18/2020 2:00:00 AM -0.12 31.784 0.124 14.48 1.99 14.07
12/18/2020 2:15:00 AM -0.12 31.784 0.124 14.29 1.96 14.07
12/18/2020 2:30:00 AM -0.12 31.784 0.124 14.47 2.01 14.07
12/18/2020 2:45:00 AM -0.12 31.784 0.124 14.62 2.02 14.06
12/18/2020 3:00:00 AM -0.12 31.784 0.124 14.56 2.02 14.06
12/18/2020 3:15:00 AM -0.12 31.784 0.124 14.58 2.01 14.07
12/18/2020 3:30:00 AM -0.12 31.784 0.124 14.11 2.17 14.07
12/18/2020 3:45:00 AM -0.12 31.784 0.124 14.16 2.07 14.05
12/18/2020 4:00:00 AM -0.12 31.784 0.124 14.27 2.09 14.05
12/18/2020 4:15:00 AM -0.12 31.784 0.124 14.3 2.23 14.04
12/18/2020 4:30:00 AM -0.12 31.784 0.124 14.44 2.17 14.04
12/18/2020 4:45:00 AM -0.12 31.784 0.124 14.44 2.21 14.04
12/18/2020 5:00:00 AM -0.12 31.784 0.124 14.05 2.17 14.03
12/18/2020 5:15:00 AM -0.12 31.784 0.124 14.34 2.37 14.02
12/18/2020 5:30:00 AM -0.11 31.802 0.125 14.27 2.46 14.01
12/18/2020 5:45:00 AM -0.11 31.802 0.125 14.14 2.24 14.01
12/18/2020 6:00:00 AM -0.11 31.802 0.125 14.23 2.44 14
12/18/2020 6:15:00 AM -0.1 31.82 0.125 14.18 2.55 13.99
12/18/2020 6:30:00 AM -0.07 31.874 0.125 14.23 2.53 13.97
12/18/2020 6:45:00 AM -0.05 31.91 0.125 14.14 2.45 13.95
12/18/2020 7:00:00 AM -0.02 31.964 0.125 14.27 2.37 13.95
12/18/2020 7:15:00 AM 0.02 32.036 0.125 13.95 2.29 13.93
12/18/2020 7:30:00 AM 0.06 32.108 0.125 14.27 2.3 13.91
12/18/2020 7:45:00 AM 0.12 32.216 0.125 14.11 1.98 13.91
12/18/2020 8:00:00 AM 0.18 32.324 0.125 14.22 2.15 13.9
12/18/2020 8:15:00 AM 0.23 32.414 0.125 14.29 2.05 13.9
12/18/2020 8:30:00 AM 0.3 32.54 0.125 13.38 1.99 13.89
12/18/2020 8:45:00 AM 0.38 32.684 0.125 14.22 1.94 13.87
12/18/2020 9:00:00 AM 0.43 32.774 0.125 14.33 1.74 13.87
12/18/2020 9:15:00 AM 0.48 32.864 0.125 14.11 1.69 13.86
12/18/2020 9:30:00 AM 0.52 32.936 0.125 14.33 1.65 13.86
12/18/2020 9:45:00 AM 0.55 32.99 0.125 14.4 1.58 13.85
12/18/2020 10:00:00 AM 0.6 33.08 0.125 14.13 1.63 13.85
12/18/2020 10:15:00 AM 0.6 33.08 0.125 14.1 1.64 13.85
12/18/2020 10:30:00 AM 0.63 33.134 0.125 14.06 1.69 13.84
12/18/2020 10:45:00 AM 0.68 33.224 0.125 14.19 1.65 13.83
12/18/2020 11:00:00 AM 0.72 33.296 0.126 14.38 1.58 13.82
12/18/2020 11:15:00 AM 0.74 33.332 0.126 14.26 1.64 13.82
12/18/2020 11:30:00 AM 0.76 33.368 0.125 14.21 1.59 13.81
12/18/2020 11:45:00 AM 0.76 33.368 0.125 14.09 1.57 13.81
12/18/2020 12:00:00 PM 0.78 33.404 0.126 13.64 1.61 13.81
12/18/2020 12:15:00 PM 0.78 33.404 0.126 13.82 1.63 13.8
12/18/2020 12:30:00 PM 0.84 33.512 0.126 13.63 1.66 13.79
12/18/2020 12:45:00 PM 0.85 33.53 0.126 13.79 1.55 13.79
12/18/2020 1:00:00 PM 0.85 33.53 0.126 13.75 1.62 13.8
12/18/2020 1:15:00 PM 0.87 33.566 0.126 13.87 1.58 13.79
12/18/2020 1:30:00 PM 0.88 33.584 0.126 13.88 1.58 13.8
12/18/2020 1:45:00 PM 0.89 33.602 0.126 13.97 1.6 13.79
12/18/2020 2:00:00 PM 0.89 33.602 0.126 14.11 1.54 13.79
12/18/2020 2:15:00 PM 0.91 33.638 0.126 13.96 1.52 13.79
12/18/2020 2:30:00 PM 0.92 33.656 0.126 14.23 1.59 13.79
12/18/2020 2:45:00 PM 0.92 33.656 0.126 14.26 1.65 13.79
12/18/2020 3:00:00 PM 0.92 33.656 0.126 14.12 1.56 13.79
12/18/2020 3:15:00 PM 0.93 33.674 0.126 14.11 1.6 13.78
12/18/2020 3:30:00 PM 0.94 33.692 0.126 14.1 1.54 13.79
12/18/2020 3:45:00 PM 0.96 33.728 0.126 14.02 1.56 13.78
12/18/2020 4:00:00 PM 0.93 33.674 0.126 13.96 1.55 13.79
12/18/2020 4:15:00 PM 0.94 33.692 0.126 14.08 1.57 13.78
12/18/2020 4:30:00 PM 0.93 33.674 0.126 13.78 1.52 13.79
12/18/2020 4:45:00 PM 0.92 33.656 0.126 13.72 1.57 13.79
12/18/2020 5:00:00 PM 0.92 33.656 0.126 14.08 1.55 13.79
12/18/2020 5:15:00 PM 0.89 33.602 0.126 14.3 1.55 13.8
12/18/2020 5:30:00 PM 0.87 33.566 0.126 14.29 1.67 13.81
12/18/2020 5:45:00 PM 0.83 33.494 0.127 14.25 1.57 13.82
12/18/2020 6:00:00 PM 0.8 33.44 0.127 14.42 1.58 13.83
12/18/2020 6:15:00 PM 0.77 33.386 0.127 14.26 1.53 13.84
12/18/2020 6:30:00 PM 0.74 33.332 0.127 14.21 1.52 13.86
12/18/2020 6:45:00 PM 0.7 33.26 0.127 14.12 1.58 13.87
12/18/2020 7:00:00 PM 0.66 33.188 0.127 14.36 1.72 13.89
12/18/2020 7:15:00 PM 0.62 33.116 0.127 14.49 1.53 13.92
12/18/2020 7:30:00 PM 0.57 33.026 0.127 14.31 1.54 13.94
12/18/2020 7:45:00 PM 0.52 32.936 0.127 14.43 1.49 13.97
12/18/2020 8:00:00 PM 0.47 32.846 0.127 13.92 1.53 13.99
12/18/2020 8:15:00 PM 0.42 32.756 0.127 14.49 1.54 14.02
12/18/2020 8:30:00 PM 0.38 32.684 0.127 14.39 1.53 14.04
12/18/2020 8:45:00 PM 0.36 32.648 0.127 13.7 1.49 14.05
12/18/2020 9:00:00 PM 0.33 32.594 0.127 13.88 1.54 14.06
12/18/2020 9:15:00 PM 0.32 32.576 0.128 14.2 1.56 14.07
12/18/2020 9:30:00 PM 0.31 32.558 0.128 14.24 1.49 14.07
12/18/2020 9:45:00 PM 0.32 32.576 0.128 14.34 1.49 14.07
12/18/2020 10:00:00 PM 0.32 32.576 0.128 13.85 1.49 14.06
12/18/2020 10:15:00 PM 0.34 32.612 0.128 13.84 1.49 14.06
12/18/2020 10:30:00 PM 0.36 32.648 0.128 13.97 1.49 14.05
12/18/2020 10:45:00 PM 0.38 32.684 0.128 14.06 1.49 14.04
12/18/2020 11:00:00 PM 0.4 32.72 0.128 14.17 1.49 14.03
12/18/2020 11:15:00 PM 0.41 32.738 0.128 13.91 1.47 14.02
12/18/2020 11:30:00 PM 0.44 32.792 0.128 14.1 1.48 14
12/18/2020 11:45:00 PM 0.46 32.828 0.128 14.04 3.2 14
12/19/2020 12:00:00 AM 0.49 32.882 0.127 14.26 1.51 13.98
12/19/2020 12:15:00 AM 0.52 32.936 0.127 14.16 1.51 13.97
12/19/2020 12:30:00 AM 0.55 32.99 0.127 14.35 1.62 13.96
12/19/2020 12:45:00 AM 0.57 33.026 0.127 14.34 1.47 13.95
12/19/2020 1:00:00 AM 0.59 33.062 0.127 14.28 1.49 13.94
12/19/2020 1:15:00 AM 0.6 33.08 0.127 14.09 1.47 13.93
12/19/2020 1:30:00 AM 0.63 33.134 0.127 14.16 1.49 13.92
12/19/2020 1:45:00 AM 0.64 33.152 0.127 13.64 1.51 13.9
12/19/2020 2:00:00 AM 0.66 33.188 0.127 13.79 1.49 13.9
12/19/2020 2:15:00 AM 0.67 33.206 0.127 13.92 1.48 13.89
12/19/2020 2:30:00 AM 0.68 33.224 0.127 14.11 1.51 13.89
12/19/2020 2:45:00 AM 0.69 33.242 0.127 14.41 1.47 13.88
12/19/2020 3:00:00 AM 0.7 33.26 0.127 14.27 1.48 13.88
12/19/2020 3:15:00 AM 0.7 33.26 0.127 14.14 1.49 13.87
12/19/2020 3:30:00 AM 0.71 33.278 0.127 14.21 1.47 13.87
12/19/2020 3:45:00 AM 0.72 33.296 0.127 14.27 1.47 13.87
12/19/2020 4:00:00 AM 0.73 33.314 0.127 14.33 1.5 13.86
12/19/2020 4:15:00 AM 0.74 33.332 0.127 14.34 1.51 13.86
12/19/2020 4:30:00 AM 0.74 33.332 0.127 14.48 1.49 13.85
12/19/2020 4:45:00 AM 0.75 33.35 0.127 14.28 1.53 13.85
12/19/2020 5:00:00 AM 0.76 33.368 0.127 14.57 1.48 13.84
12/19/2020 5:15:00 AM 0.78 33.404 0.127 14.35 1.5 13.83
12/19/2020 5:30:00 AM 0.79 33.422 0.127 14.27 1.54 13.82
12/19/2020 5:45:00 AM 0.8 33.44 0.127 14.36 1.48 13.82
12/19/2020 6:00:00 AM 0.81 33.458 0.127 14.28 1.47 13.82
12/19/2020 6:15:00 AM 0.82 33.476 0.127 14.12 1.49 13.81
12/19/2020 6:30:00 AM 0.83 33.494 0.127 14.31 1.48 13.81
12/19/2020 6:45:00 AM 0.84 33.512 0.127 14.31 1.49 13.8
12/19/2020 7:00:00 AM 0.85 33.53 0.127 14.27 1.46 13.79
12/19/2020 7:15:00 AM 0.86 33.548 0.127 14.16 1.46 13.79
12/19/2020 7:30:00 AM 0.85 33.53 0.127 14.16 1.44 13.79
12/19/2020 7:45:00 AM 0.87 33.566 0.127 14.06 1.52 13.79
12/19/2020 8:00:00 AM 0.87 33.566 0.127 14.23 1.48 13.79
12/19/2020 8:15:00 AM 0.89 33.602 0.127 14.04 1.45 13.79
12/19/2020 8:30:00 AM 0.9 33.62 0.127 13.92 1.46 13.79
12/19/2020 8:45:00 AM 0.91 33.638 0.127 14.18 1.62 13.79
12/19/2020 9:00:00 AM 0.91 33.638 0.127 14.11 1.51 13.79
12/19/2020 9:15:00 AM 0.93 33.674 0.127 13.99 1.53 13.79
12/19/2020 9:30:00 AM 0.96 33.728 0.127 13.79 1.44 13.79
12/19/2020 9:45:00 AM 0.99 33.782 0.127 14.02 1.48 13.78
12/19/2020 10:00:00 AM 1.02 33.836 0.127 13.88 1.47 13.78
12/19/2020 10:15:00 AM 1.04 33.872 0.127 13.74 1.5 13.77
12/19/2020 10:30:00 AM 1.07 33.926 0.127 13.81 1.5 13.76
12/19/2020 10:45:00 AM 1.12 34.016 0.127 13.96 1.53 13.75
12/19/2020 11:00:00 AM 1.14 34.052 0.127 13.93 1.49 13.74
12/19/2020 11:15:00 AM 1.18 34.124 0.127 13.99 1.49 13.72
12/19/2020 11:30:00 AM 1.2 34.16 0.127 13.87 1.49 13.71
12/19/2020 11:45:00 AM 1.25 34.25 0.127 13.96 1.5 13.69
12/19/2020 12:00:00 PM 1.27 34.286 0.127 13.68 1.53 13.67
12/19/2020 12:15:00 PM 1.3 34.34 0.127 13.82 1.48 13.66
12/19/2020 12:30:00 PM 1.33 34.394 0.127 13.62 1.46 13.64
12/19/2020 12:45:00 PM 1.35 34.43 0.127 13.7 1.46 13.63
12/19/2020 1:00:00 PM 1.39 34.502 0.127 13.69 1.47 13.6
12/19/2020 1:15:00 PM 1.43 34.574 0.126 13.68 1.47 13.58
12/19/2020 1:30:00 PM 1.45 34.61 0.126 13.85 1.49 13.56
12/19/2020 1:45:00 PM 1.47 34.646 0.126 13.9 1.49 13.55
12/19/2020 2:00:00 PM 1.48 34.664 0.126 13.69 1.5 13.54
12/19/2020 2:15:00 PM 1.53 34.754 0.126 13.89 1.48 13.53
12/19/2020 2:30:00 PM 1.54 34.772 0.126 13.15 1.49 13.51
12/19/2020 2:45:00 PM 1.55 34.79 0.126 13.69 1.53 13.5
12/19/2020 3:00:00 PM 1.57 34.826 0.126 13.66 1.51 13.5
12/19/2020 3:15:00 PM 1.58 34.844 0.126 13.71 1.51 13.49
12/19/2020 3:30:00 PM 1.59 34.862 0.126 13.7 1.49 13.49
12/19/2020 3:45:00 PM 1.59 34.862 0.126 13.75 1.52 13.48
12/19/2020 4:00:00 PM 1.6 34.88 0.126 13.97 1.51 13.48
12/19/2020 4:15:00 PM 1.6 34.88 0.126 13.88 1.51 13.48
12/19/2020 4:30:00 PM 1.59 34.862 0.126 13.92 1.52 13.47
12/19/2020 4:45:00 PM 1.59 34.862 0.126 13.88 1.5 13.47
12/19/2020 5:00:00 PM 1.58 34.844 0.126 13.83 1.51 13.47
12/19/2020 5:15:00 PM 1.55 34.79 0.126 13.93 1.5 13.47
12/19/2020 5:30:00 PM 1.55 34.79 0.126 13.8 1.49 13.47
12/19/2020 5:45:00 PM 1.55 34.79 0.126 13.86 1.46 13.47
12/19/2020 6:00:00 PM 1.53 34.754 0.126 13.58 1.51 13.47
12/19/2020 6:15:00 PM 1.52 34.736 0.126 13.64 1.46 13.48
12/19/2020 6:30:00 PM 1.5 34.7 0.126 13.45 1.54 13.48
12/19/2020 6:45:00 PM 1.5 34.7 0.126 13.83 1.51 13.48
12/19/2020 7:00:00 PM 1.5 34.7 0.126 13.55 1.53 13.48
12/19/2020 7:15:00 PM 1.5 34.7 0.126 13.52 1.49 13.48
12/19/2020 7:30:00 PM 1.51 34.718 0.126 13.65 1.52 13.48
12/19/2020 7:45:00 PM 1.52 34.736 0.126 13.72 1.54 13.48
12/19/2020 8:00:00 PM 1.52 34.736 0.126 13.38 1.49 13.47
12/19/2020 8:15:00 PM 1.52 34.736 0.126 13.53 1.51 13.47
12/19/2020 8:30:00 PM 1.51 34.718 0.126 13.64 1.52 13.47
12/19/2020 8:45:00 PM 1.52 34.736 0.126 13.74 1.56 13.47
12/19/2020 9:00:00 PM 1.52 34.736 0.126 13.78 1.5 13.46
12/19/2020 9:15:00 PM 1.52 34.736 0.126 14.12 1.49 13.46
12/19/2020 9:30:00 PM 1.53 34.754 0.126 14.07 1.5 13.46
12/19/2020 9:45:00 PM 1.53 34.754 0.126 13.8 1.46 13.46
12/19/2020 10:00:00 PM 1.53 34.754 0.126 13.71 1.5 13.46
12/19/2020 10:15:00 PM 1.54 34.772 0.126 13.73 1.54 13.45
12/19/2020 10:30:00 PM 1.53 34.754 0.126 13.94 1.49 13.45
12/19/2020 10:45:00 PM 1.53 34.754 0.126 13.69 1.44 13.44
12/19/2020 11:00:00 PM 1.54 34.772 0.126 13.65 1.5 13.44
12/19/2020 11:15:00 PM 1.51 34.718 0.126 13.8 1.5 13.45
12/19/2020 11:30:00 PM 1.51 34.718 0.126 13.75 1.49 13.45
12/19/2020 11:45:00 PM 1.52 34.736 0.126 13.81 1.49 13.45
12/20/2020 12:00:00 AM 1.51 34.718 0.126 13.69 1.56 13.45
12/20/2020 12:15:00 AM 1.5 34.7 0.126 13.4 1.51 13.45
12/20/2020 12:30:00 AM 1.51 34.718 0.126 13.44 1.48 13.45
12/20/2020 12:45:00 AM 1.51 34.718 0.126 13.57 1.51 13.44
12/20/2020 1:00:00 AM 1.5 34.7 0.126 13.39 1.5 13.44
12/20/2020 1:15:00 AM 1.51 34.718 0.126 13.79 1.56 13.44
12/20/2020 1:30:00 AM 1.51 34.718 0.126 13.63 1.49 13.44
12/20/2020 1:45:00 AM 1.52 34.736 0.126 13.67 1.49 13.44
12/20/2020 2:00:00 AM 1.53 34.754 0.126 13.76 1.47 13.43
12/20/2020 2:15:00 AM 1.54 34.772 0.126 13.72 1.51 13.43
12/20/2020 2:30:00 AM 1.54 34.772 0.126 13.72 1.48 13.43
12/20/2020 2:45:00 AM 1.55 34.79 0.126 13.57 1.48 13.43
12/20/2020 3:00:00 AM 1.56 34.808 0.126 13.82 1.51 13.42
12/20/2020 3:15:00 AM 1.57 34.826 0.126 13.8 1.55 13.42
12/20/2020 3:30:00 AM 1.58 34.844 0.126 13.85 1.49 13.42
12/20/2020 3:45:00 AM 1.58 34.844 0.126 13.83 1.51 13.42
12/20/2020 4:00:00 AM 1.56 34.808 0.126 13.61 1.47 13.41
12/20/2020 4:15:00 AM 1.49 34.682 0.126 13.31 1.48 13.41
12/20/2020 4:30:00 AM 1.45 34.61 0.126 13.26 1.47 13.43
12/20/2020 4:45:00 AM 1.44 34.592 0.126 13.35 1.48 13.44
12/20/2020 5:00:00 AM 1.44 34.592 0.126 13.73 1.51 13.44
12/20/2020 5:15:00 AM 1.44 34.592 0.126 13.58 1.49 13.44
12/20/2020 5:30:00 AM 1.43 34.574 0.126 13.34 1.49 13.45
12/20/2020 5:45:00 AM 1.44 34.592 0.126 13.52 1.53 13.45
12/20/2020 6:00:00 AM 1.45 34.61 0.126 13.68 1.45 13.44
12/20/2020 6:15:00 AM 1.46 34.628 0.126 13.5 1.48 13.44
12/20/2020 6:30:00 AM 1.47 34.646 0.126 13.52 1.5 13.44
12/20/2020 6:45:00 AM 1.48 34.664 0.126 13.85 1.53 13.43
12/20/2020 7:00:00 AM 1.49 34.682 0.126 13.74 1.48 13.43
12/20/2020 7:15:00 AM 1.48 34.664 0.126 13.68 1.49 13.42
12/20/2020 7:30:00 AM 1.46 34.628 0.126 14.18 1.48 13.42
12/20/2020 7:45:00 AM 1.43 34.574 0.126 14.09 1.48 13.43
12/20/2020 8:00:00 AM 1.4 34.52 0.126 13.91 1.47 13.43
12/20/2020 8:15:00 AM 1.35 34.43 0.126 13.77 1.47 13.45
12/20/2020 8:30:00 AM 1.31 34.358 0.125 13.56 1.47 13.46
12/20/2020 8:45:00 AM 1.27 34.286 0.125 13.63 1.7 13.48
12/20/2020 9:00:00 AM 1.27 34.286 0.125 13.65 1.52 13.49
12/20/2020 9:15:00 AM 1.27 34.286 0.125 13.9 1.53 13.5
12/20/2020 9:30:00 AM 1.27 34.286 0.125 13.7 1.52 13.51
12/20/2020 9:45:00 AM 1.3 34.34 0.125 13.65 1.54 13.5
12/20/2020 10:00:00 AM 1.33 34.394 0.125 13.94 1.53 13.49
12/20/2020 10:15:00 AM 1.36 34.448 0.125 14.03 1.48 13.48
12/20/2020 10:30:00 AM 1.39 34.502 0.125 13.96 1.5 13.47
12/20/2020 10:45:00 AM 1.44 34.592 0.125 14.15 1.49 13.45
12/20/2020 11:00:00 AM 1.48 34.664 0.125 13.61 1.49 13.43
12/20/2020 11:15:00 AM 1.52 34.736 0.125 13.47 1.51 13.42
12/20/2020 11:30:00 AM 1.56 34.808 0.125 13.76 1.5 13.41
12/20/2020 11:45:00 AM 1.6 34.88 0.125 13.56 1.5 13.39
12/20/2020 12:00:00 PM 1.63 34.934 0.125 13.53 1.5 13.37
12/20/2020 12:15:00 PM 1.66 34.988 0.125 13.53 1.52 13.37
12/20/2020 12:30:00 PM 1.69 35.042 0.125 13.83 1.52 13.36
12/20/2020 12:45:00 PM 1.69 35.042 0.125 13.65 1.51 13.36
12/20/2020 1:00:00 PM 1.71 35.078 0.125 13.86 1.7 13.35
12/20/2020 1:15:00 PM 1.74 35.132 0.125 13.84 1.49 13.34
12/20/2020 1:30:00 PM 1.75 35.15 0.125 13.71 1.51 13.33
12/20/2020 1:45:00 PM 1.77 35.186 0.125 13.81 1.46 13.32
12/20/2020 2:00:00 PM 1.79 35.222 0.125 13.62 1.48 13.31
12/20/2020 2:15:00 PM 1.81 35.258 0.125 13.91 1.52 13.3
12/20/2020 2:30:00 PM 1.82 35.276 0.125 13.8 1.51 13.29
12/20/2020 2:45:00 PM 1.83 35.294 0.125 13.72 1.49 13.29
12/20/2020 3:00:00 PM 1.86 35.348 0.125 13.64 1.52 13.27
12/20/2020 3:15:00 PM 1.88 35.384 0.125 13.59 1.51 13.26
12/20/2020 3:30:00 PM 1.88 35.384 0.125 13.77 1.54 13.25
12/20/2020 3:45:00 PM 1.91 35.438 0.125 13.74 1.56 13.24
12/20/2020 4:00:00 PM 1.91 35.438 0.125 13.59 1.5 13.24
12/20/2020 4:15:00 PM 1.94 35.492 0.125 13.73 1.52 13.22
12/20/2020 4:30:00 PM 1.95 35.51 0.125 13.61 1.52 13.21
12/20/2020 4:45:00 PM 1.96 35.528 0.125 13.59 1.48 13.21
12/20/2020 5:00:00 PM 1.96 35.528 0.125 13.6 1.57 13.21
12/20/2020 5:15:00 PM 1.98 35.564 0.125 13.67 1.53 13.2
12/20/2020 5:30:00 PM 1.99 35.582 0.125 13.68 1.47 13.2
12/20/2020 5:45:00 PM 1.98 35.564 0.124 13.73 1.48 13.19
12/20/2020 6:00:00 PM 1.98 35.564 0.124 13.6 1.51 13.19
12/20/2020 6:15:00 PM 1.99 35.582 0.124 13.68 1.53 13.18
12/20/2020 6:30:00 PM 2.01 35.618 0.124 13.59 1.55 13.18
12/20/2020 6:45:00 PM 2.01 35.618 0.124 13.54 1.55 13.18
12/20/2020 7:00:00 PM 2.02 35.636 0.124 13.45 1.5 13.17
12/20/2020 7:15:00 PM 2.03 35.654 0.124 13.76 1.51 13.16
12/20/2020 7:30:00 PM 2.04 35.672 0.124 13.42 1.5 13.16
12/20/2020 7:45:00 PM 2.05 35.69 0.124 13.53 1.5 13.15
12/20/2020 8:00:00 PM 2.06 35.708 0.125 13.34 1.49 13.15
12/20/2020 8:15:00 PM 2.07 35.726 0.125 13.47 1.5 13.14
12/20/2020 8:30:00 PM 2.08 35.744 0.124 13.43 1.51 13.14
12/20/2020 8:45:00 PM 2.08 35.744 0.124 13.29 1.51 13.14
12/20/2020 9:00:00 PM 2.1 35.78 0.125 13.45 1.53 13.14
12/20/2020 9:15:00 PM 2.11 35.798 0.125 13.49 1.55 13.13
12/20/2020 9:30:00 PM 2.12 35.816 0.125 12.94 1.54 13.13
12/20/2020 9:45:00 PM 2.13 35.834 0.124 13.48 1.55 13.12
12/20/2020 10:00:00 PM 2.14 35.852 0.124 13.54 1.52 13.12
12/20/2020 10:15:00 PM 2.13 35.834 0.124 13.38 1.51 13.12
12/20/2020 10:30:00 PM 2.13 35.834 0.124 13.64 1.61 13.11
12/20/2020 10:45:00 PM 2.15 35.87 0.124 13.43 1.54 13.11
12/20/2020 11:00:00 PM 2.16 35.888 0.124 13.48 1.55 13.11
12/20/2020 11:15:00 PM 2.18 35.924 0.124 13.19 1.54 13.11
12/20/2020 11:30:00 PM 2.19 35.942 0.124 13.42 1.67 13.1
12/20/2020 11:45:00 PM 2.2 35.96 0.124 13.41 1.57 13.1
12/21/2020 12:00:00 AM 2.2 35.96 0.124 13.37 1.5 13.1
12/21/2020 12:15:00 AM 2.21 35.978 0.124 13.33 1.5 13.09
12/21/2020 12:30:00 AM 2.21 35.978 0.124 13.32 1.56 13.09
12/21/2020 12:45:00 AM 2.22 35.996 0.124 12.64 1.46 13.09
12/21/2020 1:00:00 AM 2.22 35.996 0.124 12.73 1.54 13.09
12/21/2020 1:15:00 AM 2.24 36.032 0.124 13.15 1.59 13.08
12/21/2020 1:30:00 AM 2.25 36.05 0.124 13.27 1.49 13.08
12/21/2020 1:45:00 AM 2.26 36.068 0.124 13.21 1.49 13.08
12/21/2020 2:00:00 AM 2.27 36.086 0.124 13.13 1.5 13.08
12/21/2020 2:15:00 AM 2.27 36.086 0.124 13.31 1.48 13.07
12/21/2020 2:30:00 AM 2.28 36.104 0.124 13.38 1.53 13.07
12/21/2020 2:45:00 AM 2.29 36.122 0.124 13.3 1.5 13.07
12/21/2020 3:00:00 AM 2.29 36.122 0.124 13.33 1.52 13.07
12/21/2020 3:15:00 AM 2.29 36.122 0.124 13.21 1.53 13.07
12/21/2020 3:30:00 AM 2.26 36.068 0.124 13.34 1.53 13.08
12/21/2020 3:45:00 AM 2.27 36.086 0.124 13.23 1.55 13.07
12/21/2020 4:00:00 AM 2.29 36.122 0.124 13.45 1.55 13.07
12/21/2020 4:15:00 AM 2.3 36.14 0.124 13.5 1.5 13.06
12/21/2020 4:30:00 AM 2.31 36.158 0.124 13.15 1.51 13.05
12/21/2020 4:45:00 AM 2.31 36.158 0.124 13.11 1.5 13.05
12/21/2020 5:00:00 AM 2.32 36.176 0.124 13.23 1.55 13.05
12/21/2020 5:15:00 AM 2.31 36.158 0.124 13.57 1.49 13.05
12/21/2020 5:30:00 AM 2.31 36.158 0.124 13.2 1.5 13.05
12/21/2020 5:45:00 AM 2.32 36.176 0.124 13.06 1.57 13.05
12/21/2020 6:00:00 AM 2.32 36.176 0.124 13.22 1.53 13.05
12/21/2020 6:15:00 AM 2.33 36.194 0.124 13.41 1.52 13.04
12/21/2020 6:30:00 AM 2.34 36.212 0.124 13.15 1.49 13.04
12/21/2020 6:45:00 AM 2.34 36.212 0.124 12.66 1.47 13.04
12/21/2020 7:00:00 AM 2.34 36.212 0.124 13.57 1.5 13.05
12/21/2020 7:15:00 AM 2.34 36.212 0.124 13.4 1.52 13.04
12/21/2020 7:30:00 AM 2.34 36.212 0.124 13.13 1.51 13.04
12/21/2020 7:45:00 AM 2.34 36.212 0.124 13.21 1.49 13.04
12/21/2020 8:00:00 AM 2.34 36.212 0.124 12.84 1.5 13.04
12/21/2020 8:15:00 AM 2.35 36.23 0.124 12.91 1.52 13.04
12/21/2020 8:30:00 AM 2.35 36.23 0.124 11.67 1.51 13.05
12/21/2020 8:45:00 AM 2.37 36.266 0.124 12.67 1.51 13.05
12/21/2020 9:00:00 AM 2.4 36.32 0.124 12.98 1.51 13.05
12/21/2020 9:15:00 AM 2.43 36.374 0.124 13.63 1.52 13.04
12/21/2020 9:30:00 AM 2.46 36.428 0.124 12.96 1.56 13.03
12/21/2020 9:45:00 AM 2.49 36.482 0.124 12.89 1.48 13.02
12/21/2020 10:00:00 AM 2.52 36.536 0.124 13.07 1.5 13
12/21/2020 10:15:00 AM 2.56 36.608 0.124 13.09 1.58 12.98
12/21/2020 10:30:00 AM 2.58 36.644 0.124 13.02 1.56 12.97
12/21/2020 10:45:00 AM 2.62 36.716 0.124 13.08 1.54 12.95
12/21/2020 11:00:00 AM 2.65 36.77 0.124 12.95 1.56 12.93
12/21/2020 11:15:00 AM 2.68 36.824 0.124 13.16 1.53 12.92
12/21/2020 11:30:00 AM 2.71 36.878 0.124 13.3 1.49 12.9
12/21/2020 11:45:00 AM 2.73 36.914 0.124 13.28 1.53 12.9
12/21/2020 12:00:00 PM 2.74 36.932 0.124 13.55 1.55 12.88
12/21/2020 12:15:00 PM 2.77 36.986 0.124 12.98 1.5 12.88
12/21/2020 12:30:00 PM 2.81 37.058 0.124 13.04 1.58 12.86
12/21/2020 12:45:00 PM 2.83 37.094 0.124 13.06 1.51 12.85
12/21/2020 1:00:00 PM 2.87 37.166 0.124 13.31 1.55 12.84
12/21/2020 1:15:00 PM 2.9 37.22 0.124 13.4 1.56 12.84
12/21/2020 1:30:00 PM 2.92 37.256 0.124 13.32 1.52 12.82
12/21/2020 1:45:00 PM 2.94 37.292 0.124 13.36 1.53 12.82
12/21/2020 2:00:00 PM 2.94 37.292 0.124 13.28 1.55 12.81
12/21/2020 2:15:00 PM 2.95 37.31 0.124 13.3 1.57 12.8
12/21/2020 2:30:00 PM 2.93 37.274 0.124 13 1.69 12.8
12/21/2020 2:45:00 PM 2.92 37.256 0.124 12.82 1.57 12.8
12/21/2020 3:00:00 PM 2.93 37.274 0.124 12.79 1.53 12.8
12/21/2020 3:15:00 PM 2.92 37.256 0.124 13.01 1.55 12.79
12/21/2020 3:30:00 PM 2.9 37.22 0.124 13.07 1.55 12.79
12/21/2020 3:45:00 PM 2.89 37.202 0.124 12.47 1.55 12.8
12/21/2020 4:00:00 PM 2.88 37.184 0.124 13.33 1.55 12.8
12/21/2020 4:15:00 PM 2.87 37.166 0.124 13.46 1.55 12.8
12/21/2020 4:30:00 PM 2.85 37.13 0.124 13.06 1.57 12.8
12/21/2020 4:45:00 PM 2.84 37.112 0.124 13.39 1.56 12.8
12/21/2020 5:00:00 PM 2.83 37.094 0.124 13.18 1.56 12.81
12/21/2020 5:15:00 PM 2.81 37.058 0.124 12.94 1.54 12.8
12/21/2020 5:30:00 PM 2.8 37.04 0.124 12.97 1.54 12.81
12/21/2020 5:45:00 PM 2.8 37.04 0.124 12.87 1.57 12.81
12/21/2020 6:00:00 PM 2.79 37.022 0.124 13.3 1.53 12.81
12/21/2020 6:15:00 PM 2.79 37.022 0.124 13.25 1.55 12.81
12/21/2020 6:30:00 PM 2.79 37.022 0.124 13.27 1.55 12.82
12/21/2020 6:45:00 PM 2.79 37.022 0.124 13.11 1.56 12.81
12/21/2020 7:00:00 PM 2.79 37.022 0.124 13.09 1.54 12.81
12/21/2020 7:15:00 PM 2.79 37.022 0.124 12.99 1.61 12.81
12/21/2020 7:30:00 PM 2.79 37.022 0.124 13.16 1.55 12.82
12/21/2020 7:45:00 PM 2.78 37.004 0.124 13.18 1.57 12.81
12/21/2020 8:00:00 PM 2.77 36.986 0.124 13.08 1.52 12.82
12/21/2020 8:15:00 PM 2.77 36.986 0.124 13.38 1.65 12.82
12/21/2020 8:30:00 PM 2.77 36.986 0.124 12.99 1.55 12.82
12/21/2020 8:45:00 PM 2.76 36.968 0.124 12.34 1.59 12.82
12/21/2020 9:00:00 PM 2.76 36.968 0.124 12.99 1.55 12.82
12/21/2020 9:15:00 PM 2.76 36.968 0.124 12.79 1.56 12.82
12/21/2020 9:30:00 PM 2.77 36.986 0.124 13.21 1.53 12.81
12/21/2020 9:45:00 PM 2.76 36.968 0.124 13.37 1.59 12.81
12/21/2020 10:00:00 PM 2.77 36.986 0.124 13.59 1.56 12.81
12/21/2020 10:15:00 PM 2.77 36.986 0.124 13.07 1.57 12.81
12/21/2020 10:30:00 PM 2.78 37.004 0.124 13.41 1.58 12.81
12/21/2020 10:45:00 PM 2.78 37.004 0.124 13.07 1.52 12.81
12/21/2020 11:00:00 PM 2.78 37.004 0.124 13.09 1.52 12.81
12/21/2020 11:15:00 PM 2.79 37.022 0.124 12.89 1.61 12.8
12/21/2020 11:30:00 PM 2.78 37.004 0.124 13.27 1.55 12.8
12/21/2020 11:45:00 PM 2.76 36.968 0.124 12.77 1.56 12.8
12/22/2020 12:00:00 AM 2.74 36.932 0.124 12.53 1.56 12.81
12/22/2020 12:15:00 AM 2.74 36.932 0.124 12.72 1.55 12.81
12/22/2020 12:30:00 AM 2.73 36.914 0.124 13.06 1.58 12.81
12/22/2020 12:45:00 AM 2.73 36.914 0.124 12.97 1.57 12.81
12/22/2020 1:00:00 AM 2.73 36.914 0.124 12.82 1.59 12.81
12/22/2020 1:15:00 AM 2.72 36.896 0.124 12.65 1.55 12.81
12/22/2020 1:30:00 AM 2.7 36.86 0.124 13.33 1.6 12.81
12/22/2020 1:45:00 AM 2.67 36.806 0.124 13.08 1.57 12.82
12/22/2020 2:00:00 AM 2.63 36.734 0.124 13.22 1.57 12.83
12/22/2020 2:15:00 AM 2.6 36.68 0.124 13.41 1.57 12.84
12/22/2020 2:30:00 AM 2.59 36.662 0.125 13.26 1.58 12.85
12/22/2020 2:45:00 AM 2.59 36.662 0.125 13.03 1.58 12.86
12/22/2020 3:00:00 AM 2.58 36.644 0.125 13.45 1.55 12.86
12/22/2020 3:15:00 AM 2.57 36.626 0.125 13.5 1.6 12.87
12/22/2020 3:30:00 AM 2.57 36.626 0.125 13.28 1.56 12.87
12/22/2020 3:45:00 AM 2.58 36.644 0.125 13.21 1.55 12.87
12/22/2020 4:00:00 AM 2.59 36.662 0.125 13.05 1.6 12.86
12/22/2020 4:15:00 AM 2.59 36.662 0.125 12.97 1.56 12.87
12/22/2020 4:30:00 AM 2.6 36.68 0.125 12.77 1.54 12.87
12/22/2020 4:45:00 AM 2.61 36.698 0.125 13.19 1.63 12.87
12/22/2020 5:00:00 AM 2.62 36.716 0.125 13.1 1.52 12.87
12/22/2020 5:15:00 AM 2.63 36.734 0.126 12.68 1.53 12.87
12/22/2020 5:30:00 AM 2.64 36.752 0.126 13.03 1.54 12.87
12/22/2020 5:45:00 AM 2.64 36.752 0.126 12.93 1.51 12.87
12/22/2020 6:00:00 AM 2.65 36.77 0.126 12.63 1.56 12.87
12/22/2020 6:15:00 AM 2.66 36.788 0.126 13.18 1.52 12.87
12/22/2020 6:30:00 AM 2.66 36.788 0.126 12.96 1.54 12.88
12/22/2020 6:45:00 AM 2.66 36.788 0.126 13.06 1.56 12.88
12/22/2020 7:00:00 AM 2.66 36.788 0.126 12.85 1.55 12.88
12/22/2020 7:15:00 AM 2.66 36.788 0.126 13.25 1.55 12.88
12/22/2020 7:30:00 AM 2.65 36.77 0.126 12.85 1.55 12.89
12/22/2020 7:45:00 AM 2.64 36.752 0.126 13.2 1.58 12.89
12/22/2020 8:00:00 AM 2.64 36.752 0.127 13.15 1.56 12.9
12/22/2020 8:15:00 AM 2.64 36.752 0.127 12.8 1.58 12.91
12/22/2020 8:30:00 AM 2.64 36.752 0.128 13.08 1.52 12.92
12/22/2020 8:45:00 AM 2.65 36.77 0.128 12.72 1.54 12.92
12/22/2020 9:00:00 AM 2.66 36.788 0.129 12.32 1.55 12.94
12/22/2020 9:15:00 AM 2.67 36.806 0.129 12.37 1.56 12.95
12/22/2020 9:30:00 AM 2.69 36.842 0.13 12.57 1.53 12.95
12/22/2020 9:45:00 AM 2.72 36.896 0.13 12.44 1.54 12.95
12/22/2020 10:00:00 AM 2.75 36.95 0.13 12.49 1.55 12.95
12/22/2020 10:15:00 AM 2.75 36.95 0.13 12.45 1.52 12.95
12/22/2020 10:30:00 AM 2.76 36.968 0.131 13.09 1.53 12.95
12/22/2020 10:45:00 AM 2.78 37.004 0.131 13.08 1.54 12.96
12/22/2020 11:00:00 AM 2.81 37.058 0.131 12.65 1.55 12.95
12/22/2020 11:15:00 AM 2.84 37.112 0.131 12.67 1.52 12.95
12/22/2020 11:30:00 AM 2.85 37.13 0.132 11.86 1.53 12.95
12/22/2020 11:45:00 AM 2.88 37.184 0.132 12.58 1.57 12.95
12/22/2020 12:00:00 PM 2.9 37.22 0.132 12.86 1.54 12.94
12/22/2020 12:15:00 PM 2.93 37.274 0.132 12.44 1.53 12.94
12/22/2020 12:30:00 PM 2.95 37.31 0.133 12.97 1.54 12.93
12/22/2020 12:45:00 PM 2.96 37.328 0.133 12.73 1.54 12.92
12/22/2020 1:00:00 PM 2.96 37.328 0.133 12.58 1.54 12.92
12/22/2020 1:15:00 PM 2.95 37.31 0.133 12.47 1.56 12.92
12/22/2020 1:30:00 PM 2.94 37.292 0.134 12.34 1.54 12.92
12/22/2020 1:45:00 PM 2.9 37.22 0.134 12.76 1.56 12.92
12/22/2020 2:00:00 PM 2.83 37.094 0.134 12.63 1.56 12.95
12/22/2020 2:15:00 PM 2.8 37.04 0.134 12.66 1.55 12.97
12/22/2020 2:30:00 PM 2.73 36.914 0.134 12.8 1.53 12.97
12/22/2020 2:45:00 PM 2.64 36.752 0.134 12.42 1.61 13
12/22/2020 3:00:00 PM 2.61 36.698 0.134 12.76 1.57 13.02
12/22/2020 3:15:00 PM 2.62 36.716 0.135 12.74 1.6 13.03
12/22/2020 3:30:00 PM 2.62 36.716 0.135 12.72 1.62 13.04
12/22/2020 3:45:00 PM 2.62 36.716 0.135 12.79 1.59 13.04
12/22/2020 4:00:00 PM 2.63 36.734 0.135 12.93 1.62 13.04
12/22/2020 4:15:00 PM 2.64 36.752 0.135 12.54 1.6 13.04
12/22/2020 4:30:00 PM 2.64 36.752 0.135 12.32 1.58 13.03
12/22/2020 4:45:00 PM 2.65 36.77 0.136 13.01 1.58 13.03
12/22/2020 5:00:00 PM 2.65 36.77 0.136 12.6 1.59 13.03
12/22/2020 5:15:00 PM 2.65 36.77 0.136 12.27 1.58 13.03
12/22/2020 5:30:00 PM 2.65 36.77 0.136 12.96 1.56 13.03
12/22/2020 5:45:00 PM 2.65 36.77 0.136 13.22 1.56 13.04
12/22/2020 6:00:00 PM 2.64 36.752 0.136 12.6 1.58 13.04
12/22/2020 6:15:00 PM 2.63 36.734 0.136 12.61 1.52 13.05
12/22/2020 6:30:00 PM 2.61 36.698 0.136 13.05 1.54 13.06
12/22/2020 6:45:00 PM 2.59 36.662 0.136 12.9 1.59 13.07
12/22/2020 7:00:00 PM 2.58 36.644 0.137 12.84 1.56 13.07
12/22/2020 7:15:00 PM 2.57 36.626 0.137 12.99 1.6 13.08
12/22/2020 7:30:00 PM 2.56 36.608 0.137 12.73 1.56 13.09
12/22/2020 7:45:00 PM 2.56 36.608 0.137 12.57 1.56 13.1
12/22/2020 8:00:00 PM 2.55 36.59 0.137 12.82 1.52 13.1
12/22/2020 8:15:00 PM 2.55 36.59 0.137 13.09 1.54 13.11
12/22/2020 8:30:00 PM 2.55 36.59 0.137 12.52 1.5 13.11
12/22/2020 8:45:00 PM 2.56 36.608 0.138 12.48 1.53 13.11
12/22/2020 9:00:00 PM 2.57 36.626 0.138 12.55 1.54 13.1
12/22/2020 9:15:00 PM 2.57 36.626 0.139 13.11 1.5 13.1
12/22/2020 9:30:00 PM 2.58 36.644 0.14 12.56 1.54 13.1
12/22/2020 9:45:00 PM 2.58 36.644 0.14 12.28 1.52 13.1
12/22/2020 10:00:00 PM 2.59 36.662 0.141 12.83 1.54 13.1
12/22/2020 10:15:00 PM 2.59 36.662 0.142 12.62 1.64 13.1
12/22/2020 10:30:00 PM 2.6 36.68 0.142 12.14 1.55 13.09
12/22/2020 10:45:00 PM 2.6 36.68 0.142 12.87 1.51 13.09
12/22/2020 11:00:00 PM 2.6 36.68 0.143 12.67 1.59 13.1
12/22/2020 11:15:00 PM 2.6 36.68 0.143 12.95 1.55 13.1
12/22/2020 11:30:00 PM 2.61 36.698 0.143 12.75 1.52 13.09
12/22/2020 11:45:00 PM 2.61 36.698 0.144 12.89 1.52 13.09
12/23/2020 12:00:00 AM 2.62 36.716 0.144 12.52 1.52 13.09
12/23/2020 12:15:00 AM 2.62 36.716 0.144 12.77 1.53 13.09
12/23/2020 12:30:00 AM 2.62 36.716 0.144 12.3 1.52 13.09
12/23/2020 12:45:00 AM 2.63 36.734 0.144 13.08 1.49 13.09
12/23/2020 1:00:00 AM 2.63 36.734 0.144 12.32 1.52 13.09
12/23/2020 1:15:00 AM 2.62 36.716 0.144 12.46 1.51 13.09
12/23/2020 1:30:00 AM 2.6 36.68 0.145 12.68 1.66 13.09
12/23/2020 1:45:00 AM 2.57 36.626 0.145 12.03 1.5 13.11
12/23/2020 2:00:00 AM 2.53 36.554 0.145 12.31 1.5 13.12
12/23/2020 2:15:00 AM 2.5 36.5 0.146 12.34 1.53 13.13
12/23/2020 2:30:00 AM 2.47 36.446 0.146 12.34 1.52 13.16
12/23/2020 2:45:00 AM 2.45 36.41 0.146 13.05 1.51 13.17
12/23/2020 3:00:00 AM 2.41 36.338 0.147 12.3 1.55 13.19
12/23/2020 3:15:00 AM 2.37 36.266 0.147 12 1.52 13.21
12/23/2020 3:30:00 AM 2.33 36.194 0.147 12.27 1.52 13.22
12/23/2020 3:45:00 AM 2.29 36.122 0.147 13.16 1.52 13.24
12/23/2020 4:00:00 AM 2.26 36.068 0.147 12.84 1.53 13.25
12/23/2020 4:15:00 AM 2.21 35.978 0.148 13.15 1.49 13.27
12/23/2020 4:30:00 AM 2.17 35.906 0.148 12.77 1.55 13.29
12/23/2020 4:45:00 AM 2.14 35.852 0.148 12.88 1.54 13.3
12/23/2020 5:00:00 AM 2.1 35.78 0.148 12.99 1.56 13.31
12/23/2020 5:15:00 AM 2.05 35.69 0.148 12.89 1.53 13.33
12/23/2020 5:30:00 AM 2.01 35.618 0.148 12.57 1.51 13.34
12/23/2020 5:45:00 AM 1.96 35.528 0.148 12.69 1.53 13.35
12/23/2020 6:00:00 AM 1.92 35.456 0.148 12.06 1.54 13.37
12/23/2020 6:15:00 AM 1.88 35.384 0.148 12.28 1.51 13.38
12/23/2020 6:30:00 AM 1.84 35.312 0.148 12.29 1.52 13.39
12/23/2020 6:45:00 AM 1.81 35.258 0.148 12.51 1.54 13.41
12/23/2020 7:00:00 AM 1.78 35.204 0.148 12.64 1.51 13.42
12/23/2020 7:15:00 AM 1.76 35.168 0.148 12.63 1.51 13.43
12/23/2020 7:30:00 AM 1.74 35.132 0.147 12.62 1.52 13.44
12/23/2020 7:45:00 AM 1.74 35.132 0.147 12.55 1.53 13.44
12/23/2020 8:00:00 AM 1.75 35.15 0.147 12.8 1.55 13.45
12/23/2020 8:15:00 AM 1.76 35.168 0.147 12.46 1.5 13.45
12/23/2020 8:30:00 AM 1.8 35.24 0.147 12.34 1.49 13.44
12/23/2020 8:45:00 AM 1.83 35.294 0.147 12.8 1.53 13.43
12/23/2020 9:00:00 AM 1.87 35.366 0.147 12.4 1.53 13.42
12/23/2020 9:15:00 AM 1.91 35.438 0.146 12.29 1.52 13.4
12/23/2020 9:30:00 AM 1.94 35.492 0.146 11.91 1.51 13.39
12/23/2020 9:45:00 AM 1.98 35.564 0.146 12.22 1.55 13.38
12/23/2020 10:00:00 AM 2.03 35.654 0.146 12.36 1.57 13.37
12/23/2020 10:15:00 AM 2.09 35.762 0.146 12.16 1.52 13.36
12/23/2020 10:30:00 AM 2.15 35.87 0.146 12.4 1.57 13.34
12/23/2020 10:45:00 AM 2.22 35.996 0.145 12.4 1.55 13.32
12/23/2020 11:00:00 AM 2.29 36.122 0.145 12.14 1.52 13.29
12/23/2020 11:15:00 AM 2.36 36.248 0.145 12.17 1.54 13.27
12/23/2020 11:30:00 AM 2.43 36.374 0.145 11.99 1.52 13.23
12/23/2020 11:45:00 AM 2.5 36.5 0.145 12.43 1.56 13.19
12/23/2020 12:00:00 PM 2.58 36.644 0.145 11.97 1.52 13.16
12/23/2020 12:15:00 PM 2.65 36.77 0.145 11.81 1.53 13.12
12/23/2020 12:30:00 PM 2.72 36.896 0.144 12.07 1.57 13.09
12/23/2020 12:45:00 PM 2.77 36.986 0.144 12.12 1.51 13.06
12/23/2020 1:00:00 PM 2.83 37.094 0.144 11.91 1.51 13.05
12/23/2020 1:15:00 PM 2.88 37.184 0.144 12.22 1.55 13.02
12/23/2020 1:30:00 PM 2.93 37.274 0.144 12.05 1.53 13.01
12/23/2020 1:45:00 PM 2.97 37.346 0.144 11.79 1.58 12.99
12/23/2020 2:00:00 PM 2.99 37.382 0.144 12.33 1.54 12.98
12/23/2020 2:15:00 PM 3 37.4 0.144 12.33 1.52 12.98
12/23/2020 2:30:00 PM 3.01 37.418 0.144 12.29 1.56 12.97
12/23/2020 2:45:00 PM 3 37.4 0.144 12.22 1.58 12.96
12/23/2020 3:00:00 PM 2.98 37.364 0.144 12.37 1.52 12.96
12/23/2020 3:15:00 PM 2.95 37.31 0.144 12.63 1.52 12.97
12/23/2020 3:30:00 PM 2.92 37.256 0.143 12.26 1.56 12.97
12/23/2020 3:45:00 PM 2.89 37.202 0.143 12.53 1.54 12.98
12/23/2020 4:00:00 PM 2.86 37.148 0.143 12.54 1.51 12.99
12/23/2020 4:15:00 PM 2.84 37.112 0.143 12.3 1.52 13
12/23/2020 4:30:00 PM 2.8 37.04 0.143 12.08 1.53 13
12/23/2020 4:45:00 PM 2.77 36.986 0.143 12.27 1.53 13.01
12/23/2020 5:00:00 PM 2.73 36.914 0.143 12.26 1.53 13.02
12/23/2020 5:15:00 PM 2.71 36.878 0.143 11.99 1.55 13.02
12/23/2020 5:30:00 PM 2.68 36.824 0.143 12.41 1.58 13.02
12/23/2020 5:45:00 PM 2.67 36.806 0.143 12.43 1.57 13.02
12/23/2020 6:00:00 PM 2.65 36.77 0.144 12.31 1.55 13.03
12/23/2020 6:15:00 PM 2.64 36.752 0.144 12.47 1.63 13.03
12/23/2020 6:30:00 PM 2.63 36.734 0.144 11.82 1.56 13.04
12/23/2020 6:45:00 PM 2.62 36.716 0.144 12.15 1.53 13.04
12/23/2020 7:00:00 PM 2.61 36.698 0.144 12.41 1.55 13.04
12/23/2020 7:15:00 PM 2.61 36.698 0.144 11.99 1.6 13.04
12/23/2020 7:30:00 PM 2.6 36.68 0.144 12.51 1.56 13.04
12/23/2020 7:45:00 PM 2.59 36.662 0.144 12.36 1.55 13.05
12/23/2020 8:00:00 PM 2.57 36.626 0.144 12.02 1.56 13.05
12/23/2020 8:15:00 PM 2.57 36.626 0.144 12.4 1.56 13.05
12/23/2020 8:30:00 PM 2.57 36.626 0.144 12.29 1.54 13.04
12/23/2020 8:45:00 PM 2.57 36.626 0.144 12.5 1.55 13.04
12/23/2020 9:00:00 PM 2.57 36.626 0.144 12.19 1.53 13.04
12/23/2020 9:15:00 PM 2.57 36.626 0.144 12.19 1.5 13.04
12/23/2020 9:30:00 PM 2.57 36.626 0.144 12.27 1.54 13.04
12/23/2020 9:45:00 PM 2.57 36.626 0.145 11.63 1.56 13.03
12/23/2020 10:00:00 PM 2.57 36.626 0.145 12.12 1.61 13.03
12/23/2020 10:15:00 PM 2.57 36.626 0.145 11.85 1.59 13.03
12/23/2020 10:30:00 PM 2.57 36.626 0.145 12.06 1.58 13.03
12/23/2020 10:45:00 PM 2.56 36.608 0.145 12.03 1.54 13.03
12/23/2020 11:00:00 PM 2.56 36.608 0.145 12.18 1.58 13.03
12/23/2020 11:15:00 PM 2.56 36.608 0.145 11.99 1.55 13.03
12/23/2020 11:30:00 PM 2.54 36.572 0.146 11.84 1.59 13.03
12/23/2020 11:45:00 PM 2.53 36.554 0.146 11.87 1.61 13.03
12/24/2020 12:00:00 AM 2.52 36.536 0.146 12.38 1.57 13.04
12/24/2020 12:15:00 AM 2.51 36.518 0.146 11.96 1.59 13.04
12/24/2020 12:30:00 AM 2.52 36.536 0.146 12.32 1.59 13.04
12/24/2020 12:45:00 AM 2.52 36.536 0.146 12.58 1.58 13.03
12/24/2020 1:00:00 AM 2.52 36.536 0.146 11.92 1.57 13.03
12/24/2020 1:15:00 AM 2.54 36.572 0.146 12 1.54 13.02
12/24/2020 1:30:00 AM 2.55 36.59 0.146 11.91 1.57 13.02
12/24/2020 1:45:00 AM 2.55 36.59 0.146 12.21 1.56 13.01
12/24/2020 2:00:00 AM 2.55 36.59 0.146 11.93 1.57 13.01
12/24/2020 2:15:00 AM 2.55 36.59 0.146 12.06 1.58 13
12/24/2020 2:30:00 AM 2.56 36.608 0.146 12.08 1.56 13
12/24/2020 2:45:00 AM 2.57 36.626 0.146 11.91 1.57 13
12/24/2020 3:00:00 AM 2.58 36.644 0.146 12.11 1.6 13
12/24/2020 3:15:00 AM 2.58 36.644 0.146 11.98 1.57 12.99
12/24/2020 3:30:00 AM 2.59 36.662 0.146 11.91 1.58 12.99
12/24/2020 3:45:00 AM 2.61 36.698 0.146 12.16 1.56 12.98
12/24/2020 4:00:00 AM 2.62 36.716 0.146 12.11 1.59 12.98
12/24/2020 4:15:00 AM 2.63 36.734 0.146 12.49 1.59 12.97
12/24/2020 4:30:00 AM 2.65 36.77 0.146 12.12 1.58 12.96
12/24/2020 4:45:00 AM 2.67 36.806 0.146 12.07 1.56 12.95
12/24/2020 5:00:00 AM 2.69 36.842 0.146 12.69 1.6 12.95
12/24/2020 5:15:00 AM 2.72 36.896 0.146 12.22 1.6 12.94
12/24/2020 5:30:00 AM 2.74 36.932 0.146 12.16 1.59 12.93
12/24/2020 5:45:00 AM 2.77 36.986 0.146 11.47 1.58 12.92
12/24/2020 6:00:00 AM 2.79 37.022 0.146 11.97 1.62 12.91
12/24/2020 6:15:00 AM 2.82 37.076 0.146 12.17 1.63 12.9
12/24/2020 6:30:00 AM 2.84 37.112 0.146 11.9 1.59 12.9
12/24/2020 6:45:00 AM 2.86 37.148 0.146 12.22 1.61 12.89
12/24/2020 7:00:00 AM 2.87 37.166 0.146 11.99 1.68 12.89
12/24/2020 7:15:00 AM 2.88 37.184 0.145 12.06 1.76 12.89
12/24/2020 7:30:00 AM 2.89 37.202 0.145 12.07 1.75 12.87
12/24/2020 7:45:00 AM 2.9 37.22 0.145 11.94 1.81 12.87
12/24/2020 8:00:00 AM 2.91 37.238 0.145 11.94 1.77 12.86
12/24/2020 8:15:00 AM 2.92 37.256 0.145 12.4 1.86 12.86
12/24/2020 8:30:00 AM 2.92 37.256 0.145 11.78 2.14 12.86
12/24/2020 8:45:00 AM 2.93 37.274 0.144 12.04 2.41 12.86
12/24/2020 9:00:00 AM 2.94 37.292 0.144 11.87 2.62 12.86
12/24/2020 9:15:00 AM 2.94 37.292 0.143 12.21 3.28 12.86
12/24/2020 9:30:00 AM 2.94 37.292 0.143 12.16 4.14 12.86
12/24/2020 9:45:00 AM 2.95 37.31 0.144 12 4.7 12.86
12/24/2020 10:00:00 AM 2.96 37.328 0.144 11.65 6.06 12.86
12/24/2020 10:15:00 AM 2.98 37.364 0.145 11.75 6.66 12.85
12/24/2020 10:30:00 AM 2.99 37.382 0.146 11.71 8.09 12.85
12/24/2020 10:45:00 AM 2.99 37.382 0.147 11.9 10.05 12.84
12/24/2020 11:00:00 AM 3.01 37.418 0.148 11.53 11.31 12.84
12/24/2020 11:15:00 AM 3.03 37.454 0.15 11.93 13.76 12.83
12/24/2020 11:30:00 AM 3.03 37.454 0.155 11.92 19.58 12.83
12/24/2020 11:45:00 AM 3.07 37.526 0.161 11.87 15.34 12.82
12/24/2020 12:00:00 PM 3.07 37.526 0.166 12.37 14.07 12.82
12/24/2020 12:15:00 PM 3.05 37.49 0.169 12.7 16.59 12.83
12/24/2020 12:30:00 PM 3.02 37.436 0.172 12.62 19.63 12.84
12/24/2020 12:45:00 PM 3.04 37.472 0.175 12.35 15.32 12.84
12/24/2020 1:00:00 PM 3.05 37.49 0.176 11.44 19.99 12.83
12/24/2020 1:15:00 PM 3.07 37.526 0.178 11.17 19.66 12.82
12/24/2020 1:30:00 PM 3.08 37.544 0.179 12.93 12.23 12.82
12/24/2020 1:45:00 PM 3.06 37.508 0.182 12.73 20.12 12.82
12/24/2020 2:00:00 PM 3.05 37.49 0.187 12.01 24.63 12.82
12/24/2020 2:15:00 PM 3.05 37.49 0.192 12.74 27 12.82
12/24/2020 2:30:00 PM 3.05 37.49 0.198 12.44 34.77 12.81
12/24/2020 2:45:00 PM 3.03 37.454 0.205 12.64 29.19 12.82
12/24/2020 3:00:00 PM 3.05 37.49 0.204 11 29.15 12.82
12/24/2020 3:15:00 PM 3.07 37.526 0.204 11.05 32.03 12.8
12/24/2020 3:30:00 PM 3.11 37.598 0.203 12.61 30.24 12.78
12/24/2020 3:45:00 PM 3.16 37.688 0.202 11.57 75.07 12.76
12/24/2020 4:00:00 PM 3.17 37.706 0.204 12.42 38.05 12.76
12/24/2020 4:15:00 PM 3.18 37.724 0.205 12.63 35.54 12.75
12/24/2020 4:30:00 PM 3.17 37.706 0.204 12.65 38.78 12.75
12/24/2020 4:45:00 PM 3.14 37.652 0.204 12.78 39.46 12.77
12/24/2020 5:00:00 PM 3.12 37.616 0.204 12.97 46.93 12.76
12/24/2020 5:15:00 PM 3.12 37.616 0.205 12.67 46.15 12.77
12/24/2020 5:30:00 PM 3.12 37.616 0.204 12.85 51.83 12.76
12/24/2020 5:45:00 PM 3.15 37.67 0.204 12.76 40.39 12.74
12/24/2020 6:00:00 PM 3.21 37.778 0.203 12.57 34.53 12.71
12/24/2020 6:15:00 PM 3.26 37.868 0.204 12.7 33.68 12.69
12/24/2020 6:30:00 PM 3.29 37.922 0.203 12.76 32.63 12.67
12/24/2020 6:45:00 PM 3.32 37.976 0.203 12.66 26.33 12.66
12/24/2020 7:00:00 PM 3.35 38.03 0.203 13 26.7 12.64
12/24/2020 7:15:00 PM 3.39 38.102 0.204 12.65 23.98 12.63
12/24/2020 7:30:00 PM 3.42 38.156 0.204 12.8 22.48 12.62
12/24/2020 7:45:00 PM 3.44 38.192 0.202 13.11 20.99 12.6
12/24/2020 8:00:00 PM 3.47 38.246 0.201 12.73 19.51 12.59
12/24/2020 8:15:00 PM 3.5 38.3 0.201 12.47 17.07 12.59
12/24/2020 8:30:00 PM 3.52 38.336 0.2 13.03 15.38 12.58
12/24/2020 8:45:00 PM 3.53 38.354 0.2 12.38 14.12 12.57
12/24/2020 9:00:00 PM 3.55 38.39 0.203 12.58 15.47 12.57
12/24/2020 9:15:00 PM 3.57 38.426 0.204 12.64 13.55 12.56
12/24/2020 9:30:00 PM 3.58 38.444 0.204 12.68 14.03 12.55
12/24/2020 9:45:00 PM 3.59 38.462 0.204 12.51 14.06 12.55
12/24/2020 10:00:00 PM 3.59 38.462 0.204 12.15 13.79 12.54
12/24/2020 10:15:00 PM 3.6 38.48 0.205 12.41 13.7 12.53
12/24/2020 10:30:00 PM 3.61 38.498 0.205 12.2 12.93 12.52
12/24/2020 10:45:00 PM 3.62 38.516 0.208 12.17 13.31 12.51
12/24/2020 11:00:00 PM 3.64 38.552 0.209 12.53 13.59 12.5
12/24/2020 11:15:00 PM 3.66 38.588 0.208 12.73 13.46 12.49
12/24/2020 11:30:00 PM 3.67 38.606 0.207 12.32 16.58 12.48
12/24/2020 11:45:00 PM 3.68 38.624 0.207 12.62 14.66 12.48
12/25/2020 12:00:00 AM 3.66 38.588 0.205 12.53 17.28 12.5
12/25/2020 12:15:00 AM 3.59 38.462 0.203 12.54 18.05 12.53
12/25/2020 12:30:00 AM 3.49 38.282 0.203 12.5 18.36 12.56
12/25/2020 12:45:00 AM 3.44 38.192 0.201 12.43 17.12 12.58
12/25/2020 1:00:00 AM 3.37 38.066 0.201 12.3 20.91 12.59
12/25/2020 1:15:00 AM 3.29 37.922 0.2 12.64 18.12 12.62
12/25/2020 1:30:00 AM 3.31 37.958 0.199 12.6 18.07 12.62
12/25/2020 1:45:00 AM 3.34 38.012 0.198 13.12 32.59 12.62
12/25/2020 2:00:00 AM 3.34 38.012 0.197 12.79 17.2 12.62
12/25/2020 2:15:00 AM 3.34 38.012 0.196 12.7 16.46 12.62
12/25/2020 2:30:00 AM 3.32 37.976 0.195 12.89 13.81 12.62
12/25/2020 2:45:00 AM 3.29 37.922 0.195 12.88 16.35 12.63
12/25/2020 3:00:00 AM 3.27 37.886 0.195 12.88 15.21 12.65
12/25/2020 3:15:00 AM 3.18 37.724 0.195 13.05 16.57 12.67
12/25/2020 3:30:00 AM 3.14 37.652 0.196 12.54 21.58 12.69
12/25/2020 3:45:00 AM 3.14 37.652 0.197 12.89 14.35 12.69
12/25/2020 4:00:00 AM 3.14 37.652 0.196 13.02 15.7 12.68
12/25/2020 4:15:00 AM 3.11 37.598 0.196 12.64 14.26 12.69
12/25/2020 4:30:00 AM 3.09 37.562 0.196 12.96 16.63 12.71
12/25/2020 4:45:00 AM 3.08 37.544 0.197 12.96 13.5 12.72
12/25/2020 5:00:00 AM 3.07 37.526 0.197 12.55 12.25 12.72
12/25/2020 5:15:00 AM 3.08 37.544 0.196 12.87 11.6 12.72
12/25/2020 5:30:00 AM 3.07 37.526 0.195 12.76 11.27 12.73
12/25/2020 5:45:00 AM 3.04 37.472 0.193 12.93 10.71 12.74
12/25/2020 6:00:00 AM 3.03 37.454 0.192 12.76 9.91 12.75
12/25/2020 6:15:00 AM 3 37.4 0.19 12.86 9.79 12.77
12/25/2020 6:30:00 AM 2.98 37.364 0.189 12.58 8.91 12.78
12/25/2020 6:45:00 AM 2.97 37.346 0.187 12.53 9.39 12.79
12/25/2020 7:00:00 AM 2.94 37.292 0.186 12.61 8.71 12.8
12/25/2020 7:15:00 AM 2.91 37.238 0.183 12.67 8.77 12.82
12/25/2020 7:30:00 AM 2.89 37.202 0.182 12.83 7.77 12.83
12/25/2020 7:45:00 AM 2.88 37.184 0.181 12.79 7.32 12.83
12/25/2020 8:00:00 AM 2.89 37.202 0.18 12.83 7.57 12.83
12/25/2020 8:15:00 AM 2.88 37.184 0.18 12.61 7.04 12.84
12/25/2020 8:30:00 AM 2.88 37.184 0.179 12.76 6.97 12.84
12/25/2020 8:45:00 AM 2.87 37.166 0.178 12.73 7.13 12.85
12/25/2020 9:00:00 AM 2.86 37.148 0.177 12.88 6.63 12.85
12/25/2020 9:15:00 AM 2.86 37.148 0.176 12.69 6.46 12.86
12/25/2020 9:30:00 AM 2.85 37.13 0.176 12.61 6.26 12.86
12/25/2020 9:45:00 AM 2.85 37.13 0.175 12.95 6.16 12.86
12/25/2020 10:00:00 AM 2.86 37.148 0.174 12.69 6.51 12.86
12/25/2020 10:15:00 AM 2.87 37.166 0.173 12.51 5.7 12.85
12/25/2020 10:30:00 AM 2.89 37.202 0.172 12.6 5.97 12.85
12/25/2020 10:45:00 AM 2.89 37.202 0.171 12.59 5.62 12.85
12/25/2020 11:00:00 AM 2.9 37.22 0.17 12.15 5.67 12.84
12/25/2020 11:15:00 AM 2.93 37.274 0.169 12.8 5.51 12.83
12/25/2020 11:30:00 AM 2.94 37.292 0.168 12.85 5.54 12.82
12/25/2020 11:45:00 AM 2.94 37.292 0.168 12.45 5.18 12.82
12/25/2020 12:00:00 PM 2.96 37.328 0.167 12.76 5.1 12.81
12/25/2020 12:15:00 PM 2.97 37.346 0.166 12.82 5.02 12.8
12/25/2020 12:30:00 PM 2.99 37.382 0.165 12.77 5.15 12.8
12/25/2020 12:45:00 PM 3 37.4 0.164 12.35 4.78 12.79
12/25/2020 1:00:00 PM 3.02 37.436 0.164 12.05 4.78 12.79
12/25/2020 1:15:00 PM 3.02 37.436 0.163 12.66 4.84 12.79
12/25/2020 1:30:00 PM 3.03 37.454 0.163 12.43 4.81 12.79
12/25/2020 1:45:00 PM 3.04 37.472 0.162 12.32 4.67 12.78
12/25/2020 2:00:00 PM 3.03 37.454 0.161 12.72 4.66 12.79
12/25/2020 2:15:00 PM 3 37.4 0.16 12.4 4.53 12.8
12/25/2020 2:30:00 PM 3.02 37.436 0.159 12.72 4.65 12.79
12/25/2020 2:45:00 PM 3 37.4 0.159 12.28 4.64 12.8
12/25/2020 3:00:00 PM 2.99 37.382 0.158 12.78 4.61 12.81
12/25/2020 3:15:00 PM 2.97 37.346 0.157 12.55 4.47 12.82
12/25/2020 3:30:00 PM 2.95 37.31 0.156 12.08 4.28 12.82
12/25/2020 3:45:00 PM 2.94 37.292 0.155 11.76 4.24 12.84
12/25/2020 4:00:00 PM 2.92 37.256 0.154 12.52 4.31 12.85
12/25/2020 4:15:00 PM 2.89 37.202 0.153 12.69 4.29 12.86
12/25/2020 4:30:00 PM 2.86 37.148 0.152 12.53 4.39 12.87
12/25/2020 4:45:00 PM 2.84 37.112 0.152 12.45 4.17 12.88
12/25/2020 5:00:00 PM 2.83 37.094 0.151 12.68 4.25 12.9
12/25/2020 5:15:00 PM 2.82 37.076 0.15 12.68 4.01 12.9
12/25/2020 5:30:00 PM 2.81 37.058 0.149 12.56 4.19 12.91
12/25/2020 5:45:00 PM 2.8 37.04 0.148 12.2 3.97 12.92
12/25/2020 6:00:00 PM 2.78 37.004 0.147 12.66 3.94 12.92
12/25/2020 6:15:00 PM 2.77 36.986 0.146 12.67 3.96 12.93
12/25/2020 6:30:00 PM 2.74 36.932 0.146 12.65 3.77 12.94
12/25/2020 6:45:00 PM 2.72 36.896 0.145 12.53 3.94 12.95
12/25/2020 7:00:00 PM 2.73 36.914 0.144 12.35 3.81 12.95
12/25/2020 7:15:00 PM 2.73 36.914 0.143 12.4 3.56 12.96
12/25/2020 7:30:00 PM 2.74 36.932 0.142 12.67 3.67 12.96
12/25/2020 7:45:00 PM 2.75 36.95 0.141 12.66 3.5 12.96
12/25/2020 8:00:00 PM 2.75 36.95 0.141 12.73 3.61 12.96
12/25/2020 8:15:00 PM 2.73 36.914 0.14 12.89 3.43 12.97
12/25/2020 8:30:00 PM 2.72 36.896 0.139 12.54 3.39 12.97
12/25/2020 8:45:00 PM 2.69 36.842 0.138 12.2 3.37 12.98
12/25/2020 9:00:00 PM 2.68 36.824 0.137 12.44 3.43 12.98
12/25/2020 9:15:00 PM 2.67 36.806 0.137 12.6 3.49 12.99
12/25/2020 9:30:00 PM 2.66 36.788 0.136 12.59 3.39 12.99
12/25/2020 9:45:00 PM 2.67 36.806 0.135 12.15 3.34 12.99
12/25/2020 10:00:00 PM 2.67 36.806 0.134 12.41 3.39 12.99
12/25/2020 10:15:00 PM 2.66 36.788 0.134 12.53 3.27 12.99
12/25/2020 10:30:00 PM 2.65 36.77 0.133 12.44 3.43 12.99
12/25/2020 10:45:00 PM 2.64 36.752 0.132 12.55 3.25 12.99
12/25/2020 11:00:00 PM 2.63 36.734 0.132 12.62 3.19 13
12/25/2020 11:15:00 PM 2.58 36.644 0.131 12.53 3.2 13.01
12/25/2020 11:30:00 PM 2.58 36.644 0.131 12.37 3.21 13.01
12/25/2020 11:45:00 PM 2.57 36.626 0.13 12.27 3.09 13.01
12/26/2020 12:00:00 AM 2.54 36.572 0.129 12.36 3.2 13.02
12/26/2020 12:15:00 AM 2.52 36.536 0.128 12.42 3.1 13.03
12/26/2020 12:30:00 AM 2.52 36.536 0.128 12.1 3.23 13.03
12/26/2020 12:45:00 AM 2.5 36.5 0.127 12.67 3.17 13.04
12/26/2020 1:00:00 AM 2.5 36.5 0.127 11.71 3.1 13.03
12/26/2020 1:15:00 AM 2.5 36.5 0.126 12.55 3.13 13.03
12/26/2020 1:30:00 AM 2.51 36.518 0.126 12.34 3 13.03
12/26/2020 1:45:00 AM 2.51 36.518 0.125 12.34 3 13.03
12/26/2020 2:00:00 AM 2.52 36.536 0.125 12.46 3.09 13.03
12/26/2020 2:15:00 AM 2.52 36.536 0.124 12.23 3.06 13.04
12/26/2020 2:30:00 AM 2.5 36.5 0.124 12.47 3.02 13.04
12/26/2020 2:45:00 AM 2.51 36.518 0.123 12.62 2.96 13.04
12/26/2020 3:00:00 AM 2.5 36.5 0.123 12.4 2.98 13.05
12/26/2020 3:15:00 AM 2.5 36.5 0.122 12.46 2.89 13.05
12/26/2020 3:30:00 AM 2.5 36.5 0.122 12.42 2.96 13.05
12/26/2020 3:45:00 AM 2.51 36.518 0.121 12.65 2.87 13.05
12/26/2020 4:00:00 AM 2.5 36.5 0.121 12.66 2.92 13.05
12/26/2020 4:15:00 AM 2.48 36.464 0.12 12.19 2.88 13.06
12/26/2020 4:30:00 AM 2.46 36.428 0.12 12.63 2.92 13.06
12/26/2020 4:45:00 AM 2.46 36.428 0.119 12.38 3 13.07
12/26/2020 5:00:00 AM 2.46 36.428 0.119 12.83 2.89 13.07
12/26/2020 5:15:00 AM 2.46 36.428 0.118 12.3 2.91 13.07
12/26/2020 5:30:00 AM 2.48 36.464 0.118 12.38 2.82 13.07
12/26/2020 5:45:00 AM 2.47 36.446 0.118 12.74 2.87 13.07
12/26/2020 6:00:00 AM 2.47 36.446 0.118 12.66 2.88 13.07
12/26/2020 6:15:00 AM 2.46 36.428 0.118 12.29 2.87 13.08
12/26/2020 6:30:00 AM 2.46 36.428 0.117 12.02 2.83 13.08
12/26/2020 6:45:00 AM 2.46 36.428 0.117 12.59 2.75 13.09
12/26/2020 7:00:00 AM 2.46 36.428 0.116 12.68 2.71 13.09
12/26/2020 7:15:00 AM 2.46 36.428 0.116 12.47 2.76 13.09
12/26/2020 7:30:00 AM 2.48 36.464 0.115 12.16 2.74 13.08
12/26/2020 7:45:00 AM 2.49 36.482 0.115 11.92 2.68 13.08
12/26/2020 8:00:00 AM 2.5 36.5 0.115 12.6 2.73 13.08
12/26/2020 8:15:00 AM 2.5 36.5 0.114 12.21 2.68 13.08
12/26/2020 8:30:00 AM 2.52 36.536 0.114 12.2 2.85 13.07
12/26/2020 8:45:00 AM 2.53 36.554 0.114 12.18 2.66 13.07
12/26/2020 9:00:00 AM 2.54 36.572 0.113 12.6 2.74 13.07
12/26/2020 9:15:00 AM 2.56 36.608 0.113 12.39 2.69 13.07
12/26/2020 9:30:00 AM 2.57 36.626 0.113 12.09 2.75 13.06
12/26/2020 9:45:00 AM 2.58 36.644 0.112 12.28 2.68 13.06
12/26/2020 10:00:00 AM 2.6 36.68 0.112 12.55 2.82 13.07
12/26/2020 10:15:00 AM 2.61 36.698 0.112 12.32 2.75 13.06
12/26/2020 10:30:00 AM 2.62 36.716 0.111 12.52 2.66 13.06
12/26/2020 10:45:00 AM 2.64 36.752 0.111 12.2 2.77 13.06
12/26/2020 11:00:00 AM 2.64 36.752 0.111 12.26 2.56 13.05
12/26/2020 11:15:00 AM 2.68 36.824 0.111 12.15 2.69 13.04
12/26/2020 11:30:00 AM 2.7 36.86 0.11 12.37 2.65 13.03
12/26/2020 11:45:00 AM 2.72 36.896 0.11 12.08 2.61 13.02
12/26/2020 12:00:00 PM 2.74 36.932 0.11 11.99 2.63 13.02
12/26/2020 12:15:00 PM 2.75 36.95 0.109 12.07 2.6 13.02
12/26/2020 12:30:00 PM 2.76 36.968 0.109 12.46 2.66 13.01
12/26/2020 12:45:00 PM 2.76 36.968 0.109 12.53 2.59 13.01
12/26/2020 1:00:00 PM 2.79 37.022 0.108 11.8 2.56 13.01
12/26/2020 1:15:00 PM 2.84 37.112 0.108 12.24 2.51 12.99
12/26/2020 1:30:00 PM 2.86 37.148 0.108 12 2.57 12.99
12/26/2020 1:45:00 PM 2.85 37.13 0.109 11.57 2.58 12.99
12/26/2020 2:00:00 PM 2.85 37.13 0.108 11.9 2.63 12.98
12/26/2020 2:15:00 PM 2.86 37.148 0.108 11.88 2.56 12.98
12/26/2020 2:30:00 PM 2.87 37.166 0.107 11.9 2.61 12.98
12/26/2020 2:45:00 PM 2.87 37.166 0.107 11.69 2.54 12.98
12/26/2020 3:00:00 PM 2.9 37.22 0.106 11.53 2.59 12.97
12/26/2020 3:15:00 PM 2.9 37.22 0.106 11.79 2.55 12.97
12/26/2020 3:30:00 PM 2.9 37.22 0.106 11.94 2.52 12.97
12/26/2020 3:45:00 PM 2.9 37.22 0.106 11.41 2.49 12.97
12/26/2020 4:00:00 PM 2.91 37.238 0.105 11.39 2.57 12.97
12/26/2020 4:15:00 PM 2.91 37.238 0.106 12.08 2.58 12.97
12/26/2020 4:30:00 PM 2.9 37.22 0.106 11.99 2.49 12.98
12/26/2020 4:45:00 PM 2.9 37.22 0.105 11.34 2.46 12.98
12/26/2020 5:00:00 PM 2.89 37.202 0.105 11.39 2.49 12.98
12/26/2020 5:15:00 PM 2.88 37.184 0.105 12.28 2.49 12.98
12/26/2020 5:30:00 PM 2.89 37.202 0.104 12.21 2.52 12.99
12/26/2020 5:45:00 PM 2.9 37.22 0.104 12.43 2.52 12.99
12/26/2020 6:00:00 PM 2.89 37.202 0.104 12.84 2.48 12.99
12/26/2020 6:15:00 PM 2.89 37.202 0.104 12.71 2.47 13
12/26/2020 6:30:00 PM 2.89 37.202 0.104 12.83 2.5 13
12/26/2020 6:45:00 PM 2.88 37.184 0.103 12.81 2.54 13
12/26/2020 7:00:00 PM 2.88 37.184 0.103 12.48 2.57 13
12/26/2020 7:15:00 PM 2.88 37.184 0.103 12.21 2.41 13
12/26/2020 7:30:00 PM 2.89 37.202 0.103 11.54 2.4 13.01
12/26/2020 7:45:00 PM 2.89 37.202 0.103 12.39 2.44 13.01
12/26/2020 8:00:00 PM 2.9 37.22 0.102 12.56 2.42 13.01
12/26/2020 8:15:00 PM 2.91 37.238 0.102 12.42 2.38 13.01
12/26/2020 8:30:00 PM 2.91 37.238 0.102 12.11 2.39 13
12/26/2020 8:45:00 PM 2.92 37.256 0.102 12.37 2.4 13
12/26/2020 9:00:00 PM 2.93 37.274 0.102 12.36 2.46 13
12/26/2020 9:15:00 PM 2.93 37.274 0.102 12.48 2.37 13
12/26/2020 9:30:00 PM 2.94 37.292 0.102 12.53 2.4 13
12/26/2020 9:45:00 PM 2.95 37.31 0.101 12.29 2.43 13
12/26/2020 10:00:00 PM 2.96 37.328 0.101 12.29 2.51 12.99
12/26/2020 10:15:00 PM 2.98 37.364 0.101 12.4 2.4 12.98
12/26/2020 10:30:00 PM 2.98 37.364 0.101 12.42 2.6 12.99
12/26/2020 10:45:00 PM 2.99 37.382 0.101 12.29 2.48 12.99
12/26/2020 11:00:00 PM 3.01 37.418 0.101 12.08 2.45 12.98
12/26/2020 11:15:00 PM 3.02 37.436 0.101 12.13 2.52 12.98
12/26/2020 11:30:00 PM 3.03 37.454 0.101 11.65 2.53 12.97
12/26/2020 11:45:00 PM 3.05 37.49 0.1 12.28 2.85 12.97
12/27/2020 12:00:00 AM 3.05 37.49 0.1 12.65 2.9 12.96
12/27/2020 12:15:00 AM 3.06 37.508 0.1 12.4 3.08 12.96
12/27/2020 12:30:00 AM 3.08 37.544 0.1 12.59 2.88 12.95
12/27/2020 12:45:00 AM 3.09 37.562 0.1 12.59 2.66 12.95
12/27/2020 1:00:00 AM 3.11 37.598 0.1 11.69 2.55 12.94
12/27/2020 1:15:00 AM 3.11 37.598 0.1 11.76 2.89 12.94
12/27/2020 1:30:00 AM 3.12 37.616 0.099 11.71 2.63 12.94
12/27/2020 1:45:00 AM 3.14 37.652 0.099 11.76 2.97 12.94
12/27/2020 2:00:00 AM 3.14 37.652 0.099 11.81 3.12 12.93
12/27/2020 2:15:00 AM 3.16 37.688 0.099 11.81 2.77 12.93
12/27/2020 2:30:00 AM 3.18 37.724 0.099 11.89 3.25 12.93
12/27/2020 2:45:00 AM 3.2 37.76 0.099 11.84 3.02 12.92
12/27/2020 3:00:00 AM 3.21 37.778 0.099 11.93 2.68 12.92
12/27/2020 3:15:00 AM 3.23 37.814 0.099 11.89 2.7 12.91
12/27/2020 3:30:00 AM 3.24 37.832 0.098 11.99 2.55 12.91
12/27/2020 3:45:00 AM 3.24 37.832 0.098 11.97 2.69 12.9
12/27/2020 4:00:00 AM 3.25 37.85 0.098 11.98 4.35 12.9
12/27/2020 4:15:00 AM 3.26 37.868 0.098 11.99 2.59 12.9
12/27/2020 4:30:00 AM 3.27 37.886 0.098 12 2.64 12.9
12/27/2020 4:45:00 AM 3.27 37.886 0.098 12.03 2.55 12.9
12/27/2020 5:00:00 AM 3.27 37.886 0.098 12.04 2.57 12.91
12/27/2020 5:15:00 AM 3.28 37.904 0.098 12.08 3.31 12.9
12/27/2020 5:30:00 AM 3.28 37.904 0.097 12.1 2.56 12.9
12/27/2020 5:45:00 AM 3.28 37.904 0.097 12.13 2.51 12.91
12/27/2020 6:00:00 AM 3.29 37.922 0.097 12.15 2.54 12.91
12/27/2020 6:15:00 AM 3.29 37.922 0.097 12.25 2.62 12.91
12/27/2020 6:30:00 AM 3.28 37.904 0.097 12.27 2.57 12.91
12/27/2020 6:45:00 AM 3.28 37.904 0.097 12.31 2.61 12.91
12/27/2020 7:00:00 AM 3.28 37.904 0.097 12.31 2.89 12.92
12/27/2020 7:15:00 AM 3.29 37.922 0.097 12.3 2.59 12.92
12/27/2020 7:30:00 AM 3.28 37.904 0.097 12.35 2.42 12.92
12/27/2020 7:45:00 AM 3.26 37.868 0.096 12.37 2.6 12.93
12/27/2020 8:00:00 AM 3.23 37.814 0.096 12.4 2.25 12.94
12/27/2020 8:15:00 AM 3.2 37.76 0.096 12.42 2.99 12.96
12/27/2020 8:30:00 AM 3.18 37.724 0.096 12.49 3.03 12.97
12/27/2020 8:45:00 AM 3.16 37.688 0.096 12.46 2.82 12.97
12/27/2020 9:00:00 AM 3.16 37.688 0.096 12.49 2.56 12.97
12/27/2020 9:15:00 AM 3.18 37.724 0.096 12.5 2.45 12.97
12/27/2020 9:30:00 AM 3.23 37.814 0.096 12.5 2.51 12.95
12/27/2020 9:45:00 AM 3.28 37.904 0.096 12.49 2.48 12.94
12/27/2020 10:00:00 AM 3.34 38.012 0.096 12.49 2.54 12.92
12/27/2020 10:15:00 AM 3.39 38.102 0.095 12.57 2.44 12.9
12/27/2020 10:30:00 AM 3.43 38.174 0.095 12.53 2.54 12.89
12/27/2020 10:45:00 AM 3.47 38.246 0.095 12.54 2.51 12.88
12/27/2020 11:00:00 AM 3.51 38.318 0.095 12.6 2.49 12.87
12/27/2020 11:15:00 AM 3.57 38.426 0.095 12.62 2.56 12.85
12/27/2020 11:30:00 AM 3.62 38.516 0.095 12.68 2.44 12.83
12/27/2020 11:45:00 AM 3.67 38.606 0.095 12.66 2.47 12.81
12/27/2020 12:00:00 PM 3.71 38.678 0.095 12.71 3 12.8
12/27/2020 12:15:00 PM 3.74 38.732 0.095 12.77 2.59 12.79
12/27/2020 12:30:00 PM 3.77 38.786 0.095 12.78 2.46 12.77
12/27/2020 12:45:00 PM 3.8 38.84 0.095 12.82 2.46 12.75
12/27/2020 1:00:00 PM 3.84 38.912 0.094 12.77 2.49 12.73
12/27/2020 1:15:00 PM 3.88 38.984 0.094 12.82 2.47 12.72
12/27/2020 1:30:00 PM 3.91 39.038 0.094 12.74 2.54 12.71
12/27/2020 1:45:00 PM 3.93 39.074 0.094 12.78 2.58 12.69
12/27/2020 2:00:00 PM 3.93 39.074 0.094 12.7 2.62 12.69
12/27/2020 2:15:00 PM 3.93 39.074 0.094 12.76 2.45 12.69
12/27/2020 2:30:00 PM 3.94 39.092 0.094 12.79 2.43 12.68
12/27/2020 2:45:00 PM 3.95 39.11 0.094 12.83 2.51 12.68
12/27/2020 3:00:00 PM 3.96 39.128 0.094 12.85 2.51 12.68
12/27/2020 3:15:00 PM 3.97 39.146 0.094 12.88 2.41 12.67
12/27/2020 3:30:00 PM 3.99 39.182 0.094 12.95 2.5 12.67
12/27/2020 3:45:00 PM 3.99 39.182 0.094 12.97 2.46 12.67
12/27/2020 4:00:00 PM 3.99 39.182 0.094 12.95 2.46 12.66
12/27/2020 4:15:00 PM 3.99 39.182 0.094 12.94 2.39 12.66
12/27/2020 4:30:00 PM 3.98 39.164 0.094 12.88 2.45 12.66
12/27/2020 4:45:00 PM 3.96 39.128 0.094 12.89 2.36 12.67
12/27/2020 5:00:00 PM 3.94 39.092 0.094 12.9 2.39 12.67
12/27/2020 5:15:00 PM 3.93 39.074 0.094 12.95 2.41 12.67
12/27/2020 5:30:00 PM 3.9 39.02 0.094 12.96 2.42 12.69
12/27/2020 5:45:00 PM 3.89 39.002 0.094 12.93 2.41 12.69
12/27/2020 6:00:00 PM 3.87 38.966 0.094 13.02 2.44 12.7
12/27/2020 6:15:00 PM 3.85 38.93 0.094 13.04 2.4 12.7
12/27/2020 6:30:00 PM 3.83 38.894 0.094 13.05 2.39 12.7
12/27/2020 6:45:00 PM 3.82 38.876 0.094 13.04 2.36 12.71
12/27/2020 7:00:00 PM 3.81 38.858 0.094 13.06 2.4 12.7
12/27/2020 7:15:00 PM 3.8 38.84 0.094 13.04 2.34 12.71
12/27/2020 7:30:00 PM 3.79 38.822 0.094 13.07 2.36 12.72
12/27/2020 7:45:00 PM 3.79 38.822 0.093 13.05 2.36 12.72
12/27/2020 8:00:00 PM 3.79 38.822 0.093 13.08 2.4 12.71
12/27/2020 8:15:00 PM 3.79 38.822 0.093 13.09 2.31 12.71
12/27/2020 8:30:00 PM 3.8 38.84 0.093 13.06 2.35 12.71
12/27/2020 8:45:00 PM 3.79 38.822 0.093 13.09 2.29 12.71
12/27/2020 9:00:00 PM 3.78 38.804 0.093 13.09 2.35 12.71
12/27/2020 9:15:00 PM 3.78 38.804 0.093 13.1 2.34 12.71
12/27/2020 9:30:00 PM 3.78 38.804 0.093 13.1 2.45 12.71
12/27/2020 9:45:00 PM 3.79 38.822 0.093 13.07 2.37 12.71
12/27/2020 10:00:00 PM 3.8 38.84 0.093 13.06 2.28 12.7
12/27/2020 10:15:00 PM 3.8 38.84 0.093 13.07 2.36 12.7
12/27/2020 10:30:00 PM 3.8 38.84 0.093 13.08 2.31 12.7
12/27/2020 10:45:00 PM 3.8 38.84 0.093 13.08 2.29 12.7
12/27/2020 11:00:00 PM 3.79 38.822 0.093 13.07 2.36 12.7
12/27/2020 11:15:00 PM 3.79 38.822 0.093 13.06 2.38 12.7
12/27/2020 11:30:00 PM 3.79 38.822 0.093 13.08 2.36 12.7
12/27/2020 11:45:00 PM 3.8 38.84 0.093 13.06 2.31 12.69
12/28/2020 12:00:00 AM 3.81 38.858 0.093 13.05 2.41 12.68
12/28/2020 12:15:00 AM 3.81 38.858 0.093 13.06 2.33 12.68
12/28/2020 12:30:00 AM 3.81 38.858 0.093 13.05 2.37 12.67
12/28/2020 12:45:00 AM 3.81 38.858 0.093 13.04 2.36 12.66
12/28/2020 1:00:00 AM 3.82 38.876 0.092 13.08 2.37 12.66
12/28/2020 1:15:00 AM 3.82 38.876 0.092 13.07 2.34 12.66
12/28/2020 1:30:00 AM 3.83 38.894 0.092 13.04 2.33 12.66
12/28/2020 1:45:00 AM 3.83 38.894 0.092 13.03 2.28 12.65
12/28/2020 2:00:00 AM 3.84 38.912 0.092 12.99 2.28 12.65
12/28/2020 2:15:00 AM 3.85 38.93 0.092 13.02 2.35 12.65
12/28/2020 2:30:00 AM 3.86 38.948 0.092 13.01 2.34 12.65
12/28/2020 2:45:00 AM 3.87 38.966 0.092 12.97 2.43 12.65
12/28/2020 3:00:00 AM 3.89 39.002 0.092 12.97 2.39 12.64
12/28/2020 3:15:00 AM 3.9 39.02 0.092 13 2.31 12.63
12/28/2020 3:30:00 AM 3.92 39.056 0.092 12.97 2.32 12.63
12/28/2020 3:45:00 AM 3.93 39.074 0.092 12.92 2.35 12.62
12/28/2020 4:00:00 AM 3.85 38.93 0.092 12.94 2.46 12.64
12/28/2020 4:15:00 AM 3.84 38.912 0.092 12.94 2.33 12.64
12/28/2020 4:30:00 AM 3.82 38.876 0.092 12.94 2.24 12.64
12/28/2020 4:45:00 AM 3.85 38.93 0.092 12.98 2.21 12.64
12/28/2020 5:00:00 AM 3.89 39.002 0.092 12.96 2.32 12.62
12/28/2020 5:15:00 AM 3.92 39.056 0.092 12.9 2.28 12.62
12/28/2020 5:30:00 AM 3.94 39.092 0.092 12.89 2.3 12.61
12/28/2020 5:45:00 AM 3.97 39.146 0.092 12.86 2.27 12.61
12/28/2020 6:00:00 AM 4 39.2 0.092 12.84 2.28 12.6
12/28/2020 6:15:00 AM 4.02 39.236 0.092 12.82 2.26 12.59
12/28/2020 6:30:00 AM 4.04 39.272 0.092 12.81 2.25 12.59
12/28/2020 6:45:00 AM 4.07 39.326 0.092 12.83 2.36 12.58
12/28/2020 7:00:00 AM 4.09 39.362 0.092 12.81 2.33 12.57
12/28/2020 7:15:00 AM 4.11 39.398 0.092 12.8 2.29 12.57
12/28/2020 7:30:00 AM 4.12 39.416 0.092 12.71 2.33 12.57
12/28/2020 7:45:00 AM 4.12 39.416 0.092 12.68 2.33 12.56
12/28/2020 8:00:00 AM 4.13 39.434 0.092 12.65 2.26 12.56
12/28/2020 8:15:00 AM 4.15 39.47 0.092 12.66 2.3